<?xml version='1.0' encoding='UTF-8'?><gpx version="1.1" creator="JPX - https://github.com/jenetics/jpx" xmlns="http://www.topografix.com/GPX/1/1"><trk><trkseg><trkpt lat="42.0799547" lon="12.4055779"><ele>231.83333333333331</ele><time>2026-04-15T06:17:21.989Z</time></trkpt><trkpt lat="42.0799498" lon="12.4054677"><ele>231.66666666666666</ele><time>2026-04-15T06:17:24.991Z</time></trkpt><trkpt lat="42.0799675" lon="12.4053703"><ele>231.5</ele><time>2026-04-15T06:17:29.99Z</time></trkpt><trkpt lat="42.0800334" lon="12.4053528"><ele>231.33333333333331</ele><time>2026-04-15T06:17:31.991Z</time></trkpt><trkpt lat="42.0801202" lon="12.4053739"><ele>231.16666666666666</ele><time>2026-04-15T06:17:33.99Z</time></trkpt><trkpt lat="42.0802185" lon="12.4053915"><ele>231.0</ele><time>2026-04-15T06:17:35.991Z</time></trkpt><trkpt lat="42.0803025" lon="12.4054063"><ele>231.0</ele><time>2026-04-15T06:17:37.991Z</time></trkpt><trkpt lat="42.0803763" lon="12.4054167"><ele>231.00000000000003</ele><time>2026-04-15T06:17:39.99Z</time></trkpt><trkpt lat="42.0804744" lon="12.405433"><ele>231.00000000000003</ele><time>2026-04-15T06:17:41.99Z</time></trkpt><trkpt lat="42.080595" lon="12.4054485"><ele>231.0</ele><time>2026-04-15T06:17:43.991Z</time></trkpt><trkpt lat="42.0806579" lon="12.4054614"><ele>231.0</ele><time>2026-04-15T06:17:44.99Z</time></trkpt><trkpt lat="42.0807774" lon="12.4054835"><ele>231.83333333333334</ele><time>2026-04-15T06:17:46.991Z</time></trkpt><trkpt lat="42.080843" lon="12.4054918"><ele>232.66666666666669</ele><time>2026-04-15T06:17:47.991Z</time></trkpt><trkpt lat="42.0809124" lon="12.4055035"><ele>233.5</ele><time>2026-04-15T06:17:48.99Z</time></trkpt><trkpt lat="42.0809864" lon="12.4055133"><ele>234.33333333333334</ele><time>2026-04-15T06:17:49.99Z</time></trkpt><trkpt lat="42.081063" lon="12.4055231"><ele>235.16666666666669</ele><time>2026-04-15T06:17:50.99Z</time></trkpt><trkpt lat="42.0811467" lon="12.4055301"><ele>236.0</ele><time>2026-04-15T06:17:51.99Z</time></trkpt><trkpt lat="42.0812298" lon="12.4055395"><ele>236.00000000000003</ele><time>2026-04-15T06:17:52.99Z</time></trkpt><trkpt lat="42.0813141" lon="12.4055511"><ele>236.0</ele><time>2026-04-15T06:17:53.991Z</time></trkpt><trkpt lat="42.0813973" lon="12.4055633"><ele>236.0</ele><time>2026-04-15T06:17:54.991Z</time></trkpt><trkpt lat="42.0814818" lon="12.4055738"><ele>236.0</ele><time>2026-04-15T06:17:55.99Z</time></trkpt><trkpt lat="42.0815606" lon="12.4055876"><ele>236.00000000000003</ele><time>2026-04-15T06:17:56.991Z</time></trkpt><trkpt lat="42.0816294" lon="12.4055984"><ele>236.0</ele><time>2026-04-15T06:17:57.99Z</time></trkpt><trkpt lat="42.0817228" lon="12.4056184"><ele>236.16666666666669</ele><time>2026-04-15T06:17:59.99Z</time></trkpt><trkpt lat="42.0818047" lon="12.4055861"><ele>236.33333333333334</ele><time>2026-04-15T06:18:09.99Z</time></trkpt><trkpt lat="42.0818287" lon="12.4054621"><ele>236.5</ele><time>2026-04-15T06:18:11.99Z</time></trkpt><trkpt lat="42.0818504" lon="12.4053029"><ele>236.66666666666669</ele><time>2026-04-15T06:18:13.99Z</time></trkpt><trkpt lat="42.0818607" lon="12.4052149"><ele>236.83333333333334</ele><time>2026-04-15T06:18:14.99Z</time></trkpt><trkpt lat="42.081878" lon="12.4051115"><ele>237.0</ele><time>2026-04-15T06:18:15.991Z</time></trkpt><trkpt lat="42.0819022" lon="12.4049968"><ele>237.8</ele><time>2026-04-15T06:18:16.991Z</time></trkpt><trkpt lat="42.0819326" lon="12.4048728"><ele>238.6</ele><time>2026-04-15T06:18:17.989Z</time></trkpt><trkpt lat="42.0819592" lon="12.4047494"><ele>239.40000000000003</ele><time>2026-04-15T06:18:18.99Z</time></trkpt><trkpt lat="42.0819845" lon="12.4046293"><ele>240.20000000000002</ele><time>2026-04-15T06:18:19.991Z</time></trkpt><trkpt lat="42.0820114" lon="12.4045124"><ele>241.0</ele><time>2026-04-15T06:18:20.99Z</time></trkpt><trkpt lat="42.0820404" lon="12.4043862"><ele>240.60000000000002</ele><time>2026-04-15T06:18:21.99Z</time></trkpt><trkpt lat="42.0820691" lon="12.4042548"><ele>240.20000000000002</ele><time>2026-04-15T06:18:22.99Z</time></trkpt><trkpt lat="42.082096" lon="12.4041277"><ele>239.79999999999998</ele><time>2026-04-15T06:18:23.99Z</time></trkpt><trkpt lat="42.0821056" lon="12.403993"><ele>239.39999999999998</ele><time>2026-04-15T06:18:24.99Z</time></trkpt><trkpt lat="42.0821021" lon="12.4038527"><ele>239.0</ele><time>2026-04-15T06:18:25.99Z</time></trkpt><trkpt lat="42.0820927" lon="12.4037134"><ele>239.0</ele><time>2026-04-15T06:18:26.991Z</time></trkpt><trkpt lat="42.0820859" lon="12.4035773"><ele>238.99999999999997</ele><time>2026-04-15T06:18:27.989Z</time></trkpt><trkpt lat="42.0820869" lon="12.4034506"><ele>238.99999999999997</ele><time>2026-04-15T06:18:28.991Z</time></trkpt><trkpt lat="42.0820976" lon="12.4033252"><ele>239.0</ele><time>2026-04-15T06:18:29.991Z</time></trkpt><trkpt lat="42.0821185" lon="12.4032107"><ele>239.0</ele><time>2026-04-15T06:18:30.99Z</time></trkpt><trkpt lat="42.0821445" lon="12.4030992"><ele>238.16666666666669</ele><time>2026-04-15T06:18:31.991Z</time></trkpt><trkpt lat="42.0821695" lon="12.4029907"><ele>237.33333333333334</ele><time>2026-04-15T06:18:32.99Z</time></trkpt><trkpt lat="42.0821848" lon="12.4028795"><ele>236.5</ele><time>2026-04-15T06:18:33.991Z</time></trkpt><trkpt lat="42.0821816" lon="12.4027604"><ele>235.66666666666669</ele><time>2026-04-15T06:18:34.991Z</time></trkpt><trkpt lat="42.0821602" lon="12.4026491"><ele>234.83333333333334</ele><time>2026-04-15T06:18:35.989Z</time></trkpt><trkpt lat="42.0821135" lon="12.4025466"><ele>234.0</ele><time>2026-04-15T06:18:36.99Z</time></trkpt><trkpt lat="42.0820528" lon="12.4024613"><ele>234.0</ele><time>2026-04-15T06:18:37.992Z</time></trkpt><trkpt lat="42.0819796" lon="12.4023931"><ele>234.0</ele><time>2026-04-15T06:18:38.99Z</time></trkpt><trkpt lat="42.0819042" lon="12.4023308"><ele>234.0</ele><time>2026-04-15T06:18:39.99Z</time></trkpt><trkpt lat="42.0818342" lon="12.4022852"><ele>234.0</ele><time>2026-04-15T06:18:40.99Z</time></trkpt><trkpt lat="42.0817638" lon="12.4022291"><ele>234.0</ele><time>2026-04-15T06:18:41.989Z</time></trkpt><trkpt lat="42.0816997" lon="12.4021728"><ele>234.0</ele><time>2026-04-15T06:18:42.99Z</time></trkpt><trkpt lat="42.0816273" lon="12.4021169"><ele>233.0</ele><time>2026-04-15T06:18:43.99Z</time></trkpt><trkpt lat="42.0815544" lon="12.4020591"><ele>232.0</ele><time>2026-04-15T06:18:44.991Z</time></trkpt><trkpt lat="42.0814812" lon="12.4020056"><ele>231.0</ele><time>2026-04-15T06:18:45.99Z</time></trkpt><trkpt lat="42.0814098" lon="12.4019495"><ele>230.0</ele><time>2026-04-15T06:18:46.991Z</time></trkpt><trkpt lat="42.0813323" lon="12.4018999"><ele>229.0</ele><time>2026-04-15T06:18:47.991Z</time></trkpt><trkpt lat="42.0812598" lon="12.4018451"><ele>228.0</ele><time>2026-04-15T06:18:48.992Z</time></trkpt><trkpt lat="42.0811929" lon="12.4017973"><ele>228.0</ele><time>2026-04-15T06:18:49.99Z</time></trkpt><trkpt lat="42.081124" lon="12.4017619"><ele>228.0</ele><time>2026-04-15T06:18:50.99Z</time></trkpt><trkpt lat="42.081055" lon="12.4017198"><ele>228.0</ele><time>2026-04-15T06:18:51.991Z</time></trkpt><trkpt lat="42.080989" lon="12.4016739"><ele>228.0</ele><time>2026-04-15T06:18:52.991Z</time></trkpt><trkpt lat="42.0809262" lon="12.4016273"><ele>228.0</ele><time>2026-04-15T06:18:53.991Z</time></trkpt><trkpt lat="42.0808672" lon="12.4015892"><ele>228.0</ele><time>2026-04-15T06:18:54.991Z</time></trkpt><trkpt lat="42.0807741" lon="12.4015296"><ele>227.2</ele><time>2026-04-15T06:18:56.991Z</time></trkpt><trkpt lat="42.0807155" lon="12.4014911"><ele>226.4</ele><time>2026-04-15T06:18:57.991Z</time></trkpt><trkpt lat="42.080612" lon="12.401404"><ele>225.59999999999997</ele><time>2026-04-15T06:18:59.991Z</time></trkpt><trkpt lat="42.0805064" lon="12.401349"><ele>224.79999999999998</ele><time>2026-04-15T06:19:01.99Z</time></trkpt><trkpt lat="42.0804352" lon="12.4013038"><ele>224.0</ele><time>2026-04-15T06:19:03.99Z</time></trkpt><trkpt lat="42.0803727" lon="12.4012431"><ele>224.00000000000003</ele><time>2026-04-15T06:19:06.991Z</time></trkpt><trkpt lat="42.0803308" lon="12.4011721"><ele>224.0</ele><time>2026-04-15T06:19:08.99Z</time></trkpt><trkpt lat="42.080316" lon="12.4010589"><ele>224.0</ele><time>2026-04-15T06:19:10.991Z</time></trkpt><trkpt lat="42.0803222" lon="12.4009216"><ele>224.0</ele><time>2026-04-15T06:19:12.99Z</time></trkpt><trkpt lat="42.0803292" lon="12.4008343"><ele>224.00000000000003</ele><time>2026-04-15T06:19:13.991Z</time></trkpt><trkpt lat="42.0803387" lon="12.4006774"><ele>224.0</ele><time>2026-04-15T06:19:15.99Z</time></trkpt><trkpt lat="42.0803526" lon="12.4005878"><ele>222.33333333333334</ele><time>2026-04-15T06:19:17.99Z</time></trkpt><trkpt lat="42.0803801" lon="12.4004879"><ele>220.66666666666669</ele><time>2026-04-15T06:19:20.991Z</time></trkpt><trkpt lat="42.0804141" lon="12.4004125"><ele>219.0</ele><time>2026-04-15T06:19:33.99Z</time></trkpt><trkpt lat="42.0804809" lon="12.4003358"><ele>217.33333333333331</ele><time>2026-04-15T06:19:36.991Z</time></trkpt><trkpt lat="42.0805557" lon="12.4002733"><ele>215.66666666666666</ele><time>2026-04-15T06:19:39.991Z</time></trkpt><trkpt lat="42.080611" lon="12.4001974"><ele>214.0</ele><time>2026-04-15T06:19:42.99Z</time></trkpt><trkpt lat="42.0805591" lon="12.4001241"><ele>213.99999999999997</ele><time>2026-04-15T06:19:44.991Z</time></trkpt><trkpt lat="42.0804516" lon="12.4001001"><ele>214.0</ele><time>2026-04-15T06:19:46.991Z</time></trkpt><trkpt lat="42.0803875" lon="12.4001089"><ele>214.0</ele><time>2026-04-15T06:19:47.991Z</time></trkpt><trkpt lat="42.0803177" lon="12.4001194"><ele>214.0</ele><time>2026-04-15T06:19:48.99Z</time></trkpt><trkpt lat="42.0802393" lon="12.4001368"><ele>213.99999999999997</ele><time>2026-04-15T06:19:49.991Z</time></trkpt><trkpt lat="42.0801613" lon="12.4001593"><ele>214.0</ele><time>2026-04-15T06:19:50.991Z</time></trkpt><trkpt lat="42.0800856" lon="12.4001826"><ele>213.99999999999997</ele><time>2026-04-15T06:19:51.99Z</time></trkpt><trkpt lat="42.0800232" lon="12.4002026"><ele>214.0</ele><time>2026-04-15T06:19:52.991Z</time></trkpt><trkpt lat="42.0799282" lon="12.400225"><ele>214.0</ele><time>2026-04-15T06:19:54.991Z</time></trkpt><trkpt lat="42.079861" lon="12.4002177"><ele>214.0</ele><time>2026-04-15T06:19:57.991Z</time></trkpt><trkpt lat="42.0798365" lon="12.4000715"><ele>213.99999999999997</ele><time>2026-04-15T06:20:00.99Z</time></trkpt><trkpt lat="42.0798492" lon="12.3999836"><ele>214.0</ele><time>2026-04-15T06:20:01.99Z</time></trkpt><trkpt lat="42.0798591" lon="12.3998964"><ele>214.16666666666666</ele><time>2026-04-15T06:20:02.991Z</time></trkpt><trkpt lat="42.0798771" lon="12.39976"><ele>214.33333333333331</ele><time>2026-04-15T06:20:04.991Z</time></trkpt><trkpt lat="42.0799086" lon="12.3996006"><ele>214.5</ele><time>2026-04-15T06:20:06.99Z</time></trkpt><trkpt lat="42.0799222" lon="12.3995057"><ele>214.66666666666669</ele><time>2026-04-15T06:20:07.99Z</time></trkpt><trkpt lat="42.0799357" lon="12.3994225"><ele>214.83333333333334</ele><time>2026-04-15T06:20:08.99Z</time></trkpt><trkpt lat="42.0799397" lon="12.3993236"><ele>215.0</ele><time>2026-04-15T06:20:10.991Z</time></trkpt><trkpt lat="42.0798523" lon="12.3992439"><ele>215.0</ele><time>2026-04-15T06:20:15.99Z</time></trkpt><trkpt lat="42.0797893" lon="12.3992206"><ele>215.0</ele><time>2026-04-15T06:20:16.99Z</time></trkpt><trkpt lat="42.0796893" lon="12.3992084"><ele>215.0</ele><time>2026-04-15T06:20:17.989Z</time></trkpt><trkpt lat="42.0795922" lon="12.3991938"><ele>215.0</ele><time>2026-04-15T06:20:18.992Z</time></trkpt><trkpt lat="42.0794964" lon="12.3991797"><ele>215.0</ele><time>2026-04-15T06:20:19.99Z</time></trkpt><trkpt lat="42.079403" lon="12.3991639"><ele>215.0</ele><time>2026-04-15T06:20:20.991Z</time></trkpt><trkpt lat="42.079317" lon="12.3991459"><ele>215.0</ele><time>2026-04-15T06:20:21.99Z</time></trkpt><trkpt lat="42.0792286" lon="12.3991325"><ele>215.0</ele><time>2026-04-15T06:20:22.991Z</time></trkpt><trkpt lat="42.079138" lon="12.3991229"><ele>215.0</ele><time>2026-04-15T06:20:23.99Z</time></trkpt><trkpt lat="42.0790443" lon="12.3991059"><ele>215.0</ele><time>2026-04-15T06:20:24.991Z</time></trkpt><trkpt lat="42.0789538" lon="12.3990952"><ele>214.2</ele><time>2026-04-15T06:20:25.99Z</time></trkpt><trkpt lat="42.0788557" lon="12.3990895"><ele>213.4</ele><time>2026-04-15T06:20:26.99Z</time></trkpt><trkpt lat="42.0787649" lon="12.3990941"><ele>212.60000000000002</ele><time>2026-04-15T06:20:27.99Z</time></trkpt><trkpt lat="42.0786721" lon="12.3991004"><ele>211.8</ele><time>2026-04-15T06:20:28.991Z</time></trkpt><trkpt lat="42.078583" lon="12.3991152"><ele>211.0</ele><time>2026-04-15T06:20:29.99Z</time></trkpt><trkpt lat="42.0784866" lon="12.3991343"><ele>211.0</ele><time>2026-04-15T06:20:30.991Z</time></trkpt><trkpt lat="42.0783887" lon="12.3991489"><ele>211.0</ele><time>2026-04-15T06:20:31.99Z</time></trkpt><trkpt lat="42.078293" lon="12.3991701"><ele>211.0</ele><time>2026-04-15T06:20:32.99Z</time></trkpt><trkpt lat="42.0782016" lon="12.3991912"><ele>211.0</ele><time>2026-04-15T06:20:33.99Z</time></trkpt><trkpt lat="42.0781188" lon="12.3992071"><ele>211.0</ele><time>2026-04-15T06:20:34.99Z</time></trkpt><trkpt lat="42.0780264" lon="12.3992233"><ele>211.33333333333331</ele><time>2026-04-15T06:20:35.991Z</time></trkpt><trkpt lat="42.0779352" lon="12.3992375"><ele>211.66666666666666</ele><time>2026-04-15T06:20:36.99Z</time></trkpt><trkpt lat="42.0778503" lon="12.399254"><ele>212.0</ele><time>2026-04-15T06:20:37.991Z</time></trkpt><trkpt lat="42.077763" lon="12.3992617"><ele>212.33333333333331</ele><time>2026-04-15T06:20:38.99Z</time></trkpt><trkpt lat="42.0776763" lon="12.3992655"><ele>212.66666666666666</ele><time>2026-04-15T06:20:39.991Z</time></trkpt><trkpt lat="42.0775857" lon="12.3992685"><ele>213.0</ele><time>2026-04-15T06:20:40.99Z</time></trkpt><trkpt lat="42.0774936" lon="12.3992604"><ele>212.2</ele><time>2026-04-15T06:20:41.99Z</time></trkpt><trkpt lat="42.0774008" lon="12.3992424"><ele>211.4</ele><time>2026-04-15T06:20:42.991Z</time></trkpt><trkpt lat="42.0773051" lon="12.3992146"><ele>210.6</ele><time>2026-04-15T06:20:43.99Z</time></trkpt><trkpt lat="42.0772085" lon="12.3991852"><ele>209.79999999999998</ele><time>2026-04-15T06:20:44.99Z</time></trkpt><trkpt lat="42.0771126" lon="12.3991617"><ele>209.0</ele><time>2026-04-15T06:20:45.99Z</time></trkpt><trkpt lat="42.077024" lon="12.3991287"><ele>209.0</ele><time>2026-04-15T06:20:46.991Z</time></trkpt><trkpt lat="42.0769334" lon="12.3991021"><ele>209.0</ele><time>2026-04-15T06:20:47.99Z</time></trkpt><trkpt lat="42.0768403" lon="12.3990749"><ele>209.0</ele><time>2026-04-15T06:20:48.99Z</time></trkpt><trkpt lat="42.0767433" lon="12.3990492"><ele>209.0</ele><time>2026-04-15T06:20:49.99Z</time></trkpt><trkpt lat="42.0766473" lon="12.399015"><ele>209.0</ele><time>2026-04-15T06:20:50.992Z</time></trkpt><trkpt lat="42.0765581" lon="12.3989672"><ele>208.83333333333334</ele><time>2026-04-15T06:20:51.99Z</time></trkpt><trkpt lat="42.0764891" lon="12.3989013"><ele>208.66666666666669</ele><time>2026-04-15T06:20:52.991Z</time></trkpt><trkpt lat="42.076428" lon="12.3988375"><ele>208.5</ele><time>2026-04-15T06:20:53.99Z</time></trkpt><trkpt lat="42.0763797" lon="12.3987746"><ele>208.33333333333331</ele><time>2026-04-15T06:20:54.991Z</time></trkpt><trkpt lat="42.0763264" lon="12.3987103"><ele>208.16666666666666</ele><time>2026-04-15T06:20:55.991Z</time></trkpt><trkpt lat="42.0762717" lon="12.3986436"><ele>208.0</ele><time>2026-04-15T06:20:56.991Z</time></trkpt><trkpt lat="42.0761943" lon="12.398573"><ele>208.0</ele><time>2026-04-15T06:20:57.99Z</time></trkpt><trkpt lat="42.0760901" lon="12.3984983"><ele>208.0</ele><time>2026-04-15T06:20:58.991Z</time></trkpt><trkpt lat="42.0759732" lon="12.3984349"><ele>208.0</ele><time>2026-04-15T06:20:59.99Z</time></trkpt><trkpt lat="42.0758536" lon="12.3983894"><ele>208.0</ele><time>2026-04-15T06:21:00.99Z</time></trkpt><trkpt lat="42.0757426" lon="12.3983463"><ele>207.66666666666666</ele><time>2026-04-15T06:21:01.991Z</time></trkpt><trkpt lat="42.0756421" lon="12.3982913"><ele>207.33333333333331</ele><time>2026-04-15T06:21:02.99Z</time></trkpt><trkpt lat="42.0755787" lon="12.3981974"><ele>207.0</ele><time>2026-04-15T06:21:03.99Z</time></trkpt><trkpt lat="42.0755212" lon="12.3981126"><ele>206.66666666666669</ele><time>2026-04-15T06:21:04.99Z</time></trkpt><trkpt lat="42.0754616" lon="12.3980348"><ele>206.33333333333334</ele><time>2026-04-15T06:21:05.989Z</time></trkpt><trkpt lat="42.0753932" lon="12.3979891"><ele>206.0</ele><time>2026-04-15T06:21:06.99Z</time></trkpt><trkpt lat="42.0753178" lon="12.3979961"><ele>206.0</ele><time>2026-04-15T06:21:07.99Z</time></trkpt><trkpt lat="42.0752345" lon="12.398024"><ele>206.0</ele><time>2026-04-15T06:21:08.99Z</time></trkpt><trkpt lat="42.0751219" lon="12.3980552"><ele>206.0</ele><time>2026-04-15T06:21:09.991Z</time></trkpt><trkpt lat="42.0750051" lon="12.3980558"><ele>206.0</ele><time>2026-04-15T06:21:10.99Z</time></trkpt><trkpt lat="42.0748901" lon="12.3980542"><ele>206.0</ele><time>2026-04-15T06:21:11.99Z</time></trkpt><trkpt lat="42.0747655" lon="12.3980309"><ele>206.25</ele><time>2026-04-15T06:21:12.99Z</time></trkpt><trkpt lat="42.0746489" lon="12.3980079"><ele>206.5</ele><time>2026-04-15T06:21:13.99Z</time></trkpt><trkpt lat="42.074528" lon="12.3979853"><ele>206.75</ele><time>2026-04-15T06:21:14.991Z</time></trkpt><trkpt lat="42.0744107" lon="12.3979606"><ele>207.0</ele><time>2026-04-15T06:21:15.99Z</time></trkpt><trkpt lat="42.0742821" lon="12.3979267"><ele>207.0</ele><time>2026-04-15T06:21:16.991Z</time></trkpt><trkpt lat="42.0741547" lon="12.3978984"><ele>207.0</ele><time>2026-04-15T06:21:17.991Z</time></trkpt><trkpt lat="42.0739963" lon="12.3978791"><ele>207.0</ele><time>2026-04-15T06:21:18.991Z</time></trkpt><trkpt lat="42.0738317" lon="12.3978459"><ele>206.66666666666669</ele><time>2026-04-15T06:21:19.99Z</time></trkpt><trkpt lat="42.0736612" lon="12.3978096"><ele>206.33333333333334</ele><time>2026-04-15T06:21:20.991Z</time></trkpt><trkpt lat="42.0734826" lon="12.3977765"><ele>206.0</ele><time>2026-04-15T06:21:21.991Z</time></trkpt><trkpt lat="42.0733023" lon="12.3977403"><ele>204.33333333333334</ele><time>2026-04-15T06:21:22.99Z</time></trkpt><trkpt lat="42.0731238" lon="12.3977017"><ele>202.66666666666669</ele><time>2026-04-15T06:21:23.99Z</time></trkpt><trkpt lat="42.0729436" lon="12.3976642"><ele>201.0</ele><time>2026-04-15T06:21:24.99Z</time></trkpt><trkpt lat="42.0727628" lon="12.3976238"><ele>201.0</ele><time>2026-04-15T06:21:25.99Z</time></trkpt><trkpt lat="42.0725904" lon="12.3975879"><ele>201.0</ele><time>2026-04-15T06:21:26.99Z</time></trkpt><trkpt lat="42.0724236" lon="12.3975516"><ele>201.0</ele><time>2026-04-15T06:21:27.99Z</time></trkpt><trkpt lat="42.0722768" lon="12.3975196"><ele>200.33333333333331</ele><time>2026-04-15T06:21:28.991Z</time></trkpt><trkpt lat="42.0721275" lon="12.397479"><ele>199.66666666666666</ele><time>2026-04-15T06:21:29.991Z</time></trkpt><trkpt lat="42.0719854" lon="12.3974469"><ele>199.0</ele><time>2026-04-15T06:21:30.99Z</time></trkpt><trkpt lat="42.0718332" lon="12.3974123"><ele>199.0</ele><time>2026-04-15T06:21:31.99Z</time></trkpt><trkpt lat="42.0716647" lon="12.3973714"><ele>199.0</ele><time>2026-04-15T06:21:32.99Z</time></trkpt><trkpt lat="42.0714897" lon="12.3973286"><ele>199.0</ele><time>2026-04-15T06:21:33.991Z</time></trkpt><trkpt lat="42.0712965" lon="12.3972964"><ele>198.66666666666666</ele><time>2026-04-15T06:21:34.99Z</time></trkpt><trkpt lat="42.0710959" lon="12.3972827"><ele>198.33333333333331</ele><time>2026-04-15T06:21:35.99Z</time></trkpt><trkpt lat="42.0708831" lon="12.3972963"><ele>198.0</ele><time>2026-04-15T06:21:36.99Z</time></trkpt><trkpt lat="42.0706699" lon="12.3973232"><ele>197.66666666666669</ele><time>2026-04-15T06:21:37.99Z</time></trkpt><trkpt lat="42.0704693" lon="12.397353"><ele>197.33333333333334</ele><time>2026-04-15T06:21:38.99Z</time></trkpt><trkpt lat="42.0702733" lon="12.3973846"><ele>197.0</ele><time>2026-04-15T06:21:39.99Z</time></trkpt><trkpt lat="42.07008" lon="12.3974188"><ele>196.33333333333334</ele><time>2026-04-15T06:21:40.99Z</time></trkpt><trkpt lat="42.0698889" lon="12.3974489"><ele>195.66666666666669</ele><time>2026-04-15T06:21:41.991Z</time></trkpt><trkpt lat="42.069706" lon="12.3974739"><ele>195.0</ele><time>2026-04-15T06:21:42.991Z</time></trkpt><trkpt lat="42.0695267" lon="12.397498"><ele>195.0</ele><time>2026-04-15T06:21:43.991Z</time></trkpt><trkpt lat="42.0693479" lon="12.3975195"><ele>195.0</ele><time>2026-04-15T06:21:44.99Z</time></trkpt><trkpt lat="42.0691691" lon="12.3975463"><ele>195.0</ele><time>2026-04-15T06:21:45.99Z</time></trkpt><trkpt lat="42.0689892" lon="12.3975733"><ele>193.66666666666666</ele><time>2026-04-15T06:21:46.991Z</time></trkpt><trkpt lat="42.068811" lon="12.397601"><ele>192.33333333333331</ele><time>2026-04-15T06:21:47.991Z</time></trkpt><trkpt lat="42.0686395" lon="12.3976236"><ele>191.0</ele><time>2026-04-15T06:21:48.991Z</time></trkpt><trkpt lat="42.0684808" lon="12.3976486"><ele>191.0</ele><time>2026-04-15T06:21:49.991Z</time></trkpt><trkpt lat="42.0683215" lon="12.3976788"><ele>191.0</ele><time>2026-04-15T06:21:50.989Z</time></trkpt><trkpt lat="42.0681543" lon="12.3977109"><ele>191.0</ele><time>2026-04-15T06:21:51.99Z</time></trkpt><trkpt lat="42.0679886" lon="12.3977269"><ele>189.66666666666666</ele><time>2026-04-15T06:21:52.991Z</time></trkpt><trkpt lat="42.0678286" lon="12.3977436"><ele>188.33333333333334</ele><time>2026-04-15T06:21:53.99Z</time></trkpt><trkpt lat="42.0676722" lon="12.3977594"><ele>187.0</ele><time>2026-04-15T06:21:54.99Z</time></trkpt><trkpt lat="42.0675158" lon="12.3977769"><ele>187.0</ele><time>2026-04-15T06:21:55.99Z</time></trkpt><trkpt lat="42.0673543" lon="12.3977913"><ele>187.0</ele><time>2026-04-15T06:21:56.99Z</time></trkpt><trkpt lat="42.0672166" lon="12.3977966"><ele>187.0</ele><time>2026-04-15T06:21:57.99Z</time></trkpt><trkpt lat="42.0670737" lon="12.3978011"><ele>187.0</ele><time>2026-04-15T06:21:58.99Z</time></trkpt><trkpt lat="42.0669227" lon="12.3978052"><ele>187.0</ele><time>2026-04-15T06:21:59.99Z</time></trkpt><trkpt lat="42.0667743" lon="12.397804"><ele>187.0</ele><time>2026-04-15T06:22:00.99Z</time></trkpt><trkpt lat="42.0666246" lon="12.3977922"><ele>187.0</ele><time>2026-04-15T06:22:01.991Z</time></trkpt><trkpt lat="42.0664717" lon="12.3977543"><ele>186.33333333333334</ele><time>2026-04-15T06:22:02.99Z</time></trkpt><trkpt lat="42.0663163" lon="12.3977043"><ele>185.66666666666666</ele><time>2026-04-15T06:22:03.99Z</time></trkpt><trkpt lat="42.0661674" lon="12.3976551"><ele>185.0</ele><time>2026-04-15T06:22:04.991Z</time></trkpt><trkpt lat="42.0660182" lon="12.3976032"><ele>185.0</ele><time>2026-04-15T06:22:05.99Z</time></trkpt><trkpt lat="42.0658715" lon="12.3975575"><ele>185.0</ele><time>2026-04-15T06:22:06.99Z</time></trkpt><trkpt lat="42.0657183" lon="12.3975195"><ele>185.0</ele><time>2026-04-15T06:22:07.99Z</time></trkpt><trkpt lat="42.0655603" lon="12.3974917"><ele>184.66666666666666</ele><time>2026-04-15T06:22:08.99Z</time></trkpt><trkpt lat="42.0654021" lon="12.3974814"><ele>184.33333333333334</ele><time>2026-04-15T06:22:09.99Z</time></trkpt><trkpt lat="42.0652419" lon="12.3974802"><ele>184.0</ele><time>2026-04-15T06:22:10.99Z</time></trkpt><trkpt lat="42.06508" lon="12.3974872"><ele>182.33333333333334</ele><time>2026-04-15T06:22:11.99Z</time></trkpt><trkpt lat="42.0649274" lon="12.3975073"><ele>180.66666666666666</ele><time>2026-04-15T06:22:12.991Z</time></trkpt><trkpt lat="42.0647692" lon="12.3975258"><ele>179.0</ele><time>2026-04-15T06:22:13.99Z</time></trkpt><trkpt lat="42.064608" lon="12.3975546"><ele>179.0</ele><time>2026-04-15T06:22:14.991Z</time></trkpt><trkpt lat="42.0644495" lon="12.3975871"><ele>179.0</ele><time>2026-04-15T06:22:15.99Z</time></trkpt><trkpt lat="42.0642836" lon="12.3976262"><ele>179.0</ele><time>2026-04-15T06:22:16.99Z</time></trkpt><trkpt lat="42.0641182" lon="12.3976658"><ele>178.66666666666666</ele><time>2026-04-15T06:22:17.99Z</time></trkpt><trkpt lat="42.0639473" lon="12.397708"><ele>178.33333333333334</ele><time>2026-04-15T06:22:18.99Z</time></trkpt><trkpt lat="42.0637767" lon="12.3977545"><ele>178.0</ele><time>2026-04-15T06:22:19.99Z</time></trkpt><trkpt lat="42.0636048" lon="12.3978007"><ele>178.0</ele><time>2026-04-15T06:22:20.99Z</time></trkpt><trkpt lat="42.0634377" lon="12.397842"><ele>178.0</ele><time>2026-04-15T06:22:21.991Z</time></trkpt><trkpt lat="42.0632649" lon="12.3978914"><ele>178.0</ele><time>2026-04-15T06:22:22.99Z</time></trkpt><trkpt lat="42.0630902" lon="12.3979521"><ele>176.66666666666669</ele><time>2026-04-15T06:22:23.99Z</time></trkpt><trkpt lat="42.0629113" lon="12.3979998"><ele>175.33333333333334</ele><time>2026-04-15T06:22:24.991Z</time></trkpt><trkpt lat="42.062745" lon="12.3980585"><ele>174.0</ele><time>2026-04-15T06:22:25.99Z</time></trkpt><trkpt lat="42.0625787" lon="12.3981126"><ele>172.66666666666666</ele><time>2026-04-15T06:22:26.991Z</time></trkpt><trkpt lat="42.0624178" lon="12.3981692"><ele>171.33333333333331</ele><time>2026-04-15T06:22:27.99Z</time></trkpt><trkpt lat="42.062256" lon="12.3982198"><ele>170.0</ele><time>2026-04-15T06:22:28.991Z</time></trkpt><trkpt lat="42.0620978" lon="12.3982611"><ele>170.0</ele><time>2026-04-15T06:22:29.989Z</time></trkpt><trkpt lat="42.061952" lon="12.3982975"><ele>170.0</ele><time>2026-04-15T06:22:30.991Z</time></trkpt><trkpt lat="42.0618081" lon="12.398323"><ele>170.0</ele><time>2026-04-15T06:22:31.991Z</time></trkpt><trkpt lat="42.0616651" lon="12.3983372"><ele>170.0</ele><time>2026-04-15T06:22:32.991Z</time></trkpt><trkpt lat="42.0615266" lon="12.398341"><ele>169.8</ele><time>2026-04-15T06:22:33.99Z</time></trkpt><trkpt lat="42.0614022" lon="12.3983445"><ele>169.6</ele><time>2026-04-15T06:22:34.99Z</time></trkpt><trkpt lat="42.0612863" lon="12.3983373"><ele>169.39999999999998</ele><time>2026-04-15T06:22:35.99Z</time></trkpt><trkpt lat="42.061181" lon="12.3983278"><ele>169.2</ele><time>2026-04-15T06:22:36.99Z</time></trkpt><trkpt lat="42.0610893" lon="12.3983006"><ele>169.0</ele><time>2026-04-15T06:22:37.991Z</time></trkpt><trkpt lat="42.061003" lon="12.3982827"><ele>169.0</ele><time>2026-04-15T06:22:38.991Z</time></trkpt><trkpt lat="42.0609217" lon="12.3982987"><ele>169.0</ele><time>2026-04-15T06:22:39.991Z</time></trkpt><trkpt lat="42.0608457" lon="12.398344"><ele>169.0</ele><time>2026-04-15T06:22:40.991Z</time></trkpt><trkpt lat="42.0607651" lon="12.3984233"><ele>169.0</ele><time>2026-04-15T06:22:41.99Z</time></trkpt><trkpt lat="42.060671" lon="12.3985144"><ele>169.0</ele><time>2026-04-15T06:22:42.99Z</time></trkpt><trkpt lat="42.0605627" lon="12.3986051"><ele>168.0</ele><time>2026-04-15T06:22:43.99Z</time></trkpt><trkpt lat="42.0604481" lon="12.3986859"><ele>167.0</ele><time>2026-04-15T06:22:44.99Z</time></trkpt><trkpt lat="42.0603234" lon="12.3987479"><ele>166.0</ele><time>2026-04-15T06:22:45.991Z</time></trkpt><trkpt lat="42.0601929" lon="12.3987914"><ele>165.0</ele><time>2026-04-15T06:22:46.991Z</time></trkpt><trkpt lat="42.060059" lon="12.3988266"><ele>164.25</ele><time>2026-04-15T06:22:47.99Z</time></trkpt><trkpt lat="42.0599188" lon="12.3988636"><ele>163.5</ele><time>2026-04-15T06:22:48.989Z</time></trkpt><trkpt lat="42.0597772" lon="12.3989036"><ele>162.75</ele><time>2026-04-15T06:22:49.99Z</time></trkpt><trkpt lat="42.059637" lon="12.3989386"><ele>162.0</ele><time>2026-04-15T06:22:50.99Z</time></trkpt><trkpt lat="42.0594754" lon="12.3989628"><ele>162.0</ele><time>2026-04-15T06:22:51.99Z</time></trkpt><trkpt lat="42.0593076" lon="12.3989718"><ele>162.0</ele><time>2026-04-15T06:22:52.99Z</time></trkpt><trkpt lat="42.0591461" lon="12.3989674"><ele>162.0</ele><time>2026-04-15T06:22:53.99Z</time></trkpt><trkpt lat="42.0589945" lon="12.3989576"><ele>161.25</ele><time>2026-04-15T06:22:54.99Z</time></trkpt><trkpt lat="42.0588541" lon="12.3989374"><ele>160.5</ele><time>2026-04-15T06:22:55.99Z</time></trkpt><trkpt lat="42.0587306" lon="12.3989258"><ele>159.75</ele><time>2026-04-15T06:22:56.99Z</time></trkpt><trkpt lat="42.0586209" lon="12.3989149"><ele>159.0</ele><time>2026-04-15T06:22:57.99Z</time></trkpt><trkpt lat="42.0585252" lon="12.398908"><ele>159.0</ele><time>2026-04-15T06:22:58.991Z</time></trkpt><trkpt lat="42.0584514" lon="12.3989025"><ele>159.0</ele><time>2026-04-15T06:22:59.99Z</time></trkpt><trkpt lat="42.0583847" lon="12.3989"><ele>159.0</ele><time>2026-04-15T06:23:00.991Z</time></trkpt><trkpt lat="42.0583209" lon="12.3988905"><ele>159.0</ele><time>2026-04-15T06:23:01.99Z</time></trkpt><trkpt lat="42.0582457" lon="12.3988736"><ele>159.0</ele><time>2026-04-15T06:23:02.991Z</time></trkpt><trkpt lat="42.0581553" lon="12.39885"><ele>159.0</ele><time>2026-04-15T06:23:03.99Z</time></trkpt><trkpt lat="42.0580485" lon="12.3988218"><ele>157.5</ele><time>2026-04-15T06:23:04.99Z</time></trkpt><trkpt lat="42.0579257" lon="12.3987895"><ele>156.0</ele><time>2026-04-15T06:23:05.99Z</time></trkpt><trkpt lat="42.0577937" lon="12.3987485"><ele>154.5</ele><time>2026-04-15T06:23:06.99Z</time></trkpt><trkpt lat="42.0576519" lon="12.3987092"><ele>153.0</ele><time>2026-04-15T06:23:07.991Z</time></trkpt><trkpt lat="42.057504" lon="12.3986666"><ele>152.66666666666666</ele><time>2026-04-15T06:23:08.991Z</time></trkpt><trkpt lat="42.0573495" lon="12.3986284"><ele>152.33333333333331</ele><time>2026-04-15T06:23:09.991Z</time></trkpt><trkpt lat="42.0571905" lon="12.3985804"><ele>152.0</ele><time>2026-04-15T06:23:10.991Z</time></trkpt><trkpt lat="42.0570341" lon="12.3985302"><ele>152.0</ele><time>2026-04-15T06:23:11.991Z</time></trkpt><trkpt lat="42.0568738" lon="12.3984783"><ele>152.0</ele><time>2026-04-15T06:23:12.99Z</time></trkpt><trkpt lat="42.0567095" lon="12.3984297"><ele>152.0</ele><time>2026-04-15T06:23:13.991Z</time></trkpt><trkpt lat="42.0565413" lon="12.3983795"><ele>150.66666666666666</ele><time>2026-04-15T06:23:14.991Z</time></trkpt><trkpt lat="42.0563674" lon="12.3983307"><ele>149.33333333333334</ele><time>2026-04-15T06:23:15.99Z</time></trkpt><trkpt lat="42.0561951" lon="12.3982775"><ele>148.0</ele><time>2026-04-15T06:23:16.99Z</time></trkpt><trkpt lat="42.0560146" lon="12.3982197"><ele>148.0</ele><time>2026-04-15T06:23:17.99Z</time></trkpt><trkpt lat="42.055832" lon="12.3981645"><ele>148.0</ele><time>2026-04-15T06:23:18.99Z</time></trkpt><trkpt lat="42.0556482" lon="12.3981142"><ele>148.0</ele><time>2026-04-15T06:23:19.991Z</time></trkpt><trkpt lat="42.0554576" lon="12.3980708"><ele>146.66666666666669</ele><time>2026-04-15T06:23:20.991Z</time></trkpt><trkpt lat="42.0552675" lon="12.3980417"><ele>145.33333333333334</ele><time>2026-04-15T06:23:21.99Z</time></trkpt><trkpt lat="42.055078" lon="12.3980115"><ele>144.0</ele><time>2026-04-15T06:23:22.991Z</time></trkpt><trkpt lat="42.0548976" lon="12.3979901"><ele>141.66666666666666</ele><time>2026-04-15T06:23:23.989Z</time></trkpt><trkpt lat="42.0547208" lon="12.3979779"><ele>139.33333333333331</ele><time>2026-04-15T06:23:24.991Z</time></trkpt><trkpt lat="42.0545573" lon="12.397967"><ele>137.0</ele><time>2026-04-15T06:23:25.991Z</time></trkpt><trkpt lat="42.0544107" lon="12.3979546"><ele>137.0</ele><time>2026-04-15T06:23:26.99Z</time></trkpt><trkpt lat="42.0542776" lon="12.3979241"><ele>137.0</ele><time>2026-04-15T06:23:27.99Z</time></trkpt><trkpt lat="42.0541561" lon="12.3978594"><ele>137.0</ele><time>2026-04-15T06:23:28.99Z</time></trkpt><trkpt lat="42.0540501" lon="12.3977662"><ele>137.0</ele><time>2026-04-15T06:23:29.991Z</time></trkpt><trkpt lat="42.0539472" lon="12.397631"><ele>136.33333333333331</ele><time>2026-04-15T06:23:30.99Z</time></trkpt><trkpt lat="42.0538544" lon="12.3974663"><ele>135.66666666666666</ele><time>2026-04-15T06:23:31.991Z</time></trkpt><trkpt lat="42.0537604" lon="12.397278"><ele>135.0</ele><time>2026-04-15T06:23:32.99Z</time></trkpt><trkpt lat="42.0536526" lon="12.3970923"><ele>135.0</ele><time>2026-04-15T06:23:33.991Z</time></trkpt><trkpt lat="42.0535326" lon="12.3969196"><ele>135.0</ele><time>2026-04-15T06:23:34.99Z</time></trkpt><trkpt lat="42.0534102" lon="12.3967682"><ele>135.0</ele><time>2026-04-15T06:23:35.99Z</time></trkpt><trkpt lat="42.0532818" lon="12.3966607"><ele>134.66666666666666</ele><time>2026-04-15T06:23:36.99Z</time></trkpt><trkpt lat="42.0531422" lon="12.396584"><ele>134.33333333333331</ele><time>2026-04-15T06:23:37.991Z</time></trkpt><trkpt lat="42.0529887" lon="12.3965432"><ele>134.0</ele><time>2026-04-15T06:23:38.99Z</time></trkpt><trkpt lat="42.0528382" lon="12.3965406"><ele>134.0</ele><time>2026-04-15T06:23:39.99Z</time></trkpt><trkpt lat="42.0526919" lon="12.3965673"><ele>134.0</ele><time>2026-04-15T06:23:40.99Z</time></trkpt><trkpt lat="42.0525612" lon="12.3965905"><ele>134.0</ele><time>2026-04-15T06:23:41.991Z</time></trkpt><trkpt lat="42.0524468" lon="12.3966094"><ele>134.0</ele><time>2026-04-15T06:23:42.99Z</time></trkpt><trkpt lat="42.0523526" lon="12.3966211"><ele>134.2</ele><time>2026-04-15T06:23:43.991Z</time></trkpt><trkpt lat="42.0522539" lon="12.3966374"><ele>134.4</ele><time>2026-04-15T06:23:44.99Z</time></trkpt><trkpt lat="42.0521605" lon="12.3966473"><ele>134.6</ele><time>2026-04-15T06:23:45.991Z</time></trkpt><trkpt lat="42.0520662" lon="12.3966536"><ele>134.8</ele><time>2026-04-15T06:23:46.99Z</time></trkpt><trkpt lat="42.05197" lon="12.3966526"><ele>135.0</ele><time>2026-04-15T06:23:47.99Z</time></trkpt><trkpt lat="42.0518774" lon="12.3966499"><ele>135.0</ele><time>2026-04-15T06:23:48.99Z</time></trkpt><trkpt lat="42.0517927" lon="12.396643"><ele>135.0</ele><time>2026-04-15T06:23:49.99Z</time></trkpt><trkpt lat="42.0517134" lon="12.3966415"><ele>135.0</ele><time>2026-04-15T06:23:50.99Z</time></trkpt><trkpt lat="42.0515847" lon="12.3966399"><ele>135.0</ele><time>2026-04-15T06:23:52.99Z</time></trkpt><trkpt lat="42.0514946" lon="12.3966237"><ele>135.0</ele><time>2026-04-15T06:23:53.99Z</time></trkpt><trkpt lat="42.0514078" lon="12.3966112"><ele>135.2</ele><time>2026-04-15T06:23:54.99Z</time></trkpt><trkpt lat="42.0513147" lon="12.3965937"><ele>135.4</ele><time>2026-04-15T06:23:55.99Z</time></trkpt><trkpt lat="42.0512246" lon="12.3965753"><ele>135.6</ele><time>2026-04-15T06:23:56.99Z</time></trkpt><trkpt lat="42.0511537" lon="12.3965526"><ele>135.8</ele><time>2026-04-15T06:23:57.99Z</time></trkpt><trkpt lat="42.0510381" lon="12.3965262"><ele>136.0</ele><time>2026-04-15T06:23:59.989Z</time></trkpt><trkpt lat="42.0509208" lon="12.396502"><ele>136.0</ele><time>2026-04-15T06:24:01.99Z</time></trkpt><trkpt lat="42.0508445" lon="12.3964817"><ele>136.0</ele><time>2026-04-15T06:24:02.99Z</time></trkpt><trkpt lat="42.0507358" lon="12.396458"><ele>136.0</ele><time>2026-04-15T06:24:03.991Z</time></trkpt><trkpt lat="42.0506197" lon="12.3964468"><ele>136.0</ele><time>2026-04-15T06:24:04.991Z</time></trkpt><trkpt lat="42.0504983" lon="12.3964468"><ele>136.0</ele><time>2026-04-15T06:24:05.99Z</time></trkpt><trkpt lat="42.0503728" lon="12.396454"><ele>135.6</ele><time>2026-04-15T06:24:06.991Z</time></trkpt><trkpt lat="42.0502637" lon="12.3964681"><ele>135.2</ele><time>2026-04-15T06:24:07.99Z</time></trkpt><trkpt lat="42.0501646" lon="12.3964877"><ele>134.8</ele><time>2026-04-15T06:24:08.989Z</time></trkpt><trkpt lat="42.0500692" lon="12.3965053"><ele>134.4</ele><time>2026-04-15T06:24:09.99Z</time></trkpt><trkpt lat="42.0499794" lon="12.3965141"><ele>134.0</ele><time>2026-04-15T06:24:10.99Z</time></trkpt><trkpt lat="42.0498963" lon="12.3965171"><ele>134.0</ele><time>2026-04-15T06:24:11.99Z</time></trkpt><trkpt lat="42.0498109" lon="12.396514"><ele>134.0</ele><time>2026-04-15T06:24:12.991Z</time></trkpt><trkpt lat="42.0497289" lon="12.3965035"><ele>134.0</ele><time>2026-04-15T06:24:13.989Z</time></trkpt><trkpt lat="42.0496564" lon="12.3964919"><ele>134.0</ele><time>2026-04-15T06:24:14.99Z</time></trkpt><trkpt lat="42.0495562" lon="12.3964736"><ele>134.0</ele><time>2026-04-15T06:24:16.99Z</time></trkpt><trkpt lat="42.0494416" lon="12.3964434"><ele>134.0</ele><time>2026-04-15T06:24:18.991Z</time></trkpt><trkpt lat="42.0493489" lon="12.3964053"><ele>134.0</ele><time>2026-04-15T06:24:19.99Z</time></trkpt><trkpt lat="42.049243" lon="12.3963563"><ele>134.0</ele><time>2026-04-15T06:24:20.991Z</time></trkpt><trkpt lat="42.0491151" lon="12.396312"><ele>134.0</ele><time>2026-04-15T06:24:21.99Z</time></trkpt><trkpt lat="42.0489803" lon="12.3962658"><ele>133.33333333333331</ele><time>2026-04-15T06:24:22.99Z</time></trkpt><trkpt lat="42.0488295" lon="12.396216"><ele>132.66666666666666</ele><time>2026-04-15T06:24:23.99Z</time></trkpt><trkpt lat="42.0486682" lon="12.3961583"><ele>132.0</ele><time>2026-04-15T06:24:24.991Z</time></trkpt><trkpt lat="42.0485182" lon="12.3961104"><ele>132.0</ele><time>2026-04-15T06:24:25.991Z</time></trkpt><trkpt lat="42.0483727" lon="12.3960626"><ele>132.0</ele><time>2026-04-15T06:24:26.99Z</time></trkpt><trkpt lat="42.0482428" lon="12.3960195"><ele>132.0</ele><time>2026-04-15T06:24:27.99Z</time></trkpt><trkpt lat="42.0481263" lon="12.3959822"><ele>132.0</ele><time>2026-04-15T06:24:28.989Z</time></trkpt><trkpt lat="42.0480266" lon="12.3959475"><ele>131.66666666666666</ele><time>2026-04-15T06:24:29.99Z</time></trkpt><trkpt lat="42.04794" lon="12.3959205"><ele>131.33333333333334</ele><time>2026-04-15T06:24:30.99Z</time></trkpt><trkpt lat="42.0478585" lon="12.3958968"><ele>131.0</ele><time>2026-04-15T06:24:31.991Z</time></trkpt><trkpt lat="42.0477793" lon="12.395871"><ele>130.66666666666669</ele><time>2026-04-15T06:24:32.99Z</time></trkpt><trkpt lat="42.0477167" lon="12.395848"><ele>130.33333333333334</ele><time>2026-04-15T06:24:33.99Z</time></trkpt><trkpt lat="42.047599" lon="12.395802"><ele>130.0</ele><time>2026-04-15T06:24:35.99Z</time></trkpt><trkpt lat="42.0475323" lon="12.3957725"><ele>130.0</ele><time>2026-04-15T06:24:36.99Z</time></trkpt><trkpt lat="42.0474635" lon="12.3957455"><ele>130.0</ele><time>2026-04-15T06:24:37.989Z</time></trkpt><trkpt lat="42.0473957" lon="12.3957137"><ele>130.0</ele><time>2026-04-15T06:24:38.99Z</time></trkpt><trkpt lat="42.0473337" lon="12.3956921"><ele>130.0</ele><time>2026-04-15T06:24:39.99Z</time></trkpt><trkpt lat="42.0472209" lon="12.3956558"><ele>130.0</ele><time>2026-04-15T06:24:41.99Z</time></trkpt><trkpt lat="42.0471218" lon="12.395619"><ele>130.0</ele><time>2026-04-15T06:24:43.991Z</time></trkpt><trkpt lat="42.0470337" lon="12.3956532"><ele>130.0</ele><time>2026-04-15T06:24:45.991Z</time></trkpt><trkpt lat="42.0470275" lon="12.3958045"><ele>130.0</ele><time>2026-04-15T06:24:47.989Z</time></trkpt><trkpt lat="42.0470068" lon="12.3959401"><ele>130.0</ele><time>2026-04-15T06:24:49.99Z</time></trkpt><trkpt lat="42.0470051" lon="12.3960334"><ele>130.0</ele><time>2026-04-15T06:24:52.991Z</time></trkpt><trkpt lat="42.0470556" lon="12.396108"><ele>130.0</ele><time>2026-04-15T06:27:47.991Z</time></trkpt><trkpt lat="42.0471419" lon="12.396162"><ele>130.0</ele><time>2026-04-15T06:27:49.989Z</time></trkpt><trkpt lat="42.0472043" lon="12.3961313"><ele>130.0</ele><time>2026-04-15T06:27:52.991Z</time></trkpt><trkpt lat="42.0472327" lon="12.3960541"><ele>130.0</ele><time>2026-04-15T06:27:54.991Z</time></trkpt><trkpt lat="42.0472135" lon="12.3958824"><ele>130.0</ele><time>2026-04-15T06:27:56.991Z</time></trkpt><trkpt lat="42.047204" lon="12.3957927"><ele>130.0</ele><time>2026-04-15T06:27:57.989Z</time></trkpt><trkpt lat="42.0471732" lon="12.3956535"><ele>130.0</ele><time>2026-04-15T06:27:59.991Z</time></trkpt><trkpt lat="42.0470918" lon="12.3955731"><ele>130.0</ele><time>2026-04-15T06:28:01.99Z</time></trkpt><trkpt lat="42.046979" lon="12.3955298"><ele>130.0</ele><time>2026-04-15T06:28:03.99Z</time></trkpt><trkpt lat="42.0469054" lon="12.3955055"><ele>130.0</ele><time>2026-04-15T06:28:04.99Z</time></trkpt><trkpt lat="42.0468255" lon="12.395478"><ele>130.0</ele><time>2026-04-15T06:28:05.99Z</time></trkpt><trkpt lat="42.0467513" lon="12.3954471"><ele>130.0</ele><time>2026-04-15T06:28:06.99Z</time></trkpt><trkpt lat="42.0466864" lon="12.3954208"><ele>130.0</ele><time>2026-04-15T06:28:07.99Z</time></trkpt><trkpt lat="42.0466233" lon="12.3953906"><ele>129.42857142857144</ele><time>2026-04-15T06:28:08.991Z</time></trkpt><trkpt lat="42.046563" lon="12.3953585"><ele>128.85714285714286</ele><time>2026-04-15T06:28:09.991Z</time></trkpt><trkpt lat="42.0465039" lon="12.395326"><ele>128.28571428571428</ele><time>2026-04-15T06:28:10.99Z</time></trkpt><trkpt lat="42.0464395" lon="12.395301"><ele>127.71428571428572</ele><time>2026-04-15T06:28:11.988Z</time></trkpt><trkpt lat="42.0463805" lon="12.3952698"><ele>127.14285714285714</ele><time>2026-04-15T06:28:12.99Z</time></trkpt><trkpt lat="42.0463152" lon="12.3952428"><ele>126.57142857142857</ele><time>2026-04-15T06:28:13.99Z</time></trkpt><trkpt lat="42.0462402" lon="12.3952055"><ele>126.0</ele><time>2026-04-15T06:28:14.99Z</time></trkpt><trkpt lat="42.0461585" lon="12.3951653"><ele>126.0</ele><time>2026-04-15T06:28:15.991Z</time></trkpt><trkpt lat="42.0460766" lon="12.3951226"><ele>126.0</ele><time>2026-04-15T06:28:16.991Z</time></trkpt><trkpt lat="42.0459927" lon="12.3950812"><ele>126.0</ele><time>2026-04-15T06:28:17.991Z</time></trkpt><trkpt lat="42.0459121" lon="12.3950409"><ele>126.0</ele><time>2026-04-15T06:28:18.99Z</time></trkpt><trkpt lat="42.04583" lon="12.3950011"><ele>126.0</ele><time>2026-04-15T06:28:19.991Z</time></trkpt><trkpt lat="42.0457482" lon="12.3949603"><ele>126.0</ele><time>2026-04-15T06:28:20.99Z</time></trkpt><trkpt lat="42.0456728" lon="12.3949203"><ele>125.83333333333333</ele><time>2026-04-15T06:28:21.99Z</time></trkpt><trkpt lat="42.0455902" lon="12.394877"><ele>125.66666666666666</ele><time>2026-04-15T06:28:22.99Z</time></trkpt><trkpt lat="42.0455086" lon="12.3948405"><ele>125.5</ele><time>2026-04-15T06:28:23.991Z</time></trkpt><trkpt lat="42.0454262" lon="12.3948073"><ele>125.33333333333333</ele><time>2026-04-15T06:28:24.99Z</time></trkpt><trkpt lat="42.0453445" lon="12.3947763"><ele>125.16666666666666</ele><time>2026-04-15T06:28:25.99Z</time></trkpt><trkpt lat="42.0452596" lon="12.3947487"><ele>125.0</ele><time>2026-04-15T06:28:26.989Z</time></trkpt><trkpt lat="42.0451684" lon="12.3947218"><ele>125.0</ele><time>2026-04-15T06:28:27.991Z</time></trkpt><trkpt lat="42.0450689" lon="12.3946993"><ele>125.0</ele><time>2026-04-15T06:28:28.99Z</time></trkpt><trkpt lat="42.0449591" lon="12.3946796"><ele>125.0</ele><time>2026-04-15T06:28:29.991Z</time></trkpt><trkpt lat="42.0448231" lon="12.3946497"><ele>125.0</ele><time>2026-04-15T06:28:30.99Z</time></trkpt><trkpt lat="42.0446675" lon="12.39461"><ele>124.66666666666666</ele><time>2026-04-15T06:28:31.988Z</time></trkpt><trkpt lat="42.0444917" lon="12.3945733"><ele>124.33333333333334</ele><time>2026-04-15T06:28:32.989Z</time></trkpt><trkpt lat="42.0442994" lon="12.3945202"><ele>124.0</ele><time>2026-04-15T06:28:33.99Z</time></trkpt><trkpt lat="42.0441058" lon="12.3944788"><ele>124.0</ele><time>2026-04-15T06:28:34.989Z</time></trkpt><trkpt lat="42.0439004" lon="12.3944311"><ele>124.0</ele><time>2026-04-15T06:28:35.99Z</time></trkpt><trkpt lat="42.043687" lon="12.3943696"><ele>124.0</ele><time>2026-04-15T06:28:36.989Z</time></trkpt><trkpt lat="42.0434705" lon="12.394304"><ele>124.5</ele><time>2026-04-15T06:28:37.99Z</time></trkpt><trkpt lat="42.0432553" lon="12.3942361"><ele>125.0</ele><time>2026-04-15T06:28:38.99Z</time></trkpt><trkpt lat="42.0430298" lon="12.3941576"><ele>125.0</ele><time>2026-04-15T06:28:39.99Z</time></trkpt><trkpt lat="42.0428035" lon="12.3940784"><ele>125.0</ele><time>2026-04-15T06:28:40.991Z</time></trkpt><trkpt lat="42.0425664" lon="12.3940013"><ele>126.5</ele><time>2026-04-15T06:28:41.99Z</time></trkpt><trkpt lat="42.0423344" lon="12.39392"><ele>128.0</ele><time>2026-04-15T06:28:42.991Z</time></trkpt><trkpt lat="42.0421052" lon="12.3938396"><ele>126.5</ele><time>2026-04-15T06:28:43.99Z</time></trkpt><trkpt lat="42.0418681" lon="12.3937566"><ele>125.0</ele><time>2026-04-15T06:28:44.989Z</time></trkpt><trkpt lat="42.0416384" lon="12.3936754"><ele>124.66666666666666</ele><time>2026-04-15T06:28:45.989Z</time></trkpt><trkpt lat="42.0414198" lon="12.393599"><ele>124.33333333333334</ele><time>2026-04-15T06:28:46.991Z</time></trkpt><trkpt lat="42.0412148" lon="12.3935304"><ele>124.0</ele><time>2026-04-15T06:28:47.99Z</time></trkpt><trkpt lat="42.041031" lon="12.3934607"><ele>124.0</ele><time>2026-04-15T06:28:48.99Z</time></trkpt><trkpt lat="42.040851" lon="12.393401"><ele>124.0</ele><time>2026-04-15T06:28:49.991Z</time></trkpt><trkpt lat="42.0406835" lon="12.3933468"><ele>124.0</ele><time>2026-04-15T06:28:50.99Z</time></trkpt><trkpt lat="42.0405243" lon="12.3932936"><ele>123.75</ele><time>2026-04-15T06:28:51.99Z</time></trkpt><trkpt lat="42.0403795" lon="12.3932411"><ele>123.5</ele><time>2026-04-15T06:28:52.991Z</time></trkpt><trkpt lat="42.0402392" lon="12.3931884"><ele>123.25</ele><time>2026-04-15T06:28:53.991Z</time></trkpt><trkpt lat="42.0401072" lon="12.3931404"><ele>123.0</ele><time>2026-04-15T06:28:54.99Z</time></trkpt><trkpt lat="42.0399798" lon="12.393098"><ele>122.75</ele><time>2026-04-15T06:28:55.99Z</time></trkpt><trkpt lat="42.0398516" lon="12.3930502"><ele>122.5</ele><time>2026-04-15T06:28:56.99Z</time></trkpt><trkpt lat="42.0397246" lon="12.3929944"><ele>122.25</ele><time>2026-04-15T06:28:57.989Z</time></trkpt><trkpt lat="42.0395897" lon="12.3929304"><ele>122.0</ele><time>2026-04-15T06:28:58.99Z</time></trkpt><trkpt lat="42.0394533" lon="12.3928604"><ele>122.66666666666666</ele><time>2026-04-15T06:28:59.991Z</time></trkpt><trkpt lat="42.0393005" lon="12.3927798"><ele>123.33333333333334</ele><time>2026-04-15T06:29:00.991Z</time></trkpt><trkpt lat="42.0391388" lon="12.3926856"><ele>124.0</ele><time>2026-04-15T06:29:01.989Z</time></trkpt><trkpt lat="42.038966" lon="12.3925667"><ele>124.0</ele><time>2026-04-15T06:29:02.991Z</time></trkpt><trkpt lat="42.038787" lon="12.3924472"><ele>124.0</ele><time>2026-04-15T06:29:03.99Z</time></trkpt><trkpt lat="42.0385959" lon="12.3923314"><ele>124.0</ele><time>2026-04-15T06:29:04.99Z</time></trkpt><trkpt lat="42.038404" lon="12.392212"><ele>124.33333333333334</ele><time>2026-04-15T06:29:05.989Z</time></trkpt><trkpt lat="42.0382036" lon="12.3920907"><ele>124.66666666666666</ele><time>2026-04-15T06:29:06.991Z</time></trkpt><trkpt lat="42.0380076" lon="12.3919684"><ele>125.0</ele><time>2026-04-15T06:29:07.991Z</time></trkpt><trkpt lat="42.0378087" lon="12.3918482"><ele>125.0</ele><time>2026-04-15T06:29:08.99Z</time></trkpt><trkpt lat="42.0376098" lon="12.3917351"><ele>125.0</ele><time>2026-04-15T06:29:09.99Z</time></trkpt><trkpt lat="42.0374264" lon="12.3916254"><ele>125.0</ele><time>2026-04-15T06:29:10.99Z</time></trkpt><trkpt lat="42.0372539" lon="12.3915291"><ele>125.0</ele><time>2026-04-15T06:29:11.989Z</time></trkpt><trkpt lat="42.0370845" lon="12.3914476"><ele>125.0</ele><time>2026-04-15T06:29:12.99Z</time></trkpt><trkpt lat="42.0369209" lon="12.3913886"><ele>125.0</ele><time>2026-04-15T06:29:13.989Z</time></trkpt><trkpt lat="42.0367617" lon="12.3913557"><ele>124.33333333333333</ele><time>2026-04-15T06:29:14.991Z</time></trkpt><trkpt lat="42.0366018" lon="12.3913532"><ele>123.66666666666666</ele><time>2026-04-15T06:29:15.99Z</time></trkpt><trkpt lat="42.0364386" lon="12.3913712"><ele>123.0</ele><time>2026-04-15T06:29:16.99Z</time></trkpt><trkpt lat="42.0362699" lon="12.3914021"><ele>123.0</ele><time>2026-04-15T06:29:17.991Z</time></trkpt><trkpt lat="42.0361043" lon="12.3914539"><ele>123.0</ele><time>2026-04-15T06:29:18.99Z</time></trkpt><trkpt lat="42.035945" lon="12.3915053"><ele>123.0</ele><time>2026-04-15T06:29:19.989Z</time></trkpt><trkpt lat="42.0357985" lon="12.3915554"><ele>122.75</ele><time>2026-04-15T06:29:20.989Z</time></trkpt><trkpt lat="42.0356584" lon="12.3915897"><ele>122.5</ele><time>2026-04-15T06:29:21.991Z</time></trkpt><trkpt lat="42.0355268" lon="12.3915944"><ele>122.25</ele><time>2026-04-15T06:29:22.99Z</time></trkpt><trkpt lat="42.0354036" lon="12.3915695"><ele>122.0</ele><time>2026-04-15T06:29:23.991Z</time></trkpt><trkpt lat="42.035287" lon="12.3915085"><ele>122.0</ele><time>2026-04-15T06:29:24.989Z</time></trkpt><trkpt lat="42.0351699" lon="12.3914222"><ele>122.0</ele><time>2026-04-15T06:29:25.991Z</time></trkpt><trkpt lat="42.0350453" lon="12.3913208"><ele>122.0</ele><time>2026-04-15T06:29:26.989Z</time></trkpt><trkpt lat="42.0349033" lon="12.3912293"><ele>122.0</ele><time>2026-04-15T06:29:27.991Z</time></trkpt><trkpt lat="42.0347447" lon="12.3911466"><ele>119.66666666666666</ele><time>2026-04-15T06:29:28.989Z</time></trkpt><trkpt lat="42.0345858" lon="12.3910683"><ele>117.33333333333334</ele><time>2026-04-15T06:29:29.99Z</time></trkpt><trkpt lat="42.0344015" lon="12.390975"><ele>115.0</ele><time>2026-04-15T06:29:30.99Z</time></trkpt><trkpt lat="42.0342139" lon="12.3908916"><ele>114.33333333333334</ele><time>2026-04-15T06:29:31.99Z</time></trkpt><trkpt lat="42.0340204" lon="12.3908038"><ele>113.66666666666666</ele><time>2026-04-15T06:29:32.989Z</time></trkpt><trkpt lat="42.0338247" lon="12.3907098"><ele>113.0</ele><time>2026-04-15T06:29:33.99Z</time></trkpt><trkpt lat="42.0336353" lon="12.3906229"><ele>113.0</ele><time>2026-04-15T06:29:34.989Z</time></trkpt><trkpt lat="42.0334469" lon="12.3905482"><ele>113.0</ele><time>2026-04-15T06:29:35.989Z</time></trkpt><trkpt lat="42.0332654" lon="12.3904829"><ele>113.0</ele><time>2026-04-15T06:29:36.991Z</time></trkpt><trkpt lat="42.0330842" lon="12.3904264"><ele>108.0</ele><time>2026-04-15T06:29:37.99Z</time></trkpt><trkpt lat="42.0329117" lon="12.3903736"><ele>103.0</ele><time>2026-04-15T06:29:38.99Z</time></trkpt><trkpt lat="42.0327432" lon="12.3903284"><ele>98.0</ele><time>2026-04-15T06:29:39.989Z</time></trkpt><trkpt lat="42.0325866" lon="12.3902977"><ele>96.5</ele><time>2026-04-15T06:29:40.989Z</time></trkpt><trkpt lat="42.032442" lon="12.3902714"><ele>95.0</ele><time>2026-04-15T06:29:41.991Z</time></trkpt><trkpt lat="42.0323125" lon="12.3902531"><ele>93.5</ele><time>2026-04-15T06:29:42.99Z</time></trkpt><trkpt lat="42.0321964" lon="12.3902184"><ele>92.0</ele><time>2026-04-15T06:29:43.99Z</time></trkpt><trkpt lat="42.0320997" lon="12.3901706"><ele>92.0</ele><time>2026-04-15T06:29:44.989Z</time></trkpt><trkpt lat="42.0320194" lon="12.3900854"><ele>92.0</ele><time>2026-04-15T06:29:45.991Z</time></trkpt><trkpt lat="42.0319645" lon="12.3899816"><ele>92.0</ele><time>2026-04-15T06:29:46.989Z</time></trkpt><trkpt lat="42.0319441" lon="12.3898601"><ele>92.0</ele><time>2026-04-15T06:29:47.99Z</time></trkpt><trkpt lat="42.0319517" lon="12.3897267"><ele>92.0</ele><time>2026-04-15T06:29:48.989Z</time></trkpt><trkpt lat="42.0319787" lon="12.3895784"><ele>91.75</ele><time>2026-04-15T06:29:49.991Z</time></trkpt><trkpt lat="42.0320206" lon="12.3894183"><ele>91.5</ele><time>2026-04-15T06:29:50.989Z</time></trkpt><trkpt lat="42.0320691" lon="12.3892449"><ele>91.25</ele><time>2026-04-15T06:29:51.989Z</time></trkpt><trkpt lat="42.0321047" lon="12.3890791"><ele>91.0</ele><time>2026-04-15T06:29:52.989Z</time></trkpt><trkpt lat="42.0321238" lon="12.3889233"><ele>92.0</ele><time>2026-04-15T06:29:53.99Z</time></trkpt><trkpt lat="42.0321095" lon="12.3887842"><ele>93.0</ele><time>2026-04-15T06:29:54.991Z</time></trkpt><trkpt lat="42.0320722" lon="12.388667"><ele>94.0</ele><time>2026-04-15T06:29:55.989Z</time></trkpt><trkpt lat="42.0320017" lon="12.3885738"><ele>95.0</ele><time>2026-04-15T06:29:56.99Z</time></trkpt><trkpt lat="42.0319121" lon="12.3884902"><ele>96.0</ele><time>2026-04-15T06:29:57.99Z</time></trkpt><trkpt lat="42.031801" lon="12.3884146"><ele>96.0</ele><time>2026-04-15T06:29:58.989Z</time></trkpt><trkpt lat="42.0316766" lon="12.3883512"><ele>96.0</ele><time>2026-04-15T06:29:59.989Z</time></trkpt><trkpt lat="42.0315419" lon="12.3882989"><ele>96.0</ele><time>2026-04-15T06:30:00.991Z</time></trkpt><trkpt lat="42.0314044" lon="12.388242"><ele>96.0</ele><time>2026-04-15T06:30:01.99Z</time></trkpt><trkpt lat="42.031259" lon="12.3881949"><ele>98.0</ele><time>2026-04-15T06:30:02.99Z</time></trkpt><trkpt lat="42.0311113" lon="12.3881408"><ele>100.0</ele><time>2026-04-15T06:30:03.989Z</time></trkpt><trkpt lat="42.0309693" lon="12.3880917"><ele>102.0</ele><time>2026-04-15T06:30:04.99Z</time></trkpt><trkpt lat="42.0308204" lon="12.3880587"><ele>103.75</ele><time>2026-04-15T06:30:05.99Z</time></trkpt><trkpt lat="42.0306795" lon="12.3880187"><ele>105.5</ele><time>2026-04-15T06:30:06.99Z</time></trkpt><trkpt lat="42.0305349" lon="12.3879712"><ele>107.25</ele><time>2026-04-15T06:30:07.991Z</time></trkpt><trkpt lat="42.0304059" lon="12.3879308"><ele>109.0</ele><time>2026-04-15T06:30:08.99Z</time></trkpt><trkpt lat="42.0302824" lon="12.3878902"><ele>109.80000000000001</ele><time>2026-04-15T06:30:09.991Z</time></trkpt><trkpt lat="42.0301711" lon="12.3878493"><ele>110.60000000000001</ele><time>2026-04-15T06:30:10.991Z</time></trkpt><trkpt lat="42.0300623" lon="12.3878098"><ele>111.4</ele><time>2026-04-15T06:30:11.99Z</time></trkpt><trkpt lat="42.0299633" lon="12.3877749"><ele>112.2</ele><time>2026-04-15T06:30:12.991Z</time></trkpt><trkpt lat="42.0298603" lon="12.3877374"><ele>113.0</ele><time>2026-04-15T06:30:13.989Z</time></trkpt><trkpt lat="42.0297606" lon="12.3876993"><ele>113.2</ele><time>2026-04-15T06:30:14.99Z</time></trkpt><trkpt lat="42.0296601" lon="12.387669"><ele>113.4</ele><time>2026-04-15T06:30:15.991Z</time></trkpt><trkpt lat="42.0295553" lon="12.3876536"><ele>113.60000000000001</ele><time>2026-04-15T06:30:16.99Z</time></trkpt><trkpt lat="42.0294529" lon="12.3876325"><ele>113.80000000000001</ele><time>2026-04-15T06:30:17.989Z</time></trkpt><trkpt lat="42.0293563" lon="12.3876205"><ele>114.0</ele><time>2026-04-15T06:30:18.99Z</time></trkpt><trkpt lat="42.0292588" lon="12.3876037"><ele>114.0</ele><time>2026-04-15T06:30:19.991Z</time></trkpt><trkpt lat="42.0291708" lon="12.387586"><ele>114.0</ele><time>2026-04-15T06:30:20.991Z</time></trkpt><trkpt lat="42.029073" lon="12.3875727"><ele>114.0</ele><time>2026-04-15T06:30:21.99Z</time></trkpt><trkpt lat="42.028979" lon="12.3875527"><ele>114.0</ele><time>2026-04-15T06:30:22.989Z</time></trkpt><trkpt lat="42.0288865" lon="12.3875261"><ele>114.0</ele><time>2026-04-15T06:30:23.99Z</time></trkpt><trkpt lat="42.028795" lon="12.3874943"><ele>114.33333333333333</ele><time>2026-04-15T06:30:24.99Z</time></trkpt><trkpt lat="42.0287126" lon="12.3874617"><ele>114.66666666666666</ele><time>2026-04-15T06:30:25.991Z</time></trkpt><trkpt lat="42.0286266" lon="12.3874332"><ele>115.0</ele><time>2026-04-15T06:30:26.99Z</time></trkpt><trkpt lat="42.028547" lon="12.3873917"><ele>115.33333333333333</ele><time>2026-04-15T06:30:27.989Z</time></trkpt><trkpt lat="42.0284724" lon="12.3873449"><ele>115.66666666666666</ele><time>2026-04-15T06:30:28.989Z</time></trkpt><trkpt lat="42.0284082" lon="12.3872859"><ele>116.0</ele><time>2026-04-15T06:30:29.99Z</time></trkpt><trkpt lat="42.0283317" lon="12.3872198"><ele>113.4</ele><time>2026-04-15T06:30:30.991Z</time></trkpt><trkpt lat="42.0282581" lon="12.3871444"><ele>110.8</ele><time>2026-04-15T06:30:31.99Z</time></trkpt><trkpt lat="42.0281791" lon="12.3870749"><ele>108.2</ele><time>2026-04-15T06:30:32.989Z</time></trkpt><trkpt lat="42.0280978" lon="12.3870073"><ele>105.60000000000001</ele><time>2026-04-15T06:30:33.99Z</time></trkpt><trkpt lat="42.0280125" lon="12.3869477"><ele>103.0</ele><time>2026-04-15T06:30:34.99Z</time></trkpt><trkpt lat="42.0279257" lon="12.3868972"><ele>103.0</ele><time>2026-04-15T06:30:35.989Z</time></trkpt><trkpt lat="42.0278369" lon="12.3868611"><ele>103.0</ele><time>2026-04-15T06:30:36.99Z</time></trkpt><trkpt lat="42.0277424" lon="12.386833"><ele>103.0</ele><time>2026-04-15T06:30:37.991Z</time></trkpt><trkpt lat="42.0276477" lon="12.3868114"><ele>103.0</ele><time>2026-04-15T06:30:38.99Z</time></trkpt><trkpt lat="42.0275414" lon="12.3867911"><ele>103.0</ele><time>2026-04-15T06:30:39.99Z</time></trkpt><trkpt lat="42.0274408" lon="12.3867852"><ele>101.60000000000001</ele><time>2026-04-15T06:30:40.991Z</time></trkpt><trkpt lat="42.0273482" lon="12.3867901"><ele>100.2</ele><time>2026-04-15T06:30:41.991Z</time></trkpt><trkpt lat="42.0272441" lon="12.3867913"><ele>98.8</ele><time>2026-04-15T06:30:42.99Z</time></trkpt><trkpt lat="42.0271467" lon="12.386796"><ele>97.4</ele><time>2026-04-15T06:30:43.991Z</time></trkpt><trkpt lat="42.027048" lon="12.3868038"><ele>96.0</ele><time>2026-04-15T06:30:44.99Z</time></trkpt><trkpt lat="42.0269529" lon="12.3868157"><ele>96.0</ele><time>2026-04-15T06:30:45.991Z</time></trkpt><trkpt lat="42.0268521" lon="12.3868202"><ele>96.0</ele><time>2026-04-15T06:30:46.99Z</time></trkpt><trkpt lat="42.0267507" lon="12.3868172"><ele>96.0</ele><time>2026-04-15T06:30:47.989Z</time></trkpt><trkpt lat="42.0266482" lon="12.3867962"><ele>96.0</ele><time>2026-04-15T06:30:48.99Z</time></trkpt><trkpt lat="42.0265538" lon="12.3867525"><ele>96.0</ele><time>2026-04-15T06:30:49.99Z</time></trkpt><trkpt lat="42.0264684" lon="12.3866822"><ele>95.19999999999999</ele><time>2026-04-15T06:30:50.99Z</time></trkpt><trkpt lat="42.0263922" lon="12.3865898"><ele>94.39999999999999</ele><time>2026-04-15T06:30:51.99Z</time></trkpt><trkpt lat="42.0263212" lon="12.3864786"><ele>93.6</ele><time>2026-04-15T06:30:52.99Z</time></trkpt><trkpt lat="42.0262513" lon="12.3863606"><ele>92.8</ele><time>2026-04-15T06:30:53.989Z</time></trkpt><trkpt lat="42.0261852" lon="12.3862391"><ele>92.0</ele><time>2026-04-15T06:30:54.99Z</time></trkpt><trkpt lat="42.0261201" lon="12.3861166"><ele>92.0</ele><time>2026-04-15T06:30:55.989Z</time></trkpt><trkpt lat="42.0260518" lon="12.3859942"><ele>92.0</ele><time>2026-04-15T06:30:56.99Z</time></trkpt><trkpt lat="42.0259887" lon="12.3858714"><ele>92.0</ele><time>2026-04-15T06:30:57.99Z</time></trkpt><trkpt lat="42.0259376" lon="12.3857578"><ele>92.0</ele><time>2026-04-15T06:30:58.991Z</time></trkpt><trkpt lat="42.0258857" lon="12.3856482"><ele>92.0</ele><time>2026-04-15T06:30:59.99Z</time></trkpt><trkpt lat="42.0258304" lon="12.3855451"><ele>91.39999999999999</ele><time>2026-04-15T06:31:00.989Z</time></trkpt><trkpt lat="42.0257813" lon="12.3854389"><ele>90.8</ele><time>2026-04-15T06:31:01.99Z</time></trkpt><trkpt lat="42.0257422" lon="12.3853308"><ele>90.2</ele><time>2026-04-15T06:31:02.99Z</time></trkpt><trkpt lat="42.0257105" lon="12.3852186"><ele>89.6</ele><time>2026-04-15T06:31:03.989Z</time></trkpt><trkpt lat="42.0256862" lon="12.3851031"><ele>89.0</ele><time>2026-04-15T06:31:04.991Z</time></trkpt><trkpt lat="42.0256673" lon="12.3849762"><ele>89.0</ele><time>2026-04-15T06:31:05.991Z</time></trkpt><trkpt lat="42.0256476" lon="12.3848522"><ele>89.0</ele><time>2026-04-15T06:31:06.99Z</time></trkpt><trkpt lat="42.0256467" lon="12.3847254"><ele>89.0</ele><time>2026-04-15T06:31:07.99Z</time></trkpt><trkpt lat="42.025655" lon="12.3845903"><ele>89.0</ele><time>2026-04-15T06:31:08.989Z</time></trkpt><trkpt lat="42.0256745" lon="12.3844627"><ele>89.0</ele><time>2026-04-15T06:31:09.991Z</time></trkpt><trkpt lat="42.0257085" lon="12.384342"><ele>88.80000000000001</ele><time>2026-04-15T06:31:10.99Z</time></trkpt><trkpt lat="42.0257465" lon="12.3842244"><ele>88.60000000000001</ele><time>2026-04-15T06:31:11.99Z</time></trkpt><trkpt lat="42.0257908" lon="12.3841161"><ele>88.4</ele><time>2026-04-15T06:31:12.99Z</time></trkpt><trkpt lat="42.0258394" lon="12.3840057"><ele>88.2</ele><time>2026-04-15T06:31:13.99Z</time></trkpt><trkpt lat="42.0258923" lon="12.3838907"><ele>88.0</ele><time>2026-04-15T06:31:14.99Z</time></trkpt><trkpt lat="42.0259451" lon="12.3837755"><ele>88.80000000000001</ele><time>2026-04-15T06:31:15.991Z</time></trkpt><trkpt lat="42.0259968" lon="12.3836543"><ele>89.6</ele><time>2026-04-15T06:31:16.989Z</time></trkpt><trkpt lat="42.0260468" lon="12.3835321"><ele>90.4</ele><time>2026-04-15T06:31:17.99Z</time></trkpt><trkpt lat="42.0260988" lon="12.3834058"><ele>91.19999999999999</ele><time>2026-04-15T06:31:18.989Z</time></trkpt><trkpt lat="42.0261459" lon="12.3832795"><ele>92.0</ele><time>2026-04-15T06:31:19.99Z</time></trkpt><trkpt lat="42.0261832" lon="12.3831446"><ele>92.6</ele><time>2026-04-15T06:31:20.99Z</time></trkpt><trkpt lat="42.0262131" lon="12.3830036"><ele>93.19999999999999</ele><time>2026-04-15T06:31:21.989Z</time></trkpt><trkpt lat="42.0262334" lon="12.3828636"><ele>93.8</ele><time>2026-04-15T06:31:22.99Z</time></trkpt><trkpt lat="42.0262444" lon="12.3827201"><ele>94.4</ele><time>2026-04-15T06:31:23.99Z</time></trkpt><trkpt lat="42.0262571" lon="12.3825699"><ele>95.0</ele><time>2026-04-15T06:31:24.989Z</time></trkpt><trkpt lat="42.026276" lon="12.3824205"><ele>95.0</ele><time>2026-04-15T06:31:25.99Z</time></trkpt><trkpt lat="42.0262978" lon="12.382271"><ele>95.0</ele><time>2026-04-15T06:31:26.991Z</time></trkpt><trkpt lat="42.0263333" lon="12.3821255"><ele>95.0</ele><time>2026-04-15T06:31:27.989Z</time></trkpt><trkpt lat="42.0263711" lon="12.3819807"><ele>95.0</ele><time>2026-04-15T06:31:28.991Z</time></trkpt><trkpt lat="42.0264135" lon="12.381842"><ele>97.25</ele><time>2026-04-15T06:31:29.989Z</time></trkpt><trkpt lat="42.0264593" lon="12.3817012"><ele>99.5</ele><time>2026-04-15T06:31:30.988Z</time></trkpt><trkpt lat="42.026508" lon="12.3815574"><ele>101.75</ele><time>2026-04-15T06:31:31.989Z</time></trkpt><trkpt lat="42.0265559" lon="12.3814117"><ele>104.0</ele><time>2026-04-15T06:31:32.991Z</time></trkpt><trkpt lat="42.0266042" lon="12.3812654"><ele>102.5</ele><time>2026-04-15T06:31:33.989Z</time></trkpt><trkpt lat="42.0266494" lon="12.3811218"><ele>101.0</ele><time>2026-04-15T06:31:34.989Z</time></trkpt><trkpt lat="42.0266889" lon="12.3809724"><ele>99.5</ele><time>2026-04-15T06:31:35.989Z</time></trkpt><trkpt lat="42.0267343" lon="12.3808104"><ele>98.0</ele><time>2026-04-15T06:31:36.99Z</time></trkpt><trkpt lat="42.0267777" lon="12.380648"><ele>99.0</ele><time>2026-04-15T06:31:37.989Z</time></trkpt><trkpt lat="42.026824" lon="12.3804922"><ele>100.0</ele><time>2026-04-15T06:31:38.989Z</time></trkpt><trkpt lat="42.0268679" lon="12.380344"><ele>101.0</ele><time>2026-04-15T06:31:39.99Z</time></trkpt><trkpt lat="42.0269148" lon="12.3802039"><ele>102.0</ele><time>2026-04-15T06:31:40.99Z</time></trkpt><trkpt lat="42.0269572" lon="12.3800651"><ele>102.0</ele><time>2026-04-15T06:31:41.99Z</time></trkpt><trkpt lat="42.0269999" lon="12.3799261"><ele>102.0</ele><time>2026-04-15T06:31:42.99Z</time></trkpt><trkpt lat="42.0270422" lon="12.3797811"><ele>102.0</ele><time>2026-04-15T06:31:43.989Z</time></trkpt><trkpt lat="42.0270893" lon="12.3796364"><ele>102.0</ele><time>2026-04-15T06:31:44.989Z</time></trkpt><trkpt lat="42.0271365" lon="12.3794897"><ele>103.25</ele><time>2026-04-15T06:31:45.989Z</time></trkpt><trkpt lat="42.0271842" lon="12.3793389"><ele>104.5</ele><time>2026-04-15T06:31:46.99Z</time></trkpt><trkpt lat="42.0272276" lon="12.3791851"><ele>105.75</ele><time>2026-04-15T06:31:47.989Z</time></trkpt><trkpt lat="42.0272668" lon="12.3790237"><ele>107.0</ele><time>2026-04-15T06:31:48.99Z</time></trkpt><trkpt lat="42.0273028" lon="12.3788643"><ele>108.0</ele><time>2026-04-15T06:31:49.989Z</time></trkpt><trkpt lat="42.0273314" lon="12.378703"><ele>109.0</ele><time>2026-04-15T06:31:50.99Z</time></trkpt><trkpt lat="42.0273579" lon="12.3785419"><ele>110.0</ele><time>2026-04-15T06:31:51.99Z</time></trkpt><trkpt lat="42.0273835" lon="12.3783848"><ele>111.0</ele><time>2026-04-15T06:31:52.99Z</time></trkpt><trkpt lat="42.0274076" lon="12.3782272"><ele>111.0</ele><time>2026-04-15T06:31:53.989Z</time></trkpt><trkpt lat="42.0274233" lon="12.3780762"><ele>111.0</ele><time>2026-04-15T06:31:54.99Z</time></trkpt><trkpt lat="42.027427" lon="12.3779299"><ele>111.0</ele><time>2026-04-15T06:31:55.99Z</time></trkpt><trkpt lat="42.0274235" lon="12.3777813"><ele>111.0</ele><time>2026-04-15T06:31:56.99Z</time></trkpt><trkpt lat="42.027413" lon="12.3776442"><ele>111.0</ele><time>2026-04-15T06:31:57.989Z</time></trkpt><trkpt lat="42.0273981" lon="12.3775155"><ele>110.66666666666667</ele><time>2026-04-15T06:31:58.99Z</time></trkpt><trkpt lat="42.027381" lon="12.3773929"><ele>110.33333333333334</ele><time>2026-04-15T06:31:59.99Z</time></trkpt><trkpt lat="42.0273586" lon="12.3772827"><ele>110.0</ele><time>2026-04-15T06:32:00.99Z</time></trkpt><trkpt lat="42.0273287" lon="12.3771835"><ele>109.66666666666667</ele><time>2026-04-15T06:32:01.99Z</time></trkpt><trkpt lat="42.0272932" lon="12.3770937"><ele>109.33333333333334</ele><time>2026-04-15T06:32:02.989Z</time></trkpt><trkpt lat="42.0272426" lon="12.377024"><ele>109.0</ele><time>2026-04-15T06:32:03.99Z</time></trkpt><trkpt lat="42.0271847" lon="12.3769687"><ele>107.83333333333334</ele><time>2026-04-15T06:32:04.989Z</time></trkpt><trkpt lat="42.0271148" lon="12.3769273"><ele>106.66666666666667</ele><time>2026-04-15T06:32:05.989Z</time></trkpt><trkpt lat="42.0270403" lon="12.3768946"><ele>105.5</ele><time>2026-04-15T06:32:06.989Z</time></trkpt><trkpt lat="42.0269606" lon="12.3768663"><ele>104.33333333333334</ele><time>2026-04-15T06:32:07.99Z</time></trkpt><trkpt lat="42.0268828" lon="12.3768367"><ele>103.16666666666667</ele><time>2026-04-15T06:32:08.989Z</time></trkpt><trkpt lat="42.0268011" lon="12.3768049"><ele>102.0</ele><time>2026-04-15T06:32:09.989Z</time></trkpt><trkpt lat="42.0267191" lon="12.376767"><ele>103.66666666666667</ele><time>2026-04-15T06:32:10.989Z</time></trkpt><trkpt lat="42.0266408" lon="12.3767294"><ele>105.33333333333334</ele><time>2026-04-15T06:32:11.99Z</time></trkpt><trkpt lat="42.0265649" lon="12.3766849"><ele>107.0</ele><time>2026-04-15T06:32:12.99Z</time></trkpt><trkpt lat="42.0265039" lon="12.3766419"><ele>108.66666666666667</ele><time>2026-04-15T06:32:13.99Z</time></trkpt><trkpt lat="42.0264048" lon="12.3765707"><ele>110.33333333333334</ele><time>2026-04-15T06:32:15.99Z</time></trkpt><trkpt lat="42.0263631" lon="12.3765034"><ele>112.0</ele><time>2026-04-15T06:32:17.991Z</time></trkpt><trkpt lat="42.0262997" lon="12.3764289"><ele>111.83333333333334</ele><time>2026-04-15T06:32:19.99Z</time></trkpt><trkpt lat="42.026247" lon="12.376317"><ele>111.66666666666667</ele><time>2026-04-15T06:32:21.99Z</time></trkpt><trkpt lat="42.0261857" lon="12.3762133"><ele>111.5</ele><time>2026-04-15T06:32:23.989Z</time></trkpt><trkpt lat="42.0261494" lon="12.3761426"><ele>111.33333333333334</ele><time>2026-04-15T06:32:30.99Z</time></trkpt><trkpt lat="42.0260529" lon="12.3761695"><ele>111.16666666666667</ele><time>2026-04-15T06:32:32.99Z</time></trkpt><trkpt lat="42.0259745" lon="12.3761994"><ele>111.0</ele><time>2026-04-15T06:32:33.99Z</time></trkpt><trkpt lat="42.025865" lon="12.3762341"><ele>111.6</ele><time>2026-04-15T06:32:34.989Z</time></trkpt><trkpt lat="42.0257591" lon="12.3762749"><ele>112.19999999999999</ele><time>2026-04-15T06:32:35.989Z</time></trkpt><trkpt lat="42.0256566" lon="12.3763124"><ele>112.80000000000001</ele><time>2026-04-15T06:32:36.989Z</time></trkpt><trkpt lat="42.0255621" lon="12.3763458"><ele>113.4</ele><time>2026-04-15T06:32:37.989Z</time></trkpt><trkpt lat="42.025473" lon="12.3763777"><ele>114.0</ele><time>2026-04-15T06:32:38.991Z</time></trkpt><trkpt lat="42.0253863" lon="12.3764072"><ele>112.80000000000001</ele><time>2026-04-15T06:32:39.99Z</time></trkpt><trkpt lat="42.0253117" lon="12.3764272"><ele>111.60000000000001</ele><time>2026-04-15T06:32:40.989Z</time></trkpt><trkpt lat="42.0252438" lon="12.3764457"><ele>110.4</ele><time>2026-04-15T06:32:41.99Z</time></trkpt><trkpt lat="42.0251375" lon="12.3764726"><ele>109.2</ele><time>2026-04-15T06:32:43.99Z</time></trkpt><trkpt lat="42.0250396" lon="12.376497"><ele>108.0</ele><time>2026-04-15T06:32:46.99Z</time></trkpt><trkpt lat="42.0249394" lon="12.3765175"><ele>108.0</ele><time>2026-04-15T06:32:48.989Z</time></trkpt><trkpt lat="42.0248688" lon="12.3765323"><ele>108.0</ele><time>2026-04-15T06:32:49.99Z</time></trkpt><trkpt lat="42.0247919" lon="12.3765489"><ele>108.0</ele><time>2026-04-15T06:32:50.989Z</time></trkpt><trkpt lat="42.0247088" lon="12.3765684"><ele>108.0</ele><time>2026-04-15T06:32:51.989Z</time></trkpt><trkpt lat="42.024618" lon="12.3765868"><ele>108.0</ele><time>2026-04-15T06:32:52.991Z</time></trkpt><trkpt lat="42.0245299" lon="12.3766095"><ele>108.0</ele><time>2026-04-15T06:32:53.991Z</time></trkpt><trkpt lat="42.024439" lon="12.376627"><ele>108.0</ele><time>2026-04-15T06:32:54.991Z</time></trkpt><trkpt lat="42.0243513" lon="12.3766415"><ele>108.00000000000001</ele><time>2026-04-15T06:32:55.99Z</time></trkpt><trkpt lat="42.0242608" lon="12.3766592"><ele>108.00000000000001</ele><time>2026-04-15T06:32:56.989Z</time></trkpt><trkpt lat="42.0241711" lon="12.3766736"><ele>108.0</ele><time>2026-04-15T06:32:57.99Z</time></trkpt><trkpt lat="42.0240789" lon="12.376682"><ele>108.0</ele><time>2026-04-15T06:32:58.99Z</time></trkpt><trkpt lat="42.0239885" lon="12.3766902"><ele>108.66666666666667</ele><time>2026-04-15T06:32:59.989Z</time></trkpt><trkpt lat="42.0239076" lon="12.3766934"><ele>109.33333333333334</ele><time>2026-04-15T06:33:00.99Z</time></trkpt><trkpt lat="42.0238343" lon="12.3767003"><ele>110.0</ele><time>2026-04-15T06:33:01.989Z</time></trkpt><trkpt lat="42.0237231" lon="12.3767112"><ele>110.66666666666667</ele><time>2026-04-15T06:33:03.989Z</time></trkpt><trkpt lat="42.0236063" lon="12.3767219"><ele>111.33333333333334</ele><time>2026-04-15T06:33:05.991Z</time></trkpt><trkpt lat="42.0235428" lon="12.3767221"><ele>112.0</ele><time>2026-04-15T06:33:06.991Z</time></trkpt><trkpt lat="42.0234687" lon="12.3767235"><ele>112.0</ele><time>2026-04-15T06:33:07.991Z</time></trkpt><trkpt lat="42.023393" lon="12.3767264"><ele>111.99999999999999</ele><time>2026-04-15T06:33:08.991Z</time></trkpt><trkpt lat="42.0232995" lon="12.3767359"><ele>111.99999999999999</ele><time>2026-04-15T06:33:09.99Z</time></trkpt><trkpt lat="42.0232065" lon="12.3767392"><ele>112.0</ele><time>2026-04-15T06:33:10.99Z</time></trkpt><trkpt lat="42.0230908" lon="12.3767448"><ele>112.0</ele><time>2026-04-15T06:33:11.99Z</time></trkpt><trkpt lat="42.0229768" lon="12.3767499"><ele>113.19999999999999</ele><time>2026-04-15T06:33:12.991Z</time></trkpt><trkpt lat="42.0228646" lon="12.3767514"><ele>114.39999999999999</ele><time>2026-04-15T06:33:13.99Z</time></trkpt><trkpt lat="42.0227605" lon="12.3767583"><ele>115.60000000000001</ele><time>2026-04-15T06:33:14.991Z</time></trkpt><trkpt lat="42.0226597" lon="12.3767604"><ele>116.80000000000001</ele><time>2026-04-15T06:33:15.989Z</time></trkpt><trkpt lat="42.022558" lon="12.3767597"><ele>118.0</ele><time>2026-04-15T06:33:16.989Z</time></trkpt><trkpt lat="42.0224563" lon="12.3767572"><ele>118.50000000000001</ele><time>2026-04-15T06:33:17.989Z</time></trkpt><trkpt lat="42.022364" lon="12.3767597"><ele>119.0</ele><time>2026-04-15T06:33:18.989Z</time></trkpt><trkpt lat="42.0222721" lon="12.3767635"><ele>119.5</ele><time>2026-04-15T06:33:19.989Z</time></trkpt><trkpt lat="42.0221959" lon="12.3767622"><ele>120.0</ele><time>2026-04-15T06:33:20.989Z</time></trkpt><trkpt lat="42.0221314" lon="12.3767651"><ele>120.50000000000001</ele><time>2026-04-15T06:33:21.99Z</time></trkpt><trkpt lat="42.0220639" lon="12.3767704"><ele>121.0</ele><time>2026-04-15T06:33:22.989Z</time></trkpt><trkpt lat="42.0219945" lon="12.3767656"><ele>121.00000000000001</ele><time>2026-04-15T06:33:23.989Z</time></trkpt><trkpt lat="42.0219172" lon="12.3767653"><ele>121.0</ele><time>2026-04-15T06:33:24.989Z</time></trkpt><trkpt lat="42.021847" lon="12.3767621"><ele>121.0</ele><time>2026-04-15T06:33:25.99Z</time></trkpt><trkpt lat="42.0217819" lon="12.3767663"><ele>121.0</ele><time>2026-04-15T06:33:26.99Z</time></trkpt><trkpt lat="42.0217059" lon="12.3767709"><ele>121.00000000000001</ele><time>2026-04-15T06:33:27.99Z</time></trkpt><trkpt lat="42.0216253" lon="12.3767719"><ele>121.0</ele><time>2026-04-15T06:33:28.99Z</time></trkpt><trkpt lat="42.0215394" lon="12.3767781"><ele>122.19999999999999</ele><time>2026-04-15T06:33:29.989Z</time></trkpt><trkpt lat="42.0214432" lon="12.3767723"><ele>123.39999999999999</ele><time>2026-04-15T06:33:30.989Z</time></trkpt><trkpt lat="42.021343" lon="12.3767756"><ele>124.6</ele><time>2026-04-15T06:33:31.991Z</time></trkpt><trkpt lat="42.0212412" lon="12.3767786"><ele>125.8</ele><time>2026-04-15T06:33:32.99Z</time></trkpt><trkpt lat="42.021144" lon="12.3767875"><ele>127.0</ele><time>2026-04-15T06:33:33.99Z</time></trkpt><trkpt lat="42.0210477" lon="12.3767916"><ele>127.00000000000001</ele><time>2026-04-15T06:33:34.99Z</time></trkpt><trkpt lat="42.0209586" lon="12.3767984"><ele>127.0</ele><time>2026-04-15T06:33:35.99Z</time></trkpt><trkpt lat="42.0208724" lon="12.376807"><ele>127.0</ele><time>2026-04-15T06:33:36.989Z</time></trkpt><trkpt lat="42.0207798" lon="12.3768113"><ele>127.0</ele><time>2026-04-15T06:33:37.989Z</time></trkpt><trkpt lat="42.0206984" lon="12.3768133"><ele>127.00000000000001</ele><time>2026-04-15T06:33:38.989Z</time></trkpt><trkpt lat="42.0206154" lon="12.3768121"><ele>127.0</ele><time>2026-04-15T06:33:39.99Z</time></trkpt><trkpt lat="42.0205143" lon="12.3768236"><ele>128.2</ele><time>2026-04-15T06:33:41.99Z</time></trkpt><trkpt lat="42.0204185" lon="12.3768338"><ele>129.39999999999998</ele><time>2026-04-15T06:33:43.991Z</time></trkpt><trkpt lat="42.0203055" lon="12.3768366"><ele>130.60000000000002</ele><time>2026-04-15T06:33:45.989Z</time></trkpt><trkpt lat="42.0201905" lon="12.3768439"><ele>131.8</ele><time>2026-04-15T06:33:47.991Z</time></trkpt><trkpt lat="42.0200959" lon="12.3768453"><ele>133.0</ele><time>2026-04-15T06:33:49.991Z</time></trkpt><trkpt lat="42.0200044" lon="12.3768399"><ele>134.20000000000002</ele><time>2026-04-15T06:33:51.989Z</time></trkpt><trkpt lat="42.0198779" lon="12.3768375"><ele>135.4</ele><time>2026-04-15T06:33:53.989Z</time></trkpt><trkpt lat="42.0197939" lon="12.3768379"><ele>136.60000000000002</ele><time>2026-04-15T06:33:54.99Z</time></trkpt><trkpt lat="42.019697" lon="12.3768414"><ele>137.8</ele><time>2026-04-15T06:33:55.989Z</time></trkpt><trkpt lat="42.019589" lon="12.3768346"><ele>139.0</ele><time>2026-04-15T06:33:56.99Z</time></trkpt><trkpt lat="42.0194828" lon="12.3768266"><ele>139.0</ele><time>2026-04-15T06:33:57.989Z</time></trkpt><trkpt lat="42.0193618" lon="12.3768161"><ele>139.0</ele><time>2026-04-15T06:33:58.989Z</time></trkpt><trkpt lat="42.019234" lon="12.3768039"><ele>139.0</ele><time>2026-04-15T06:33:59.991Z</time></trkpt><trkpt lat="42.0191024" lon="12.3767907"><ele>139.0</ele><time>2026-04-15T06:34:00.989Z</time></trkpt><trkpt lat="42.018973" lon="12.3767787"><ele>140.0</ele><time>2026-04-15T06:34:01.989Z</time></trkpt><trkpt lat="42.0188454" lon="12.3767581"><ele>141.0</ele><time>2026-04-15T06:34:02.989Z</time></trkpt><trkpt lat="42.0187218" lon="12.3767362"><ele>142.0</ele><time>2026-04-15T06:34:03.99Z</time></trkpt><trkpt lat="42.018601" lon="12.3767231"><ele>143.0</ele><time>2026-04-15T06:34:04.989Z</time></trkpt><trkpt lat="42.0184811" lon="12.3767102"><ele>143.0</ele><time>2026-04-15T06:34:05.99Z</time></trkpt><trkpt lat="42.0183595" lon="12.376692"><ele>143.0</ele><time>2026-04-15T06:34:06.991Z</time></trkpt><trkpt lat="42.0182351" lon="12.3766777"><ele>143.0</ele><time>2026-04-15T06:34:07.991Z</time></trkpt><trkpt lat="42.0181158" lon="12.3766635"><ele>143.0</ele><time>2026-04-15T06:34:08.988Z</time></trkpt><trkpt lat="42.0180083" lon="12.3766505"><ele>143.8</ele><time>2026-04-15T06:34:09.991Z</time></trkpt><trkpt lat="42.01791" lon="12.3766415"><ele>144.60000000000002</ele><time>2026-04-15T06:34:10.99Z</time></trkpt><trkpt lat="42.0178153" lon="12.3766343"><ele>145.39999999999998</ele><time>2026-04-15T06:34:11.989Z</time></trkpt><trkpt lat="42.0177264" lon="12.3766287"><ele>146.2</ele><time>2026-04-15T06:34:12.989Z</time></trkpt><trkpt lat="42.0176379" lon="12.3766274"><ele>147.0</ele><time>2026-04-15T06:34:13.99Z</time></trkpt><trkpt lat="42.0175467" lon="12.3766253"><ele>147.79999999999998</ele><time>2026-04-15T06:34:14.989Z</time></trkpt><trkpt lat="42.0174606" lon="12.3766225"><ele>148.6</ele><time>2026-04-15T06:34:15.989Z</time></trkpt><trkpt lat="42.0173718" lon="12.3766236"><ele>149.39999999999998</ele><time>2026-04-15T06:34:16.99Z</time></trkpt><trkpt lat="42.0172803" lon="12.3766202"><ele>150.2</ele><time>2026-04-15T06:34:17.989Z</time></trkpt><trkpt lat="42.0171783" lon="12.3766227"><ele>151.0</ele><time>2026-04-15T06:34:18.989Z</time></trkpt><trkpt lat="42.017067" lon="12.376622"><ele>151.0</ele><time>2026-04-15T06:34:19.989Z</time></trkpt><trkpt lat="42.0169471" lon="12.3766239"><ele>151.0</ele><time>2026-04-15T06:34:20.991Z</time></trkpt><trkpt lat="42.0168256" lon="12.3766293"><ele>151.0</ele><time>2026-04-15T06:34:21.99Z</time></trkpt><trkpt lat="42.0167098" lon="12.3766355"><ele>151.0</ele><time>2026-04-15T06:34:22.991Z</time></trkpt><trkpt lat="42.0166081" lon="12.3766427"><ele>151.2</ele><time>2026-04-15T06:34:23.99Z</time></trkpt><trkpt lat="42.0165204" lon="12.3766486"><ele>151.39999999999998</ele><time>2026-04-15T06:34:24.99Z</time></trkpt><trkpt lat="42.0164383" lon="12.3766573"><ele>151.6</ele><time>2026-04-15T06:34:25.989Z</time></trkpt><trkpt lat="42.0163462" lon="12.3766649"><ele>151.79999999999998</ele><time>2026-04-15T06:34:26.99Z</time></trkpt><trkpt lat="42.0162476" lon="12.3766759"><ele>152.0</ele><time>2026-04-15T06:34:27.989Z</time></trkpt><trkpt lat="42.0161306" lon="12.376691"><ele>152.0</ele><time>2026-04-15T06:34:28.989Z</time></trkpt><trkpt lat="42.0160148" lon="12.3767098"><ele>152.0</ele><time>2026-04-15T06:34:29.99Z</time></trkpt><trkpt lat="42.0158802" lon="12.3767345"><ele>152.0</ele><time>2026-04-15T06:34:30.989Z</time></trkpt><trkpt lat="42.0157676" lon="12.3767538"><ele>152.0</ele><time>2026-04-15T06:34:31.989Z</time></trkpt><trkpt lat="42.0156586" lon="12.3767759"><ele>151.75</ele><time>2026-04-15T06:34:32.99Z</time></trkpt><trkpt lat="42.0155408" lon="12.376799"><ele>151.5</ele><time>2026-04-15T06:34:33.99Z</time></trkpt><trkpt lat="42.0154147" lon="12.3768252"><ele>151.25</ele><time>2026-04-15T06:34:34.99Z</time></trkpt><trkpt lat="42.0152889" lon="12.3768568"><ele>151.0</ele><time>2026-04-15T06:34:35.991Z</time></trkpt><trkpt lat="42.0151565" lon="12.3768909"><ele>151.0</ele><time>2026-04-15T06:34:36.989Z</time></trkpt><trkpt lat="42.0150194" lon="12.376919"><ele>151.0</ele><time>2026-04-15T06:34:37.989Z</time></trkpt><trkpt lat="42.014882" lon="12.3769474"><ele>151.0</ele><time>2026-04-15T06:34:38.99Z</time></trkpt><trkpt lat="42.0147475" lon="12.3769779"><ele>151.0</ele><time>2026-04-15T06:34:39.99Z</time></trkpt><trkpt lat="42.0146274" lon="12.3769998"><ele>150.8</ele><time>2026-04-15T06:34:40.99Z</time></trkpt><trkpt lat="42.0145157" lon="12.3770206"><ele>150.6</ele><time>2026-04-15T06:34:41.99Z</time></trkpt><trkpt lat="42.0144102" lon="12.377041"><ele>150.4</ele><time>2026-04-15T06:34:42.99Z</time></trkpt><trkpt lat="42.0143156" lon="12.377051"><ele>150.2</ele><time>2026-04-15T06:34:43.988Z</time></trkpt><trkpt lat="42.0142314" lon="12.37706"><ele>150.0</ele><time>2026-04-15T06:34:44.99Z</time></trkpt><trkpt lat="42.0141466" lon="12.3770676"><ele>150.5</ele><time>2026-04-15T06:34:45.99Z</time></trkpt><trkpt lat="42.0140506" lon="12.3770654"><ele>151.0</ele><time>2026-04-15T06:34:46.991Z</time></trkpt><trkpt lat="42.0139604" lon="12.3770697"><ele>151.5</ele><time>2026-04-15T06:34:47.989Z</time></trkpt><trkpt lat="42.0138765" lon="12.3770751"><ele>152.0</ele><time>2026-04-15T06:34:48.989Z</time></trkpt><trkpt lat="42.0137975" lon="12.377077"><ele>152.5</ele><time>2026-04-15T06:34:49.991Z</time></trkpt><trkpt lat="42.0137234" lon="12.3770792"><ele>153.0</ele><time>2026-04-15T06:34:50.99Z</time></trkpt><trkpt lat="42.0136488" lon="12.3770808"><ele>153.0</ele><time>2026-04-15T06:34:51.989Z</time></trkpt><trkpt lat="42.0135733" lon="12.3770846"><ele>153.0</ele><time>2026-04-15T06:34:52.99Z</time></trkpt><trkpt lat="42.0134882" lon="12.3770869"><ele>153.0</ele><time>2026-04-15T06:34:53.99Z</time></trkpt><trkpt lat="42.0134033" lon="12.3770891"><ele>153.0</ele><time>2026-04-15T06:34:54.989Z</time></trkpt><trkpt lat="42.0133196" lon="12.3770931"><ele>153.0</ele><time>2026-04-15T06:34:55.989Z</time></trkpt><trkpt lat="42.0132458" lon="12.3771046"><ele>153.0</ele><time>2026-04-15T06:34:56.989Z</time></trkpt><trkpt lat="42.01317" lon="12.3771179"><ele>153.33333333333334</ele><time>2026-04-15T06:34:57.99Z</time></trkpt><trkpt lat="42.01309" lon="12.377124"><ele>153.66666666666666</ele><time>2026-04-15T06:34:58.99Z</time></trkpt><trkpt lat="42.0130083" lon="12.3771355"><ele>154.0</ele><time>2026-04-15T06:34:59.989Z</time></trkpt><trkpt lat="42.0129264" lon="12.3771407"><ele>154.33333333333331</ele><time>2026-04-15T06:35:00.99Z</time></trkpt><trkpt lat="42.0128369" lon="12.3771493"><ele>154.66666666666666</ele><time>2026-04-15T06:35:01.989Z</time></trkpt><trkpt lat="42.012744" lon="12.3771649"><ele>155.0</ele><time>2026-04-15T06:35:02.99Z</time></trkpt><trkpt lat="42.0126481" lon="12.3771836"><ele>155.6</ele><time>2026-04-15T06:35:03.989Z</time></trkpt><trkpt lat="42.0125475" lon="12.3772121"><ele>156.2</ele><time>2026-04-15T06:35:04.99Z</time></trkpt><trkpt lat="42.0124405" lon="12.3772365"><ele>156.8</ele><time>2026-04-15T06:35:05.99Z</time></trkpt><trkpt lat="42.0123276" lon="12.3772581"><ele>157.4</ele><time>2026-04-15T06:35:06.989Z</time></trkpt><trkpt lat="42.0122083" lon="12.3772813"><ele>158.0</ele><time>2026-04-15T06:35:07.99Z</time></trkpt><trkpt lat="42.0120791" lon="12.3773066"><ele>159.33333333333331</ele><time>2026-04-15T06:35:08.989Z</time></trkpt><trkpt lat="42.0119373" lon="12.377339"><ele>160.66666666666666</ele><time>2026-04-15T06:35:09.99Z</time></trkpt><trkpt lat="42.0117839" lon="12.3773704"><ele>162.0</ele><time>2026-04-15T06:35:10.99Z</time></trkpt><trkpt lat="42.0116216" lon="12.3774102"><ele>162.0</ele><time>2026-04-15T06:35:11.989Z</time></trkpt><trkpt lat="42.0114567" lon="12.3774555"><ele>162.0</ele><time>2026-04-15T06:35:12.991Z</time></trkpt><trkpt lat="42.0112885" lon="12.3775164"><ele>162.0</ele><time>2026-04-15T06:35:13.989Z</time></trkpt><trkpt lat="42.0111267" lon="12.377593"><ele>162.0</ele><time>2026-04-15T06:35:14.991Z</time></trkpt><trkpt lat="42.0109704" lon="12.3776901"><ele>162.0</ele><time>2026-04-15T06:35:15.989Z</time></trkpt><trkpt lat="42.0108151" lon="12.3778038"><ele>162.0</ele><time>2026-04-15T06:35:16.99Z</time></trkpt><trkpt lat="42.0106578" lon="12.3779263"><ele>162.66666666666666</ele><time>2026-04-15T06:35:17.989Z</time></trkpt><trkpt lat="42.0105031" lon="12.3780435"><ele>163.33333333333331</ele><time>2026-04-15T06:35:18.99Z</time></trkpt><trkpt lat="42.0103516" lon="12.3781567"><ele>164.0</ele><time>2026-04-15T06:35:19.991Z</time></trkpt><trkpt lat="42.0102042" lon="12.3782578"><ele>164.0</ele><time>2026-04-15T06:35:20.99Z</time></trkpt><trkpt lat="42.0100657" lon="12.3783462"><ele>164.0</ele><time>2026-04-15T06:35:21.991Z</time></trkpt><trkpt lat="42.0099324" lon="12.3784265"><ele>164.0</ele><time>2026-04-15T06:35:22.99Z</time></trkpt><trkpt lat="42.0098065" lon="12.3785072"><ele>164.0</ele><time>2026-04-15T06:35:23.99Z</time></trkpt><trkpt lat="42.0096841" lon="12.3785773"><ele>162.75</ele><time>2026-04-15T06:35:24.989Z</time></trkpt><trkpt lat="42.0095678" lon="12.3786449"><ele>161.5</ele><time>2026-04-15T06:35:25.989Z</time></trkpt><trkpt lat="42.0094541" lon="12.3787041"><ele>160.25</ele><time>2026-04-15T06:35:26.989Z</time></trkpt><trkpt lat="42.0093469" lon="12.3787607"><ele>159.0</ele><time>2026-04-15T06:35:27.989Z</time></trkpt><trkpt lat="42.0092464" lon="12.378813"><ele>159.8</ele><time>2026-04-15T06:35:28.99Z</time></trkpt><trkpt lat="42.0091477" lon="12.3788656"><ele>160.60000000000002</ele><time>2026-04-15T06:35:29.989Z</time></trkpt><trkpt lat="42.0090556" lon="12.3789108"><ele>161.4</ele><time>2026-04-15T06:35:30.99Z</time></trkpt><trkpt lat="42.0089691" lon="12.3789578"><ele>162.20000000000002</ele><time>2026-04-15T06:35:31.989Z</time></trkpt><trkpt lat="42.008883" lon="12.3790036"><ele>163.0</ele><time>2026-04-15T06:35:32.99Z</time></trkpt><trkpt lat="42.0088044" lon="12.3790572"><ele>163.0</ele><time>2026-04-15T06:35:33.989Z</time></trkpt><trkpt lat="42.0087313" lon="12.3791039"><ele>163.0</ele><time>2026-04-15T06:35:34.989Z</time></trkpt><trkpt lat="42.0086554" lon="12.379146"><ele>163.0</ele><time>2026-04-15T06:35:35.989Z</time></trkpt><trkpt lat="42.0085814" lon="12.3791914"><ele>163.0</ele><time>2026-04-15T06:35:36.99Z</time></trkpt><trkpt lat="42.0085144" lon="12.3792202"><ele>163.0</ele><time>2026-04-15T06:35:37.989Z</time></trkpt><trkpt lat="42.0084533" lon="12.3792539"><ele>163.0</ele><time>2026-04-15T06:35:38.989Z</time></trkpt><trkpt lat="42.0083894" lon="12.3792879"><ele>163.0</ele><time>2026-04-15T06:35:39.99Z</time></trkpt><trkpt lat="42.0082983" lon="12.3793329"><ele>163.75</ele><time>2026-04-15T06:35:40.99Z</time></trkpt><trkpt lat="42.0082036" lon="12.3793878"><ele>164.5</ele><time>2026-04-15T06:35:41.989Z</time></trkpt><trkpt lat="42.0080784" lon="12.3794429"><ele>165.25</ele><time>2026-04-15T06:35:42.99Z</time></trkpt><trkpt lat="42.0079362" lon="12.3795011"><ele>166.0</ele><time>2026-04-15T06:35:43.991Z</time></trkpt><trkpt lat="42.0077847" lon="12.3795648"><ele>166.0</ele><time>2026-04-15T06:35:44.989Z</time></trkpt><trkpt lat="42.0076294" lon="12.3796197"><ele>166.0</ele><time>2026-04-15T06:35:45.989Z</time></trkpt><trkpt lat="42.0074741" lon="12.3796544"><ele>166.0</ele><time>2026-04-15T06:35:46.989Z</time></trkpt><trkpt lat="42.0073202" lon="12.3796783"><ele>169.0</ele><time>2026-04-15T06:35:47.989Z</time></trkpt><trkpt lat="42.0071633" lon="12.3796919"><ele>172.0</ele><time>2026-04-15T06:35:48.989Z</time></trkpt><trkpt lat="42.007011" lon="12.3796961"><ele>175.0</ele><time>2026-04-15T06:35:49.989Z</time></trkpt><trkpt lat="42.0068629" lon="12.3796977"><ele>175.0</ele><time>2026-04-15T06:35:50.99Z</time></trkpt><trkpt lat="42.0067196" lon="12.3797014"><ele>175.0</ele><time>2026-04-15T06:35:51.989Z</time></trkpt><trkpt lat="42.0065884" lon="12.3797217"><ele>175.0</ele><time>2026-04-15T06:35:52.989Z</time></trkpt><trkpt lat="42.0064489" lon="12.3797422"><ele>175.0</ele><time>2026-04-15T06:35:53.989Z</time></trkpt><trkpt lat="42.0063157" lon="12.3797893"><ele>173.75</ele><time>2026-04-15T06:35:54.99Z</time></trkpt><trkpt lat="42.0061772" lon="12.3798434"><ele>172.5</ele><time>2026-04-15T06:35:55.99Z</time></trkpt><trkpt lat="42.0060476" lon="12.3799101"><ele>171.25</ele><time>2026-04-15T06:35:56.99Z</time></trkpt><trkpt lat="42.0059274" lon="12.3799786"><ele>170.0</ele><time>2026-04-15T06:35:57.99Z</time></trkpt><trkpt lat="42.0058184" lon="12.380042"><ele>169.4</ele><time>2026-04-15T06:35:58.99Z</time></trkpt><trkpt lat="42.0057333" lon="12.3800894"><ele>168.8</ele><time>2026-04-15T06:35:59.99Z</time></trkpt><trkpt lat="42.0056689" lon="12.3801316"><ele>168.2</ele><time>2026-04-15T06:36:00.989Z</time></trkpt><trkpt lat="42.0055755" lon="12.3802063"><ele>167.6</ele><time>2026-04-15T06:36:02.99Z</time></trkpt><trkpt lat="42.0055048" lon="12.380247"><ele>167.0</ele><time>2026-04-15T06:36:04.989Z</time></trkpt><trkpt lat="42.0053971" lon="12.3803048"><ele>167.0</ele><time>2026-04-15T06:36:06.99Z</time></trkpt><trkpt lat="42.0053352" lon="12.3803418"><ele>167.0</ele><time>2026-04-15T06:36:07.99Z</time></trkpt><trkpt lat="42.0052705" lon="12.3803799"><ele>167.0</ele><time>2026-04-15T06:36:08.991Z</time></trkpt><trkpt lat="42.0052029" lon="12.3804198"><ele>167.0</ele><time>2026-04-15T06:36:09.99Z</time></trkpt><trkpt lat="42.0051384" lon="12.3804528"><ele>167.0</ele><time>2026-04-15T06:36:10.989Z</time></trkpt><trkpt lat="42.005077" lon="12.3804897"><ele>167.0</ele><time>2026-04-15T06:36:11.99Z</time></trkpt><trkpt lat="42.0050191" lon="12.3805261"><ele>167.0</ele><time>2026-04-15T06:36:12.99Z</time></trkpt><trkpt lat="42.004952" lon="12.3805582"><ele>166.33333333333331</ele><time>2026-04-15T06:36:13.989Z</time></trkpt><trkpt lat="42.0048901" lon="12.3805899"><ele>165.66666666666666</ele><time>2026-04-15T06:36:14.99Z</time></trkpt><trkpt lat="42.0047876" lon="12.3806566"><ele>165.0</ele><time>2026-04-15T06:36:16.989Z</time></trkpt><trkpt lat="42.0046823" lon="12.380725"><ele>164.33333333333334</ele><time>2026-04-15T06:36:18.989Z</time></trkpt><trkpt lat="42.0046209" lon="12.380758"><ele>163.66666666666669</ele><time>2026-04-15T06:36:19.989Z</time></trkpt><trkpt lat="42.0045592" lon="12.380795"><ele>163.0</ele><time>2026-04-15T06:36:20.989Z</time></trkpt><trkpt lat="42.0044988" lon="12.3808308"><ele>163.0</ele><time>2026-04-15T06:36:21.99Z</time></trkpt><trkpt lat="42.0044414" lon="12.3808682"><ele>163.0</ele><time>2026-04-15T06:36:22.989Z</time></trkpt><trkpt lat="42.00438" lon="12.3809088"><ele>163.0</ele><time>2026-04-15T06:36:23.99Z</time></trkpt><trkpt lat="42.0043128" lon="12.3809478"><ele>163.0</ele><time>2026-04-15T06:36:24.99Z</time></trkpt><trkpt lat="42.0042439" lon="12.3809968"><ele>163.0</ele><time>2026-04-15T06:36:25.989Z</time></trkpt><trkpt lat="42.0041767" lon="12.3810493"><ele>163.0</ele><time>2026-04-15T06:36:26.99Z</time></trkpt><trkpt lat="42.0041185" lon="12.3810985"><ele>163.0</ele><time>2026-04-15T06:36:27.99Z</time></trkpt><trkpt lat="42.00403" lon="12.3811984"><ele>162.83333333333334</ele><time>2026-04-15T06:36:29.989Z</time></trkpt><trkpt lat="42.0039472" lon="12.3813244"><ele>162.66666666666669</ele><time>2026-04-15T06:36:31.989Z</time></trkpt><trkpt lat="42.0038974" lon="12.3813912"><ele>162.5</ele><time>2026-04-15T06:36:32.99Z</time></trkpt><trkpt lat="42.0038494" lon="12.3814594"><ele>162.33333333333334</ele><time>2026-04-15T06:36:33.989Z</time></trkpt><trkpt lat="42.0038014" lon="12.3815235"><ele>162.16666666666666</ele><time>2026-04-15T06:36:34.989Z</time></trkpt><trkpt lat="42.0037553" lon="12.3815873"><ele>162.0</ele><time>2026-04-15T06:36:35.991Z</time></trkpt><trkpt lat="42.0036735" lon="12.3817037"><ele>162.16666666666666</ele><time>2026-04-15T06:36:37.989Z</time></trkpt><trkpt lat="42.0036019" lon="12.3817951"><ele>162.33333333333334</ele><time>2026-04-15T06:36:39.989Z</time></trkpt><trkpt lat="42.0035376" lon="12.3818887"><ele>162.5</ele><time>2026-04-15T06:36:41.991Z</time></trkpt><trkpt lat="42.0034922" lon="12.3819605"><ele>162.66666666666669</ele><time>2026-04-15T06:36:44.989Z</time></trkpt><trkpt lat="42.0034432" lon="12.3820199"><ele>162.83333333333334</ele><time>2026-04-15T06:36:48.99Z</time></trkpt><trkpt lat="42.0033767" lon="12.3821016"><ele>163.0</ele><time>2026-04-15T06:36:50.99Z</time></trkpt><trkpt lat="42.0033304" lon="12.3821648"><ele>163.16666666666669</ele><time>2026-04-15T06:36:51.99Z</time></trkpt><trkpt lat="42.003278" lon="12.3822364"><ele>163.33333333333334</ele><time>2026-04-15T06:36:52.989Z</time></trkpt><trkpt lat="42.0032162" lon="12.3823186"><ele>163.5</ele><time>2026-04-15T06:36:53.99Z</time></trkpt><trkpt lat="42.0031536" lon="12.382405"><ele>163.66666666666666</ele><time>2026-04-15T06:36:54.989Z</time></trkpt><trkpt lat="42.0030849" lon="12.3824924"><ele>163.83333333333331</ele><time>2026-04-15T06:36:55.991Z</time></trkpt><trkpt lat="42.003018" lon="12.3825884"><ele>164.0</ele><time>2026-04-15T06:36:56.99Z</time></trkpt><trkpt lat="42.0029485" lon="12.3826926"><ele>164.0</ele><time>2026-04-15T06:36:57.99Z</time></trkpt><trkpt lat="42.0028719" lon="12.3828123"><ele>164.0</ele><time>2026-04-15T06:36:58.989Z</time></trkpt><trkpt lat="42.0027711" lon="12.3829487"><ele>164.0</ele><time>2026-04-15T06:36:59.99Z</time></trkpt><trkpt lat="42.0026791" lon="12.3830785"><ele>164.0</ele><time>2026-04-15T06:37:00.991Z</time></trkpt><trkpt lat="42.0025935" lon="12.383196"><ele>164.6</ele><time>2026-04-15T06:37:01.989Z</time></trkpt><trkpt lat="42.0025166" lon="12.3833067"><ele>165.2</ele><time>2026-04-15T06:37:02.991Z</time></trkpt><trkpt lat="42.0024458" lon="12.383408"><ele>165.79999999999998</ele><time>2026-04-15T06:37:03.99Z</time></trkpt><trkpt lat="42.0023813" lon="12.3835038"><ele>166.39999999999998</ele><time>2026-04-15T06:37:04.989Z</time></trkpt><trkpt lat="42.0023145" lon="12.3836155"><ele>167.0</ele><time>2026-04-15T06:37:05.989Z</time></trkpt><trkpt lat="42.002232" lon="12.3837293"><ele>166.75</ele><time>2026-04-15T06:37:06.99Z</time></trkpt><trkpt lat="42.0021439" lon="12.3838453"><ele>166.5</ele><time>2026-04-15T06:37:07.991Z</time></trkpt><trkpt lat="42.0020528" lon="12.3839585"><ele>166.25</ele><time>2026-04-15T06:37:08.99Z</time></trkpt><trkpt lat="42.0019618" lon="12.3840739"><ele>166.0</ele><time>2026-04-15T06:37:09.99Z</time></trkpt><trkpt lat="42.0018637" lon="12.38419"><ele>166.0</ele><time>2026-04-15T06:37:10.99Z</time></trkpt><trkpt lat="42.0017537" lon="12.3842993"><ele>166.0</ele><time>2026-04-15T06:37:11.99Z</time></trkpt><trkpt lat="42.0016399" lon="12.3844004"><ele>166.0</ele><time>2026-04-15T06:37:12.989Z</time></trkpt><trkpt lat="42.0015255" lon="12.3845037"><ele>166.0</ele><time>2026-04-15T06:37:13.991Z</time></trkpt><trkpt lat="42.0014078" lon="12.3845969"><ele>164.0</ele><time>2026-04-15T06:37:14.99Z</time></trkpt><trkpt lat="42.0012967" lon="12.3846811"><ele>162.0</ele><time>2026-04-15T06:37:15.99Z</time></trkpt><trkpt lat="42.0011918" lon="12.3847623"><ele>160.0</ele><time>2026-04-15T06:37:16.99Z</time></trkpt><trkpt lat="42.0010903" lon="12.3848386"><ele>158.0</ele><time>2026-04-15T06:37:17.99Z</time></trkpt><trkpt lat="42.0009938" lon="12.3849064"><ele>158.0</ele><time>2026-04-15T06:37:18.99Z</time></trkpt><trkpt lat="42.0009004" lon="12.3849789"><ele>158.0</ele><time>2026-04-15T06:37:19.989Z</time></trkpt><trkpt lat="42.0008082" lon="12.3850526"><ele>158.0</ele><time>2026-04-15T06:37:20.99Z</time></trkpt><trkpt lat="42.0007077" lon="12.3851338"><ele>158.0</ele><time>2026-04-15T06:37:21.99Z</time></trkpt><trkpt lat="42.0006029" lon="12.3852188"><ele>158.0</ele><time>2026-04-15T06:37:22.989Z</time></trkpt><trkpt lat="42.0005023" lon="12.3852938"><ele>158.0</ele><time>2026-04-15T06:37:23.99Z</time></trkpt><trkpt lat="42.0004109" lon="12.3853657"><ele>158.0</ele><time>2026-04-15T06:37:24.989Z</time></trkpt><trkpt lat="42.0003297" lon="12.385431"><ele>158.0</ele><time>2026-04-15T06:37:25.989Z</time></trkpt><trkpt lat="42.0002535" lon="12.3854962"><ele>158.0</ele><time>2026-04-15T06:37:26.989Z</time></trkpt><trkpt lat="42.0001797" lon="12.3855672"><ele>156.6</ele><time>2026-04-15T06:37:27.989Z</time></trkpt><trkpt lat="42.0001049" lon="12.3856358"><ele>155.20000000000002</ele><time>2026-04-15T06:37:28.99Z</time></trkpt><trkpt lat="42.0000314" lon="12.3857092"><ele>153.8</ele><time>2026-04-15T06:37:29.99Z</time></trkpt><trkpt lat="41.9999633" lon="12.3857947"><ele>152.4</ele><time>2026-04-15T06:37:30.989Z</time></trkpt><trkpt lat="41.9998887" lon="12.3859224"><ele>151.0</ele><time>2026-04-15T06:37:31.989Z</time></trkpt><trkpt lat="41.999805" lon="12.3860731"><ele>151.0</ele><time>2026-04-15T06:37:32.989Z</time></trkpt><trkpt lat="41.9997138" lon="12.3862413"><ele>151.0</ele><time>2026-04-15T06:37:33.989Z</time></trkpt><trkpt lat="41.9996211" lon="12.3864385"><ele>151.0</ele><time>2026-04-15T06:37:34.991Z</time></trkpt><trkpt lat="41.9995227" lon="12.3866481"><ele>152.33333333333334</ele><time>2026-04-15T06:37:35.991Z</time></trkpt><trkpt lat="41.9994252" lon="12.3868618"><ele>153.66666666666666</ele><time>2026-04-15T06:37:36.989Z</time></trkpt><trkpt lat="41.9993265" lon="12.3870643"><ele>155.0</ele><time>2026-04-15T06:37:37.99Z</time></trkpt><trkpt lat="41.9992157" lon="12.3872486"><ele>156.33333333333331</ele><time>2026-04-15T06:37:38.989Z</time></trkpt><trkpt lat="41.9990997" lon="12.3874057"><ele>157.66666666666666</ele><time>2026-04-15T06:37:39.99Z</time></trkpt><trkpt lat="41.998975" lon="12.3875511"><ele>159.0</ele><time>2026-04-15T06:37:40.989Z</time></trkpt><trkpt lat="41.998828" lon="12.3876837"><ele>159.0</ele><time>2026-04-15T06:37:41.989Z</time></trkpt><trkpt lat="41.998668" lon="12.3878244"><ele>159.0</ele><time>2026-04-15T06:37:42.99Z</time></trkpt><trkpt lat="41.9985002" lon="12.387977"><ele>159.0</ele><time>2026-04-15T06:37:43.99Z</time></trkpt><trkpt lat="41.9983297" lon="12.3881351"><ele>157.66666666666666</ele><time>2026-04-15T06:37:44.989Z</time></trkpt><trkpt lat="41.9981556" lon="12.3882973"><ele>156.33333333333331</ele><time>2026-04-15T06:37:45.99Z</time></trkpt><trkpt lat="41.9979779" lon="12.3884667"><ele>155.0</ele><time>2026-04-15T06:37:46.99Z</time></trkpt><trkpt lat="41.9977992" lon="12.3886371"><ele>155.0</ele><time>2026-04-15T06:37:47.99Z</time></trkpt><trkpt lat="41.9976226" lon="12.3888024"><ele>155.0</ele><time>2026-04-15T06:37:48.99Z</time></trkpt><trkpt lat="41.997455" lon="12.3889644"><ele>155.0</ele><time>2026-04-15T06:37:49.989Z</time></trkpt><trkpt lat="41.9972975" lon="12.3891155"><ele>155.0</ele><time>2026-04-15T06:37:50.99Z</time></trkpt><trkpt lat="41.9971429" lon="12.3892642"><ele>155.0</ele><time>2026-04-15T06:37:51.989Z</time></trkpt><trkpt lat="41.9969948" lon="12.3894176"><ele>155.0</ele><time>2026-04-15T06:37:52.99Z</time></trkpt><trkpt lat="41.9968629" lon="12.3895588"><ele>156.33333333333331</ele><time>2026-04-15T06:37:53.991Z</time></trkpt><trkpt lat="41.9967342" lon="12.3896884"><ele>157.66666666666666</ele><time>2026-04-15T06:37:54.99Z</time></trkpt><trkpt lat="41.9966099" lon="12.3898007"><ele>159.0</ele><time>2026-04-15T06:37:55.99Z</time></trkpt><trkpt lat="41.9964875" lon="12.3898933"><ele>159.25</ele><time>2026-04-15T06:37:56.99Z</time></trkpt><trkpt lat="41.9963648" lon="12.3899612"><ele>159.5</ele><time>2026-04-15T06:37:57.99Z</time></trkpt><trkpt lat="41.9962402" lon="12.3900113"><ele>159.75</ele><time>2026-04-15T06:37:58.991Z</time></trkpt><trkpt lat="41.9961043" lon="12.3900318"><ele>160.0</ele><time>2026-04-15T06:37:59.99Z</time></trkpt><trkpt lat="41.9959696" lon="12.3900562"><ele>160.0</ele><time>2026-04-15T06:38:00.989Z</time></trkpt><trkpt lat="41.9958444" lon="12.390091"><ele>160.0</ele><time>2026-04-15T06:38:01.99Z</time></trkpt><trkpt lat="41.9957257" lon="12.3901409"><ele>160.0</ele><time>2026-04-15T06:38:02.989Z</time></trkpt><trkpt lat="41.9956197" lon="12.3902122"><ele>160.0</ele><time>2026-04-15T06:38:03.989Z</time></trkpt><trkpt lat="41.9955179" lon="12.390304"><ele>158.75</ele><time>2026-04-15T06:38:04.989Z</time></trkpt><trkpt lat="41.9954244" lon="12.3904174"><ele>157.5</ele><time>2026-04-15T06:38:05.99Z</time></trkpt><trkpt lat="41.9953367" lon="12.3905419"><ele>156.25</ele><time>2026-04-15T06:38:06.99Z</time></trkpt><trkpt lat="41.9952586" lon="12.3906823"><ele>155.0</ele><time>2026-04-15T06:38:07.99Z</time></trkpt><trkpt lat="41.9951815" lon="12.3908194"><ele>155.0</ele><time>2026-04-15T06:38:08.991Z</time></trkpt><trkpt lat="41.9951024" lon="12.3909521"><ele>155.0</ele><time>2026-04-15T06:38:09.989Z</time></trkpt><trkpt lat="41.9950273" lon="12.3910819"><ele>155.0</ele><time>2026-04-15T06:38:10.989Z</time></trkpt><trkpt lat="41.9949551" lon="12.3912073"><ele>155.0</ele><time>2026-04-15T06:38:11.989Z</time></trkpt><trkpt lat="41.9948846" lon="12.3913324"><ele>154.2</ele><time>2026-04-15T06:38:12.991Z</time></trkpt><trkpt lat="41.9948134" lon="12.3914464"><ele>153.4</ele><time>2026-04-15T06:38:13.99Z</time></trkpt><trkpt lat="41.9947449" lon="12.3915583"><ele>152.6</ele><time>2026-04-15T06:38:14.989Z</time></trkpt><trkpt lat="41.9946775" lon="12.3916656"><ele>151.8</ele><time>2026-04-15T06:38:15.99Z</time></trkpt><trkpt lat="41.9946199" lon="12.3917612"><ele>151.0</ele><time>2026-04-15T06:38:16.99Z</time></trkpt><trkpt lat="41.9945605" lon="12.3918476"><ele>151.0</ele><time>2026-04-15T06:38:17.989Z</time></trkpt><trkpt lat="41.9945034" lon="12.3919375"><ele>151.0</ele><time>2026-04-15T06:38:18.99Z</time></trkpt><trkpt lat="41.9944398" lon="12.3920427"><ele>151.0</ele><time>2026-04-15T06:38:19.99Z</time></trkpt><trkpt lat="41.9943725" lon="12.3921459"><ele>151.0</ele><time>2026-04-15T06:38:20.989Z</time></trkpt><trkpt lat="41.9943124" lon="12.3922459"><ele>151.0</ele><time>2026-04-15T06:38:21.99Z</time></trkpt><trkpt lat="41.9942479" lon="12.392339"><ele>150.4</ele><time>2026-04-15T06:38:22.989Z</time></trkpt><trkpt lat="41.9941853" lon="12.3924317"><ele>149.8</ele><time>2026-04-15T06:38:23.989Z</time></trkpt><trkpt lat="41.9941197" lon="12.3925257"><ele>149.20000000000002</ele><time>2026-04-15T06:38:24.99Z</time></trkpt><trkpt lat="41.9940647" lon="12.3926285"><ele>148.6</ele><time>2026-04-15T06:38:25.99Z</time></trkpt><trkpt lat="41.9939871" lon="12.3927335"><ele>148.0</ele><time>2026-04-15T06:38:26.99Z</time></trkpt><trkpt lat="41.9939014" lon="12.3928452"><ele>147.75</ele><time>2026-04-15T06:38:27.989Z</time></trkpt><trkpt lat="41.9938091" lon="12.3929633"><ele>147.5</ele><time>2026-04-15T06:38:28.99Z</time></trkpt><trkpt lat="41.9937156" lon="12.3930877"><ele>147.25</ele><time>2026-04-15T06:38:29.99Z</time></trkpt><trkpt lat="41.9936277" lon="12.3932204"><ele>147.0</ele><time>2026-04-15T06:38:30.99Z</time></trkpt><trkpt lat="41.9935398" lon="12.3933394"><ele>145.79999999999998</ele><time>2026-04-15T06:38:31.989Z</time></trkpt><trkpt lat="41.9934602" lon="12.3934493"><ele>144.6</ele><time>2026-04-15T06:38:32.99Z</time></trkpt><trkpt lat="41.9933864" lon="12.3935536"><ele>143.39999999999998</ele><time>2026-04-15T06:38:33.989Z</time></trkpt><trkpt lat="41.993326" lon="12.3936407"><ele>142.2</ele><time>2026-04-15T06:38:34.99Z</time></trkpt><trkpt lat="41.9932731" lon="12.3937111"><ele>141.0</ele><time>2026-04-15T06:38:35.989Z</time></trkpt><trkpt lat="41.9932271" lon="12.393775"><ele>141.0</ele><time>2026-04-15T06:38:36.99Z</time></trkpt><trkpt lat="41.9931833" lon="12.3938382"><ele>141.0</ele><time>2026-04-15T06:38:37.99Z</time></trkpt><trkpt lat="41.9931047" lon="12.3939442"><ele>141.0</ele><time>2026-04-15T06:38:39.989Z</time></trkpt><trkpt lat="41.9930514" lon="12.3940317"><ele>141.0</ele><time>2026-04-15T06:38:41.991Z</time></trkpt><trkpt lat="41.9930087" lon="12.3941003"><ele>141.0</ele><time>2026-04-15T06:38:42.991Z</time></trkpt><trkpt lat="41.9929525" lon="12.3941779"><ele>141.0</ele><time>2026-04-15T06:38:43.989Z</time></trkpt><trkpt lat="41.9928863" lon="12.3942845"><ele>140.5</ele><time>2026-04-15T06:38:44.99Z</time></trkpt><trkpt lat="41.9928116" lon="12.3944036"><ele>140.0</ele><time>2026-04-15T06:38:45.989Z</time></trkpt><trkpt lat="41.9927267" lon="12.3945362"><ele>139.5</ele><time>2026-04-15T06:38:46.99Z</time></trkpt><trkpt lat="41.9926387" lon="12.3946708"><ele>139.0</ele><time>2026-04-15T06:38:47.989Z</time></trkpt><trkpt lat="41.9925639" lon="12.3947966"><ele>141.0</ele><time>2026-04-15T06:38:48.989Z</time></trkpt><trkpt lat="41.9924904" lon="12.3949198"><ele>143.0</ele><time>2026-04-15T06:38:49.989Z</time></trkpt><trkpt lat="41.992416" lon="12.3950464"><ele>145.0</ele><time>2026-04-15T06:38:50.989Z</time></trkpt><trkpt lat="41.9923423" lon="12.3951725"><ele>147.0</ele><time>2026-04-15T06:38:51.989Z</time></trkpt><trkpt lat="41.9922662" lon="12.3953068"><ele>147.0</ele><time>2026-04-15T06:38:52.989Z</time></trkpt><trkpt lat="41.9921832" lon="12.3954348"><ele>147.0</ele><time>2026-04-15T06:38:53.991Z</time></trkpt><trkpt lat="41.9920968" lon="12.3955624"><ele>147.0</ele><time>2026-04-15T06:38:54.989Z</time></trkpt><trkpt lat="41.9920117" lon="12.3956916"><ele>147.0</ele><time>2026-04-15T06:38:55.991Z</time></trkpt><trkpt lat="41.9919376" lon="12.3958084"><ele>147.2</ele><time>2026-04-15T06:38:56.989Z</time></trkpt><trkpt lat="41.9918697" lon="12.3959185"><ele>147.39999999999998</ele><time>2026-04-15T06:38:57.991Z</time></trkpt><trkpt lat="41.9918062" lon="12.3960226"><ele>147.60000000000002</ele><time>2026-04-15T06:38:58.99Z</time></trkpt><trkpt lat="41.9917471" lon="12.3961254"><ele>147.8</ele><time>2026-04-15T06:38:59.99Z</time></trkpt><trkpt lat="41.9916907" lon="12.3962188"><ele>148.0</ele><time>2026-04-15T06:39:00.989Z</time></trkpt><trkpt lat="41.9916353" lon="12.3963106"><ele>147.20000000000002</ele><time>2026-04-15T06:39:01.99Z</time></trkpt><trkpt lat="41.9915782" lon="12.3964075"><ele>146.4</ele><time>2026-04-15T06:39:02.989Z</time></trkpt><trkpt lat="41.9915159" lon="12.3965137"><ele>145.60000000000002</ele><time>2026-04-15T06:39:03.989Z</time></trkpt><trkpt lat="41.9914402" lon="12.396634"><ele>144.8</ele><time>2026-04-15T06:39:04.99Z</time></trkpt><trkpt lat="41.9913611" lon="12.3967631"><ele>144.0</ele><time>2026-04-15T06:39:05.99Z</time></trkpt><trkpt lat="41.9912743" lon="12.3969042"><ele>144.0</ele><time>2026-04-15T06:39:06.99Z</time></trkpt><trkpt lat="41.991186" lon="12.3970467"><ele>144.0</ele><time>2026-04-15T06:39:07.989Z</time></trkpt><trkpt lat="41.9911019" lon="12.3971916"><ele>144.0</ele><time>2026-04-15T06:39:08.989Z</time></trkpt><trkpt lat="41.9910175" lon="12.3973318"><ele>144.0</ele><time>2026-04-15T06:39:09.99Z</time></trkpt><trkpt lat="41.9909329" lon="12.3974732"><ele>143.75</ele><time>2026-04-15T06:39:10.99Z</time></trkpt><trkpt lat="41.9908478" lon="12.3976113"><ele>143.5</ele><time>2026-04-15T06:39:11.99Z</time></trkpt><trkpt lat="41.9907713" lon="12.3977463"><ele>143.25</ele><time>2026-04-15T06:39:12.991Z</time></trkpt><trkpt lat="41.9906889" lon="12.3978779"><ele>143.0</ele><time>2026-04-15T06:39:13.991Z</time></trkpt><trkpt lat="41.990602" lon="12.3980031"><ele>145.0</ele><time>2026-04-15T06:39:14.99Z</time></trkpt><trkpt lat="41.9905124" lon="12.3981253"><ele>147.0</ele><time>2026-04-15T06:39:15.989Z</time></trkpt><trkpt lat="41.9904156" lon="12.398245"><ele>149.0</ele><time>2026-04-15T06:39:16.99Z</time></trkpt><trkpt lat="41.9903172" lon="12.3983624"><ele>151.0</ele><time>2026-04-15T06:39:17.989Z</time></trkpt><trkpt lat="41.9902211" lon="12.3984786"><ele>151.0</ele><time>2026-04-15T06:39:18.99Z</time></trkpt><trkpt lat="41.9901278" lon="12.3985998"><ele>151.0</ele><time>2026-04-15T06:39:19.991Z</time></trkpt><trkpt lat="41.9900276" lon="12.3987264"><ele>151.0</ele><time>2026-04-15T06:39:20.989Z</time></trkpt><trkpt lat="41.9899256" lon="12.3988554"><ele>151.0</ele><time>2026-04-15T06:39:21.989Z</time></trkpt><trkpt lat="41.9898191" lon="12.3989851"><ele>150.5</ele><time>2026-04-15T06:39:22.99Z</time></trkpt><trkpt lat="41.9897169" lon="12.3991104"><ele>150.0</ele><time>2026-04-15T06:39:23.99Z</time></trkpt><trkpt lat="41.9896194" lon="12.3992233"><ele>149.5</ele><time>2026-04-15T06:39:24.99Z</time></trkpt><trkpt lat="41.9895249" lon="12.3993376"><ele>149.0</ele><time>2026-04-15T06:39:25.991Z</time></trkpt><trkpt lat="41.9894296" lon="12.3994548"><ele>149.0</ele><time>2026-04-15T06:39:26.989Z</time></trkpt><trkpt lat="41.9893327" lon="12.3995706"><ele>149.0</ele><time>2026-04-15T06:39:27.99Z</time></trkpt><trkpt lat="41.9892378" lon="12.3996828"><ele>149.0</ele><time>2026-04-15T06:39:28.989Z</time></trkpt><trkpt lat="41.9891387" lon="12.3998018"><ele>149.0</ele><time>2026-04-15T06:39:29.989Z</time></trkpt><trkpt lat="41.9890358" lon="12.3999155"><ele>147.5</ele><time>2026-04-15T06:39:30.989Z</time></trkpt><trkpt lat="41.9889426" lon="12.4000316"><ele>146.0</ele><time>2026-04-15T06:39:31.99Z</time></trkpt><trkpt lat="41.9888438" lon="12.4001465"><ele>144.5</ele><time>2026-04-15T06:39:32.991Z</time></trkpt><trkpt lat="41.9887476" lon="12.4002675"><ele>143.0</ele><time>2026-04-15T06:39:33.989Z</time></trkpt><trkpt lat="41.9886472" lon="12.4003873"><ele>143.25</ele><time>2026-04-15T06:39:34.99Z</time></trkpt><trkpt lat="41.9885476" lon="12.4005103"><ele>143.5</ele><time>2026-04-15T06:39:35.991Z</time></trkpt><trkpt lat="41.9884477" lon="12.4006354"><ele>143.75</ele><time>2026-04-15T06:39:36.989Z</time></trkpt><trkpt lat="41.9883526" lon="12.4007596"><ele>144.0</ele><time>2026-04-15T06:39:37.989Z</time></trkpt><trkpt lat="41.988253" lon="12.4008825"><ele>143.25</ele><time>2026-04-15T06:39:38.991Z</time></trkpt><trkpt lat="41.9881488" lon="12.4010059"><ele>142.5</ele><time>2026-04-15T06:39:39.989Z</time></trkpt><trkpt lat="41.9880428" lon="12.4011248"><ele>141.75</ele><time>2026-04-15T06:39:40.99Z</time></trkpt><trkpt lat="41.9879373" lon="12.4012465"><ele>141.0</ele><time>2026-04-15T06:39:41.989Z</time></trkpt><trkpt lat="41.9878263" lon="12.4013619"><ele>141.0</ele><time>2026-04-15T06:39:42.989Z</time></trkpt><trkpt lat="41.9877153" lon="12.4014731"><ele>141.0</ele><time>2026-04-15T06:39:43.99Z</time></trkpt><trkpt lat="41.9876038" lon="12.4015835"><ele>141.0</ele><time>2026-04-15T06:39:44.99Z</time></trkpt><trkpt lat="41.9874986" lon="12.4016969"><ele>141.0</ele><time>2026-04-15T06:39:45.991Z</time></trkpt><trkpt lat="41.9873965" lon="12.4018083"><ele>141.0</ele><time>2026-04-15T06:39:46.989Z</time></trkpt><trkpt lat="41.9873023" lon="12.401916"><ele>141.0</ele><time>2026-04-15T06:39:47.989Z</time></trkpt><trkpt lat="41.9872105" lon="12.4020134"><ele>141.0</ele><time>2026-04-15T06:39:48.99Z</time></trkpt><trkpt lat="41.9871223" lon="12.4021166"><ele>141.0</ele><time>2026-04-15T06:39:49.989Z</time></trkpt><trkpt lat="41.9870402" lon="12.4022249"><ele>141.4</ele><time>2026-04-15T06:39:50.99Z</time></trkpt><trkpt lat="41.9869701" lon="12.4023239"><ele>141.8</ele><time>2026-04-15T06:39:51.989Z</time></trkpt><trkpt lat="41.9869141" lon="12.4024227"><ele>142.20000000000002</ele><time>2026-04-15T06:39:52.99Z</time></trkpt><trkpt lat="41.986858" lon="12.4025242"><ele>142.6</ele><time>2026-04-15T06:39:53.99Z</time></trkpt><trkpt lat="41.9867908" lon="12.4026235"><ele>143.0</ele><time>2026-04-15T06:39:54.99Z</time></trkpt><trkpt lat="41.9867384" lon="12.4027163"><ele>143.0</ele><time>2026-04-15T06:39:55.99Z</time></trkpt><trkpt lat="41.9866898" lon="12.4028131"><ele>143.0</ele><time>2026-04-15T06:39:56.989Z</time></trkpt><trkpt lat="41.9866378" lon="12.4029322"><ele>143.0</ele><time>2026-04-15T06:39:57.99Z</time></trkpt><trkpt lat="41.9865795" lon="12.4030556"><ele>143.0</ele><time>2026-04-15T06:39:58.989Z</time></trkpt><trkpt lat="41.9865275" lon="12.4031969"><ele>143.0</ele><time>2026-04-15T06:39:59.99Z</time></trkpt><trkpt lat="41.9864716" lon="12.4033383"><ele>144.0</ele><time>2026-04-15T06:40:00.989Z</time></trkpt><trkpt lat="41.9864191" lon="12.4034809"><ele>145.0</ele><time>2026-04-15T06:40:01.99Z</time></trkpt><trkpt lat="41.9863692" lon="12.4036217"><ele>146.0</ele><time>2026-04-15T06:40:02.99Z</time></trkpt><trkpt lat="41.9863111" lon="12.4037596"><ele>147.0</ele><time>2026-04-15T06:40:03.989Z</time></trkpt><trkpt lat="41.9862559" lon="12.4038967"><ele>147.5</ele><time>2026-04-15T06:40:04.99Z</time></trkpt><trkpt lat="41.9862033" lon="12.404017"><ele>148.0</ele><time>2026-04-15T06:40:05.99Z</time></trkpt><trkpt lat="41.9861535" lon="12.4041135"><ele>148.5</ele><time>2026-04-15T06:40:06.991Z</time></trkpt><trkpt lat="41.9860997" lon="12.4041962"><ele>149.0</ele><time>2026-04-15T06:40:07.989Z</time></trkpt><trkpt lat="41.9860495" lon="12.4042589"><ele>149.5</ele><time>2026-04-15T06:40:08.989Z</time></trkpt><trkpt lat="41.9859949" lon="12.4043071"><ele>150.0</ele><time>2026-04-15T06:40:09.99Z</time></trkpt><trkpt lat="41.9859237" lon="12.4043643"><ele>150.0</ele><time>2026-04-15T06:40:11.99Z</time></trkpt><trkpt lat="41.9858729" lon="12.4044208"><ele>150.0</ele><time>2026-04-15T06:40:13.989Z</time></trkpt><trkpt lat="41.9858152" lon="12.4045212"><ele>150.0</ele><time>2026-04-15T06:40:15.989Z</time></trkpt><trkpt lat="41.9857761" lon="12.404605"><ele>150.0</ele><time>2026-04-15T06:40:16.989Z</time></trkpt><trkpt lat="41.9857338" lon="12.4047082"><ele>150.0</ele><time>2026-04-15T06:40:17.99Z</time></trkpt><trkpt lat="41.9856967" lon="12.404804"><ele>150.0</ele><time>2026-04-15T06:40:18.989Z</time></trkpt><trkpt lat="41.9856673" lon="12.4048879"><ele>150.0</ele><time>2026-04-15T06:40:19.99Z</time></trkpt><trkpt lat="41.9856341" lon="12.40504"><ele>150.0</ele><time>2026-04-15T06:40:21.99Z</time></trkpt><trkpt lat="41.9856421" lon="12.4051328"><ele>150.0</ele><time>2026-04-15T06:40:22.99Z</time></trkpt><trkpt lat="41.9856512" lon="12.4052317"><ele>150.0</ele><time>2026-04-15T06:40:23.989Z</time></trkpt><trkpt lat="41.9856529" lon="12.4053304"><ele>150.0</ele><time>2026-04-15T06:40:24.989Z</time></trkpt><trkpt lat="41.9856458" lon="12.4054298"><ele>150.0</ele><time>2026-04-15T06:40:25.989Z</time></trkpt><trkpt lat="41.9856261" lon="12.4055289"><ele>149.8</ele><time>2026-04-15T06:40:26.99Z</time></trkpt><trkpt lat="41.9855906" lon="12.4056308"><ele>149.6</ele><time>2026-04-15T06:40:27.99Z</time></trkpt><trkpt lat="41.9855494" lon="12.4057497"><ele>149.4</ele><time>2026-04-15T06:40:28.99Z</time></trkpt><trkpt lat="41.9854996" lon="12.4058772"><ele>149.2</ele><time>2026-04-15T06:40:29.99Z</time></trkpt><trkpt lat="41.985453" lon="12.4059999"><ele>149.0</ele><time>2026-04-15T06:40:30.99Z</time></trkpt><trkpt lat="41.9854" lon="12.4061189"><ele>149.0</ele><time>2026-04-15T06:40:31.989Z</time></trkpt><trkpt lat="41.98535" lon="12.4062337"><ele>149.0</ele><time>2026-04-15T06:40:32.99Z</time></trkpt><trkpt lat="41.9852972" lon="12.4063425"><ele>149.0</ele><time>2026-04-15T06:40:33.99Z</time></trkpt><trkpt lat="41.9852508" lon="12.4064448"><ele>149.0</ele><time>2026-04-15T06:40:34.99Z</time></trkpt><trkpt lat="41.9852014" lon="12.4065421"><ele>149.0</ele><time>2026-04-15T06:40:35.989Z</time></trkpt><trkpt lat="41.9851505" lon="12.4066349"><ele>149.0</ele><time>2026-04-15T06:40:36.991Z</time></trkpt><trkpt lat="41.9850983" lon="12.4067234"><ele>149.0</ele><time>2026-04-15T06:40:37.989Z</time></trkpt><trkpt lat="41.9850423" lon="12.406793"><ele>149.0</ele><time>2026-04-15T06:40:38.99Z</time></trkpt><trkpt lat="41.984985" lon="12.4068456"><ele>149.0</ele><time>2026-04-15T06:40:39.989Z</time></trkpt><trkpt lat="41.9849265" lon="12.4068891"><ele>149.0</ele><time>2026-04-15T06:40:40.989Z</time></trkpt><trkpt lat="41.9848615" lon="12.4069239"><ele>149.0</ele><time>2026-04-15T06:40:41.99Z</time></trkpt><trkpt lat="41.9847921" lon="12.4069588"><ele>149.0</ele><time>2026-04-15T06:40:42.989Z</time></trkpt><trkpt lat="41.9847076" lon="12.4069919"><ele>148.6</ele><time>2026-04-15T06:40:43.989Z</time></trkpt><trkpt lat="41.9846139" lon="12.407023"><ele>148.2</ele><time>2026-04-15T06:40:44.989Z</time></trkpt><trkpt lat="41.9845147" lon="12.407055"><ele>147.79999999999998</ele><time>2026-04-15T06:40:45.989Z</time></trkpt><trkpt lat="41.984414" lon="12.4070903"><ele>147.4</ele><time>2026-04-15T06:40:46.99Z</time></trkpt><trkpt lat="41.9843112" lon="12.4071186"><ele>147.0</ele><time>2026-04-15T06:40:47.99Z</time></trkpt><trkpt lat="41.9842002" lon="12.4071444"><ele>146.5</ele><time>2026-04-15T06:40:48.989Z</time></trkpt><trkpt lat="41.9840914" lon="12.4071773"><ele>146.0</ele><time>2026-04-15T06:40:49.989Z</time></trkpt><trkpt lat="41.9839789" lon="12.4072099"><ele>145.5</ele><time>2026-04-15T06:40:50.99Z</time></trkpt><trkpt lat="41.9838686" lon="12.4072468"><ele>145.0</ele><time>2026-04-15T06:40:51.99Z</time></trkpt><trkpt lat="41.9837474" lon="12.4072795"><ele>145.0</ele><time>2026-04-15T06:40:52.989Z</time></trkpt><trkpt lat="41.9836281" lon="12.4073199"><ele>145.0</ele><time>2026-04-15T06:40:53.989Z</time></trkpt><trkpt lat="41.9835081" lon="12.4073593"><ele>145.0</ele><time>2026-04-15T06:40:54.989Z</time></trkpt><trkpt lat="41.9833853" lon="12.4073967"><ele>145.0</ele><time>2026-04-15T06:40:55.99Z</time></trkpt><trkpt lat="41.9832684" lon="12.4074377"><ele>144.2</ele><time>2026-04-15T06:40:56.99Z</time></trkpt><trkpt lat="41.9831549" lon="12.407472"><ele>143.4</ele><time>2026-04-15T06:40:57.99Z</time></trkpt><trkpt lat="41.9830442" lon="12.4075047"><ele>142.6</ele><time>2026-04-15T06:40:58.991Z</time></trkpt><trkpt lat="41.9829388" lon="12.407541"><ele>141.8</ele><time>2026-04-15T06:40:59.989Z</time></trkpt><trkpt lat="41.9828306" lon="12.4075694"><ele>141.0</ele><time>2026-04-15T06:41:00.99Z</time></trkpt><trkpt lat="41.9827231" lon="12.4076048"><ele>141.0</ele><time>2026-04-15T06:41:01.991Z</time></trkpt><trkpt lat="41.9826304" lon="12.4076389"><ele>141.0</ele><time>2026-04-15T06:41:02.989Z</time></trkpt><trkpt lat="41.9825374" lon="12.40767"><ele>141.0</ele><time>2026-04-15T06:41:03.99Z</time></trkpt><trkpt lat="41.9824508" lon="12.4076923"><ele>141.0</ele><time>2026-04-15T06:41:04.989Z</time></trkpt><trkpt lat="41.9823734" lon="12.4077047"><ele>141.0</ele><time>2026-04-15T06:41:05.99Z</time></trkpt><trkpt lat="41.9822978" lon="12.4077056"><ele>141.0</ele><time>2026-04-15T06:41:06.99Z</time></trkpt><trkpt lat="41.9822204" lon="12.4077118"><ele>140.5</ele><time>2026-04-15T06:41:07.991Z</time></trkpt><trkpt lat="41.9821535" lon="12.4077099"><ele>140.0</ele><time>2026-04-15T06:41:08.989Z</time></trkpt><trkpt lat="41.9820581" lon="12.4076997"><ele>139.5</ele><time>2026-04-15T06:41:10.99Z</time></trkpt><trkpt lat="41.9819914" lon="12.4076724"><ele>139.0</ele><time>2026-04-15T06:41:12.989Z</time></trkpt><trkpt lat="41.9819358" lon="12.4076073"><ele>138.5</ele><time>2026-04-15T06:41:14.989Z</time></trkpt><trkpt lat="41.9818722" lon="12.4074588"><ele>138.0</ele><time>2026-04-15T06:41:16.989Z</time></trkpt><trkpt lat="41.9818244" lon="12.4073462"><ele>138.0</ele><time>2026-04-15T06:41:17.99Z</time></trkpt><trkpt lat="41.9817606" lon="12.4072411"><ele>138.0</ele><time>2026-04-15T06:41:18.99Z</time></trkpt><trkpt lat="41.9816974" lon="12.4071744"><ele>138.0</ele><time>2026-04-15T06:41:19.99Z</time></trkpt><trkpt lat="41.9816245" lon="12.4071368"><ele>138.0</ele><time>2026-04-15T06:41:20.99Z</time></trkpt><trkpt lat="41.9815454" lon="12.4071417"><ele>138.0</ele><time>2026-04-15T06:41:21.989Z</time></trkpt><trkpt lat="41.981458" lon="12.407182"><ele>138.0</ele><time>2026-04-15T06:41:22.99Z</time></trkpt><trkpt lat="41.9813681" lon="12.4072543"><ele>137.5</ele><time>2026-04-15T06:41:23.989Z</time></trkpt><trkpt lat="41.9812709" lon="12.40735"><ele>137.0</ele><time>2026-04-15T06:41:24.989Z</time></trkpt><trkpt lat="41.981152" lon="12.4074432"><ele>136.5</ele><time>2026-04-15T06:41:25.989Z</time></trkpt><trkpt lat="41.981024" lon="12.4075336"><ele>136.0</ele><time>2026-04-15T06:41:26.989Z</time></trkpt><trkpt lat="41.9808872" lon="12.4076033"><ele>137.0</ele><time>2026-04-15T06:41:27.99Z</time></trkpt><trkpt lat="41.9807443" lon="12.4076397"><ele>138.0</ele><time>2026-04-15T06:41:28.989Z</time></trkpt><trkpt lat="41.9805982" lon="12.4076547"><ele>139.0</ele><time>2026-04-15T06:41:29.99Z</time></trkpt><trkpt lat="41.980434" lon="12.4076594"><ele>139.0</ele><time>2026-04-15T06:41:30.99Z</time></trkpt><trkpt lat="41.9802545" lon="12.4076594"><ele>139.0</ele><time>2026-04-15T06:41:31.99Z</time></trkpt><trkpt lat="41.9800667" lon="12.4076569"><ele>139.0</ele><time>2026-04-15T06:41:32.99Z</time></trkpt><trkpt lat="41.9798644" lon="12.4076518"><ele>139.66666666666669</ele><time>2026-04-15T06:41:33.99Z</time></trkpt><trkpt lat="41.9796556" lon="12.407638"><ele>140.33333333333334</ele><time>2026-04-15T06:41:34.989Z</time></trkpt><trkpt lat="41.9794392" lon="12.4076248"><ele>141.0</ele><time>2026-04-15T06:41:35.989Z</time></trkpt><trkpt lat="41.9792128" lon="12.4076109"><ele>140.33333333333334</ele><time>2026-04-15T06:41:36.989Z</time></trkpt><trkpt lat="41.9789899" lon="12.4075996"><ele>139.66666666666669</ele><time>2026-04-15T06:41:37.99Z</time></trkpt><trkpt lat="41.9787725" lon="12.4075946"><ele>139.0</ele><time>2026-04-15T06:41:38.99Z</time></trkpt><trkpt lat="41.9785592" lon="12.4075924"><ele>138.33333333333334</ele><time>2026-04-15T06:41:39.989Z</time></trkpt><trkpt lat="41.9783441" lon="12.4075855"><ele>137.66666666666666</ele><time>2026-04-15T06:41:40.989Z</time></trkpt><trkpt lat="41.9781319" lon="12.4075646"><ele>137.0</ele><time>2026-04-15T06:41:41.989Z</time></trkpt><trkpt lat="41.9779245" lon="12.4075373"><ele>137.0</ele><time>2026-04-15T06:41:42.989Z</time></trkpt><trkpt lat="41.9777191" lon="12.4075014"><ele>137.0</ele><time>2026-04-15T06:41:43.989Z</time></trkpt><trkpt lat="41.9775114" lon="12.4074636"><ele>137.0</ele><time>2026-04-15T06:41:44.99Z</time></trkpt><trkpt lat="41.977302" lon="12.4074314"><ele>137.33333333333331</ele><time>2026-04-15T06:41:45.99Z</time></trkpt><trkpt lat="41.9770885" lon="12.4074074"><ele>137.66666666666666</ele><time>2026-04-15T06:41:46.99Z</time></trkpt><trkpt lat="41.9768703" lon="12.4073989"><ele>138.0</ele><time>2026-04-15T06:41:47.989Z</time></trkpt><trkpt lat="41.976643" lon="12.4074005"><ele>139.0</ele><time>2026-04-15T06:41:48.99Z</time></trkpt><trkpt lat="41.9764125" lon="12.4074067"><ele>140.0</ele><time>2026-04-15T06:41:49.989Z</time></trkpt><trkpt lat="41.9761829" lon="12.4074102"><ele>140.0</ele><time>2026-04-15T06:41:50.989Z</time></trkpt><trkpt lat="41.9759557" lon="12.4074166"><ele>140.0</ele><time>2026-04-15T06:41:51.989Z</time></trkpt><trkpt lat="41.9757306" lon="12.4074214"><ele>140.0</ele><time>2026-04-15T06:41:52.99Z</time></trkpt><trkpt lat="41.9755131" lon="12.4074179"><ele>140.0</ele><time>2026-04-15T06:41:53.989Z</time></trkpt><trkpt lat="41.9752966" lon="12.4074163"><ele>140.0</ele><time>2026-04-15T06:41:54.99Z</time></trkpt><trkpt lat="41.9750801" lon="12.4074116"><ele>141.0</ele><time>2026-04-15T06:41:55.99Z</time></trkpt><trkpt lat="41.9748655" lon="12.40741"><ele>142.0</ele><time>2026-04-15T06:41:56.991Z</time></trkpt><trkpt lat="41.9746631" lon="12.4074132"><ele>143.0</ele><time>2026-04-15T06:41:57.99Z</time></trkpt><trkpt lat="41.9744768" lon="12.4074068"><ele>143.0</ele><time>2026-04-15T06:41:58.99Z</time></trkpt><trkpt lat="41.9742962" lon="12.4074067"><ele>143.0</ele><time>2026-04-15T06:41:59.989Z</time></trkpt><trkpt lat="41.9741305" lon="12.4074001"><ele>143.0</ele><time>2026-04-15T06:42:00.989Z</time></trkpt><trkpt lat="41.973973" lon="12.4073957"><ele>143.5</ele><time>2026-04-15T06:42:01.99Z</time></trkpt><trkpt lat="41.9738319" lon="12.4073867"><ele>144.0</ele><time>2026-04-15T06:42:02.989Z</time></trkpt><trkpt lat="41.9736997" lon="12.4073755"><ele>144.5</ele><time>2026-04-15T06:42:03.989Z</time></trkpt><trkpt lat="41.9735668" lon="12.4073524"><ele>145.0</ele><time>2026-04-15T06:42:04.99Z</time></trkpt><trkpt lat="41.9734475" lon="12.4073166"><ele>144.5</ele><time>2026-04-15T06:42:05.99Z</time></trkpt><trkpt lat="41.973345" lon="12.4072696"><ele>144.0</ele><time>2026-04-15T06:42:06.989Z</time></trkpt><trkpt lat="41.9732557" lon="12.4072099"><ele>143.5</ele><time>2026-04-15T06:42:07.989Z</time></trkpt><trkpt lat="41.9731933" lon="12.4071608"><ele>143.0</ele><time>2026-04-15T06:42:08.99Z</time></trkpt><trkpt lat="41.9731386" lon="12.4071173"><ele>142.5</ele><time>2026-04-15T06:42:10.989Z</time></trkpt><trkpt lat="41.9730651" lon="12.4070608"><ele>142.0</ele><time>2026-04-15T06:42:12.991Z</time></trkpt><trkpt lat="41.9730097" lon="12.4070087"><ele>142.16666666666669</ele><time>2026-04-15T06:42:13.99Z</time></trkpt><trkpt lat="41.972944" lon="12.4069742"><ele>142.33333333333334</ele><time>2026-04-15T06:42:14.989Z</time></trkpt><trkpt lat="41.9728744" lon="12.4069665"><ele>142.5</ele><time>2026-04-15T06:42:15.989Z</time></trkpt><trkpt lat="41.9727991" lon="12.4069945"><ele>142.66666666666666</ele><time>2026-04-15T06:42:16.99Z</time></trkpt><trkpt lat="41.9727216" lon="12.4070559"><ele>142.83333333333331</ele><time>2026-04-15T06:42:17.989Z</time></trkpt><trkpt lat="41.9726337" lon="12.4071284"><ele>143.0</ele><time>2026-04-15T06:42:18.989Z</time></trkpt><trkpt lat="41.9725195" lon="12.4071818"><ele>143.0</ele><time>2026-04-15T06:42:19.99Z</time></trkpt><trkpt lat="41.972388" lon="12.407227"><ele>143.0</ele><time>2026-04-15T06:42:20.99Z</time></trkpt><trkpt lat="41.9722377" lon="12.4072671"><ele>143.0</ele><time>2026-04-15T06:42:21.989Z</time></trkpt><trkpt lat="41.9720714" lon="12.4073179"><ele>143.0</ele><time>2026-04-15T06:42:22.989Z</time></trkpt><trkpt lat="41.971893" lon="12.4073784"><ele>143.0</ele><time>2026-04-15T06:42:23.989Z</time></trkpt><trkpt lat="41.9716882" lon="12.407452"><ele>143.0</ele><time>2026-04-15T06:42:24.99Z</time></trkpt><trkpt lat="41.9714628" lon="12.4075318"><ele>138.5</ele><time>2026-04-15T06:42:25.99Z</time></trkpt><trkpt lat="41.9712313" lon="12.4076155"><ele>134.0</ele><time>2026-04-15T06:42:26.989Z</time></trkpt><trkpt lat="41.9710128" lon="12.4076996"><ele>132.0</ele><time>2026-04-15T06:42:27.99Z</time></trkpt><trkpt lat="41.9708072" lon="12.4077701"><ele>130.0</ele><time>2026-04-15T06:42:28.99Z</time></trkpt><trkpt lat="41.9706118" lon="12.4078302"><ele>128.0</ele><time>2026-04-15T06:42:29.989Z</time></trkpt><trkpt lat="41.9704345" lon="12.407867"><ele>128.0</ele><time>2026-04-15T06:42:30.99Z</time></trkpt><trkpt lat="41.970273" lon="12.4078915"><ele>128.0</ele><time>2026-04-15T06:42:31.989Z</time></trkpt><trkpt lat="41.9701351" lon="12.4079048"><ele>128.0</ele><time>2026-04-15T06:42:32.989Z</time></trkpt><trkpt lat="41.9700059" lon="12.4078938"><ele>128.0</ele><time>2026-04-15T06:42:33.989Z</time></trkpt><trkpt lat="41.9698918" lon="12.4078504"><ele>129.25</ele><time>2026-04-15T06:42:34.99Z</time></trkpt><trkpt lat="41.9697812" lon="12.40778"><ele>130.5</ele><time>2026-04-15T06:42:35.989Z</time></trkpt><trkpt lat="41.9696778" lon="12.4076773"><ele>131.75</ele><time>2026-04-15T06:42:36.99Z</time></trkpt><trkpt lat="41.969587" lon="12.4075511"><ele>133.0</ele><time>2026-04-15T06:42:37.989Z</time></trkpt><trkpt lat="41.9694999" lon="12.4074087"><ele>133.0</ele><time>2026-04-15T06:42:38.99Z</time></trkpt><trkpt lat="41.9694087" lon="12.4072788"><ele>133.0</ele><time>2026-04-15T06:42:39.99Z</time></trkpt><trkpt lat="41.9692902" lon="12.4071899"><ele>133.0</ele><time>2026-04-15T06:42:40.989Z</time></trkpt><trkpt lat="41.9691695" lon="12.4071257"><ele>133.0</ele><time>2026-04-15T06:42:41.989Z</time></trkpt><trkpt lat="41.9690321" lon="12.4071001"><ele>133.0</ele><time>2026-04-15T06:42:42.99Z</time></trkpt><trkpt lat="41.9688908" lon="12.4071202"><ele>133.0</ele><time>2026-04-15T06:42:43.99Z</time></trkpt><trkpt lat="41.9687415" lon="12.4071739"><ele>133.0</ele><time>2026-04-15T06:42:44.99Z</time></trkpt><trkpt lat="41.9685883" lon="12.4072503"><ele>133.0</ele><time>2026-04-15T06:42:45.989Z</time></trkpt><trkpt lat="41.968412" lon="12.407323"><ele>133.0</ele><time>2026-04-15T06:42:46.989Z</time></trkpt><trkpt lat="41.9682237" lon="12.4074015"><ele>133.0</ele><time>2026-04-15T06:42:47.99Z</time></trkpt><trkpt lat="41.9680287" lon="12.4074866"><ele>133.0</ele><time>2026-04-15T06:42:48.99Z</time></trkpt><trkpt lat="41.9678291" lon="12.4075787"><ele>133.0</ele><time>2026-04-15T06:42:49.989Z</time></trkpt><trkpt lat="41.9676455" lon="12.4076578"><ele>133.0</ele><time>2026-04-15T06:42:50.99Z</time></trkpt><trkpt lat="41.9674726" lon="12.4077355"><ele>130.66666666666669</ele><time>2026-04-15T06:42:51.989Z</time></trkpt><trkpt lat="41.9673035" lon="12.4078041"><ele>128.33333333333334</ele><time>2026-04-15T06:42:52.989Z</time></trkpt><trkpt lat="41.9671337" lon="12.4078479"><ele>126.0</ele><time>2026-04-15T06:42:53.989Z</time></trkpt><trkpt lat="41.9669687" lon="12.4078626"><ele>126.0</ele><time>2026-04-15T06:42:54.99Z</time></trkpt><trkpt lat="41.9668057" lon="12.4078491"><ele>126.0</ele><time>2026-04-15T06:42:55.989Z</time></trkpt><trkpt lat="41.9666535" lon="12.4078093"><ele>126.0</ele><time>2026-04-15T06:42:56.99Z</time></trkpt><trkpt lat="41.966496" lon="12.4077756"><ele>126.75</ele><time>2026-04-15T06:42:57.989Z</time></trkpt><trkpt lat="41.9663664" lon="12.4077224"><ele>127.5</ele><time>2026-04-15T06:42:58.988Z</time></trkpt><trkpt lat="41.9662412" lon="12.4076777"><ele>128.25</ele><time>2026-04-15T06:42:59.989Z</time></trkpt><trkpt lat="41.9661301" lon="12.4076383"><ele>129.0</ele><time>2026-04-15T06:43:00.99Z</time></trkpt><trkpt lat="41.9660364" lon="12.4076272"><ele>129.0</ele><time>2026-04-15T06:43:01.989Z</time></trkpt><trkpt lat="41.9659496" lon="12.4076428"><ele>129.0</ele><time>2026-04-15T06:43:02.989Z</time></trkpt><trkpt lat="41.965876" lon="12.4076784"><ele>129.0</ele><time>2026-04-15T06:43:03.99Z</time></trkpt><trkpt lat="41.9658157" lon="12.4077356"><ele>129.0</ele><time>2026-04-15T06:43:04.989Z</time></trkpt><trkpt lat="41.9657643" lon="12.4078124"><ele>129.0</ele><time>2026-04-15T06:43:05.989Z</time></trkpt><trkpt lat="41.9657154" lon="12.4079083"><ele>129.0</ele><time>2026-04-15T06:43:06.99Z</time></trkpt><trkpt lat="41.9656649" lon="12.4080149"><ele>129.66666666666666</ele><time>2026-04-15T06:43:07.991Z</time></trkpt><trkpt lat="41.9656216" lon="12.4081223"><ele>130.33333333333334</ele><time>2026-04-15T06:43:08.99Z</time></trkpt><trkpt lat="41.9655802" lon="12.4082301"><ele>131.0</ele><time>2026-04-15T06:43:09.99Z</time></trkpt><trkpt lat="41.9655425" lon="12.4083368"><ele>131.66666666666669</ele><time>2026-04-15T06:43:10.989Z</time></trkpt><trkpt lat="41.9655023" lon="12.408433"><ele>132.33333333333334</ele><time>2026-04-15T06:43:11.989Z</time></trkpt><trkpt lat="41.965469" lon="12.408526"><ele>133.0</ele><time>2026-04-15T06:43:12.989Z</time></trkpt><trkpt lat="41.9654353" lon="12.4086119"><ele>133.0</ele><time>2026-04-15T06:43:13.991Z</time></trkpt><trkpt lat="41.9654039" lon="12.4086909"><ele>133.0</ele><time>2026-04-15T06:43:14.989Z</time></trkpt><trkpt lat="41.9653706" lon="12.4087646"><ele>133.0</ele><time>2026-04-15T06:43:15.989Z</time></trkpt><trkpt lat="41.9653347" lon="12.4088455"><ele>133.0</ele><time>2026-04-15T06:43:16.989Z</time></trkpt><trkpt lat="41.9652923" lon="12.4089746"><ele>133.0</ele><time>2026-04-15T06:43:18.99Z</time></trkpt><trkpt lat="41.9652373" lon="12.4090375"><ele>133.0</ele><time>2026-04-15T06:43:20.99Z</time></trkpt><trkpt lat="41.9651356" lon="12.4090564"><ele>133.8</ele><time>2026-04-15T06:43:22.989Z</time></trkpt><trkpt lat="41.9650252" lon="12.4090612"><ele>134.60000000000002</ele><time>2026-04-15T06:43:24.989Z</time></trkpt><trkpt lat="41.964957" lon="12.4090579"><ele>135.39999999999998</ele><time>2026-04-15T06:43:25.99Z</time></trkpt><trkpt lat="41.9648919" lon="12.4090456"><ele>136.2</ele><time>2026-04-15T06:43:26.99Z</time></trkpt><trkpt lat="41.964768" lon="12.4090346"><ele>137.0</ele><time>2026-04-15T06:43:28.991Z</time></trkpt><trkpt lat="41.9646524" lon="12.4090304"><ele>137.0</ele><time>2026-04-15T06:43:30.989Z</time></trkpt><trkpt lat="41.9645877" lon="12.4090198"><ele>137.0</ele><time>2026-04-15T06:43:31.99Z</time></trkpt><trkpt lat="41.9644704" lon="12.4090072"><ele>137.0</ele><time>2026-04-15T06:43:33.989Z</time></trkpt><trkpt lat="41.9643458" lon="12.4089775"><ele>137.0</ele><time>2026-04-15T06:43:35.99Z</time></trkpt><trkpt lat="41.9642798" lon="12.4089555"><ele>137.0</ele><time>2026-04-15T06:43:36.99Z</time></trkpt><trkpt lat="41.9642113" lon="12.4089332"><ele>137.0</ele><time>2026-04-15T06:43:37.989Z</time></trkpt><trkpt lat="41.9641413" lon="12.4089145"><ele>136.85714285714286</ele><time>2026-04-15T06:43:38.99Z</time></trkpt><trkpt lat="41.964062" lon="12.4088907"><ele>136.71428571428572</ele><time>2026-04-15T06:43:39.989Z</time></trkpt><trkpt lat="41.9639864" lon="12.4088649"><ele>136.57142857142856</ele><time>2026-04-15T06:43:40.989Z</time></trkpt><trkpt lat="41.9639119" lon="12.4088411"><ele>136.42857142857144</ele><time>2026-04-15T06:43:41.99Z</time></trkpt><trkpt lat="41.9638425" lon="12.4088219"><ele>136.28571428571428</ele><time>2026-04-15T06:43:42.989Z</time></trkpt><trkpt lat="41.9637718" lon="12.408808"><ele>136.14285714285714</ele><time>2026-04-15T06:43:43.989Z</time></trkpt><trkpt lat="41.9637029" lon="12.4087959"><ele>136.0</ele><time>2026-04-15T06:43:44.99Z</time></trkpt><trkpt lat="41.9636359" lon="12.4087784"><ele>136.33333333333334</ele><time>2026-04-15T06:43:45.989Z</time></trkpt><trkpt lat="41.9635681" lon="12.4087593"><ele>136.66666666666669</ele><time>2026-04-15T06:43:46.989Z</time></trkpt><trkpt lat="41.963501" lon="12.4087468"><ele>137.0</ele><time>2026-04-15T06:43:47.989Z</time></trkpt><trkpt lat="41.9634211" lon="12.4087405"><ele>137.33333333333334</ele><time>2026-04-15T06:43:48.989Z</time></trkpt><trkpt lat="41.9633276" lon="12.4087271"><ele>137.66666666666666</ele><time>2026-04-15T06:43:49.989Z</time></trkpt><trkpt lat="41.9632284" lon="12.4087132"><ele>138.0</ele><time>2026-04-15T06:43:50.989Z</time></trkpt><trkpt lat="41.9631235" lon="12.4087017"><ele>138.4</ele><time>2026-04-15T06:43:51.989Z</time></trkpt><trkpt lat="41.9630279" lon="12.4086873"><ele>138.8</ele><time>2026-04-15T06:43:52.989Z</time></trkpt><trkpt lat="41.962933" lon="12.4086762"><ele>139.2</ele><time>2026-04-15T06:43:53.99Z</time></trkpt><trkpt lat="41.962835" lon="12.4086656"><ele>139.6</ele><time>2026-04-15T06:43:54.99Z</time></trkpt><trkpt lat="41.9627393" lon="12.4086602"><ele>140.0</ele><time>2026-04-15T06:43:55.989Z</time></trkpt><trkpt lat="41.9626606" lon="12.4086523"><ele>140.0</ele><time>2026-04-15T06:43:56.99Z</time></trkpt><trkpt lat="41.9625811" lon="12.4086485"><ele>140.0</ele><time>2026-04-15T06:43:57.99Z</time></trkpt><trkpt lat="41.9624658" lon="12.4086611"><ele>140.0</ele><time>2026-04-15T06:43:59.989Z</time></trkpt><trkpt lat="41.9623885" lon="12.4086809"><ele>140.0</ele><time>2026-04-15T06:44:00.989Z</time></trkpt><trkpt lat="41.962322" lon="12.4087144"><ele>140.0</ele><time>2026-04-15T06:44:01.989Z</time></trkpt><trkpt lat="41.9622548" lon="12.4087592"><ele>140.0</ele><time>2026-04-15T06:44:02.989Z</time></trkpt><trkpt lat="41.9621928" lon="12.4088089"><ele>139.0</ele><time>2026-04-15T06:44:03.99Z</time></trkpt><trkpt lat="41.9621268" lon="12.4088634"><ele>138.0</ele><time>2026-04-15T06:44:04.99Z</time></trkpt><trkpt lat="41.9620635" lon="12.4089205"><ele>137.0</ele><time>2026-04-15T06:44:05.989Z</time></trkpt><trkpt lat="41.962002" lon="12.4089802"><ele>136.0</ele><time>2026-04-15T06:44:06.989Z</time></trkpt><trkpt lat="41.961932" lon="12.4090376"><ele>135.0</ele><time>2026-04-15T06:44:07.99Z</time></trkpt><trkpt lat="41.9618629" lon="12.4091022"><ele>134.0</ele><time>2026-04-15T06:44:08.99Z</time></trkpt><trkpt lat="41.9617903" lon="12.4091665"><ele>134.0</ele><time>2026-04-15T06:44:09.989Z</time></trkpt><trkpt lat="41.9617195" lon="12.4092326"><ele>134.0</ele><time>2026-04-15T06:44:10.989Z</time></trkpt><trkpt lat="41.9616486" lon="12.4092987"><ele>134.0</ele><time>2026-04-15T06:44:11.99Z</time></trkpt><trkpt lat="41.961577" lon="12.4093632"><ele>134.0</ele><time>2026-04-15T06:44:12.989Z</time></trkpt><trkpt lat="41.9615139" lon="12.4094212"><ele>134.0</ele><time>2026-04-15T06:44:13.989Z</time></trkpt><trkpt lat="41.9614558" lon="12.4094753"><ele>134.0</ele><time>2026-04-15T06:44:14.989Z</time></trkpt><trkpt lat="41.9613616" lon="12.409562"><ele>134.8</ele><time>2026-04-15T06:44:16.99Z</time></trkpt><trkpt lat="41.9612782" lon="12.4096382"><ele>135.60000000000002</ele><time>2026-04-15T06:44:18.99Z</time></trkpt><trkpt lat="41.9612035" lon="12.409712"><ele>136.4</ele><time>2026-04-15T06:44:20.99Z</time></trkpt><trkpt lat="41.9611355" lon="12.4097865"><ele>137.20000000000002</ele><time>2026-04-15T06:44:22.989Z</time></trkpt><trkpt lat="41.9610686" lon="12.4098639"><ele>138.0</ele><time>2026-04-15T06:44:24.99Z</time></trkpt><trkpt lat="41.9609956" lon="12.4099563"><ele>138.0</ele><time>2026-04-15T06:44:26.989Z</time></trkpt><trkpt lat="41.9609048" lon="12.4100799"><ele>138.0</ele><time>2026-04-15T06:44:28.99Z</time></trkpt><trkpt lat="41.9608558" lon="12.4101449"><ele>138.0</ele><time>2026-04-15T06:44:29.989Z</time></trkpt><trkpt lat="41.9608004" lon="12.4102167"><ele>138.0</ele><time>2026-04-15T06:44:30.989Z</time></trkpt><trkpt lat="41.9607407" lon="12.4102878"><ele>138.0</ele><time>2026-04-15T06:44:31.989Z</time></trkpt><trkpt lat="41.9606817" lon="12.410359"><ele>138.0</ele><time>2026-04-15T06:44:32.989Z</time></trkpt><trkpt lat="41.9606306" lon="12.4104286"><ele>138.16666666666666</ele><time>2026-04-15T06:44:33.99Z</time></trkpt><trkpt lat="41.9605864" lon="12.4104955"><ele>138.33333333333334</ele><time>2026-04-15T06:44:34.989Z</time></trkpt><trkpt lat="41.960507" lon="12.4106027"><ele>138.5</ele><time>2026-04-15T06:44:36.989Z</time></trkpt><trkpt lat="41.9604478" lon="12.4106607"><ele>138.66666666666669</ele><time>2026-04-15T06:44:39.989Z</time></trkpt><trkpt lat="41.9603753" lon="12.4107409"><ele>138.83333333333334</ele><time>2026-04-15T06:44:48.989Z</time></trkpt><trkpt lat="41.9603207" lon="12.4108217"><ele>139.0</ele><time>2026-04-15T06:44:49.989Z</time></trkpt><trkpt lat="41.9602496" lon="12.4109206"><ele>139.0</ele><time>2026-04-15T06:44:50.99Z</time></trkpt><trkpt lat="41.9601727" lon="12.4110155"><ele>139.0</ele><time>2026-04-15T06:44:51.99Z</time></trkpt><trkpt lat="41.9600948" lon="12.4111223"><ele>139.0</ele><time>2026-04-15T06:44:52.989Z</time></trkpt><trkpt lat="41.9600197" lon="12.4112374"><ele>139.0</ele><time>2026-04-15T06:44:53.99Z</time></trkpt><trkpt lat="41.9599382" lon="12.4113693"><ele>140.0</ele><time>2026-04-15T06:44:54.99Z</time></trkpt><trkpt lat="41.9598584" lon="12.4114993"><ele>141.0</ele><time>2026-04-15T06:44:55.989Z</time></trkpt><trkpt lat="41.9597725" lon="12.4116197"><ele>142.0</ele><time>2026-04-15T06:44:56.99Z</time></trkpt><trkpt lat="41.9597031" lon="12.4117178"><ele>143.0</ele><time>2026-04-15T06:44:57.989Z</time></trkpt><trkpt lat="41.9596237" lon="12.4118152"><ele>143.0</ele><time>2026-04-15T06:44:58.99Z</time></trkpt><trkpt lat="41.9595408" lon="12.4118963"><ele>143.0</ele><time>2026-04-15T06:44:59.989Z</time></trkpt><trkpt lat="41.9594496" lon="12.4119652"><ele>143.0</ele><time>2026-04-15T06:45:00.99Z</time></trkpt><trkpt lat="41.9593594" lon="12.4120297"><ele>143.0</ele><time>2026-04-15T06:45:01.989Z</time></trkpt><trkpt lat="41.9592548" lon="12.4120877"><ele>143.0</ele><time>2026-04-15T06:45:02.989Z</time></trkpt><trkpt lat="41.9591487" lon="12.4121389"><ele>142.0</ele><time>2026-04-15T06:45:03.989Z</time></trkpt><trkpt lat="41.9590312" lon="12.4121873"><ele>141.0</ele><time>2026-04-15T06:45:04.989Z</time></trkpt><trkpt lat="41.9589187" lon="12.4122376"><ele>140.0</ele><time>2026-04-15T06:45:05.989Z</time></trkpt><trkpt lat="41.9588051" lon="12.412273"><ele>139.0</ele><time>2026-04-15T06:45:06.99Z</time></trkpt><trkpt lat="41.9586864" lon="12.4123037"><ele>139.0</ele><time>2026-04-15T06:45:07.99Z</time></trkpt><trkpt lat="41.9585698" lon="12.4123209"><ele>139.0</ele><time>2026-04-15T06:45:08.99Z</time></trkpt><trkpt lat="41.9584578" lon="12.4123301"><ele>139.0</ele><time>2026-04-15T06:45:09.989Z</time></trkpt><trkpt lat="41.9583479" lon="12.4123375"><ele>139.0</ele><time>2026-04-15T06:45:10.99Z</time></trkpt><trkpt lat="41.9582396" lon="12.4123398"><ele>139.0</ele><time>2026-04-15T06:45:11.989Z</time></trkpt><trkpt lat="41.9581318" lon="12.4123499"><ele>138.6</ele><time>2026-04-15T06:45:12.989Z</time></trkpt><trkpt lat="41.9580334" lon="12.4123594"><ele>138.2</ele><time>2026-04-15T06:45:13.99Z</time></trkpt><trkpt lat="41.9579297" lon="12.4123667"><ele>137.79999999999998</ele><time>2026-04-15T06:45:14.989Z</time></trkpt><trkpt lat="41.9578162" lon="12.412372"><ele>137.4</ele><time>2026-04-15T06:45:15.99Z</time></trkpt><trkpt lat="41.9577003" lon="12.4123767"><ele>137.0</ele><time>2026-04-15T06:45:16.99Z</time></trkpt><trkpt lat="41.9575784" lon="12.4123829"><ele>136.5</ele><time>2026-04-15T06:45:17.989Z</time></trkpt><trkpt lat="41.9574519" lon="12.4123902"><ele>136.0</ele><time>2026-04-15T06:45:18.989Z</time></trkpt><trkpt lat="41.9573293" lon="12.412397"><ele>135.5</ele><time>2026-04-15T06:45:19.99Z</time></trkpt><trkpt lat="41.9572014" lon="12.4124028"><ele>135.0</ele><time>2026-04-15T06:45:20.989Z</time></trkpt><trkpt lat="41.957076" lon="12.4124154"><ele>135.0</ele><time>2026-04-15T06:45:21.99Z</time></trkpt><trkpt lat="41.9569519" lon="12.4124236"><ele>135.0</ele><time>2026-04-15T06:45:22.99Z</time></trkpt><trkpt lat="41.956811" lon="12.4124384"><ele>135.0</ele><time>2026-04-15T06:45:23.99Z</time></trkpt><trkpt lat="41.9566648" lon="12.412441"><ele>135.0</ele><time>2026-04-15T06:45:24.99Z</time></trkpt><trkpt lat="41.9564997" lon="12.4124405"><ele>135.0</ele><time>2026-04-15T06:45:25.99Z</time></trkpt><trkpt lat="41.9563306" lon="12.4124362"><ele>135.0</ele><time>2026-04-15T06:45:26.989Z</time></trkpt><trkpt lat="41.9561673" lon="12.4124285"><ele>135.0</ele><time>2026-04-15T06:45:27.99Z</time></trkpt><trkpt lat="41.9560162" lon="12.4124174"><ele>135.0</ele><time>2026-04-15T06:45:28.99Z</time></trkpt><trkpt lat="41.9558717" lon="12.4123923"><ele>135.0</ele><time>2026-04-15T06:45:29.99Z</time></trkpt><trkpt lat="41.955739" lon="12.4123744"><ele>135.0</ele><time>2026-04-15T06:45:30.989Z</time></trkpt><trkpt lat="41.9556055" lon="12.4123464"><ele>135.0</ele><time>2026-04-15T06:45:31.989Z</time></trkpt><trkpt lat="41.9554805" lon="12.4123148"><ele>134.25</ele><time>2026-04-15T06:45:32.989Z</time></trkpt><trkpt lat="41.9553668" lon="12.4122982"><ele>133.5</ele><time>2026-04-15T06:45:33.989Z</time></trkpt><trkpt lat="41.9552546" lon="12.4122724"><ele>132.75</ele><time>2026-04-15T06:45:34.99Z</time></trkpt><trkpt lat="41.9551358" lon="12.4122463"><ele>132.0</ele><time>2026-04-15T06:45:35.989Z</time></trkpt><trkpt lat="41.9550201" lon="12.4122225"><ele>131.5</ele><time>2026-04-15T06:45:36.99Z</time></trkpt><trkpt lat="41.9548957" lon="12.4121926"><ele>131.0</ele><time>2026-04-15T06:45:37.989Z</time></trkpt><trkpt lat="41.9547698" lon="12.412168"><ele>130.5</ele><time>2026-04-15T06:45:38.989Z</time></trkpt><trkpt lat="41.9546461" lon="12.4121376"><ele>130.0</ele><time>2026-04-15T06:45:39.989Z</time></trkpt><trkpt lat="41.954524" lon="12.4121101"><ele>130.0</ele><time>2026-04-15T06:45:40.989Z</time></trkpt><trkpt lat="41.9543941" lon="12.4120784"><ele>130.0</ele><time>2026-04-15T06:45:41.989Z</time></trkpt><trkpt lat="41.9542625" lon="12.4120548"><ele>130.0</ele><time>2026-04-15T06:45:42.989Z</time></trkpt><trkpt lat="41.9541249" lon="12.4120396"><ele>130.0</ele><time>2026-04-15T06:45:43.989Z</time></trkpt><trkpt lat="41.9539888" lon="12.4120288"><ele>129.5</ele><time>2026-04-15T06:45:44.989Z</time></trkpt><trkpt lat="41.9538488" lon="12.412029"><ele>129.0</ele><time>2026-04-15T06:45:45.99Z</time></trkpt><trkpt lat="41.9537043" lon="12.4120367"><ele>128.5</ele><time>2026-04-15T06:45:46.989Z</time></trkpt><trkpt lat="41.9535576" lon="12.4120432"><ele>128.0</ele><time>2026-04-15T06:45:47.989Z</time></trkpt><trkpt lat="41.9534175" lon="12.4120548"><ele>128.25</ele><time>2026-04-15T06:45:48.989Z</time></trkpt><trkpt lat="41.9532857" lon="12.4120682"><ele>128.5</ele><time>2026-04-15T06:45:49.99Z</time></trkpt><trkpt lat="41.9531495" lon="12.4120811"><ele>128.75</ele><time>2026-04-15T06:45:50.989Z</time></trkpt><trkpt lat="41.9530095" lon="12.4121006"><ele>129.0</ele><time>2026-04-15T06:45:51.99Z</time></trkpt><trkpt lat="41.9528626" lon="12.4121199"><ele>129.0</ele><time>2026-04-15T06:45:52.989Z</time></trkpt><trkpt lat="41.9527139" lon="12.4121487"><ele>129.0</ele><time>2026-04-15T06:45:53.99Z</time></trkpt><trkpt lat="41.9525672" lon="12.4121727"><ele>129.0</ele><time>2026-04-15T06:45:54.989Z</time></trkpt><trkpt lat="41.9524261" lon="12.4122036"><ele>129.0</ele><time>2026-04-15T06:45:55.989Z</time></trkpt><trkpt lat="41.9523033" lon="12.412241"><ele>129.25</ele><time>2026-04-15T06:45:56.988Z</time></trkpt><trkpt lat="41.952184" lon="12.4122752"><ele>129.5</ele><time>2026-04-15T06:45:57.99Z</time></trkpt><trkpt lat="41.9520653" lon="12.4123094"><ele>129.75</ele><time>2026-04-15T06:45:58.99Z</time></trkpt><trkpt lat="41.9519416" lon="12.4123408"><ele>130.0</ele><time>2026-04-15T06:45:59.99Z</time></trkpt><trkpt lat="41.9518237" lon="12.4123672"><ele>129.75</ele><time>2026-04-15T06:46:00.989Z</time></trkpt><trkpt lat="41.9516904" lon="12.4123822"><ele>129.5</ele><time>2026-04-15T06:46:01.989Z</time></trkpt><trkpt lat="41.9515492" lon="12.4123826"><ele>129.25</ele><time>2026-04-15T06:46:02.989Z</time></trkpt><trkpt lat="41.9514034" lon="12.4123732"><ele>129.0</ele><time>2026-04-15T06:46:03.989Z</time></trkpt><trkpt lat="41.9512619" lon="12.4123635"><ele>129.0</ele><time>2026-04-15T06:46:04.989Z</time></trkpt><trkpt lat="41.9511318" lon="12.412359"><ele>129.0</ele><time>2026-04-15T06:46:05.989Z</time></trkpt><trkpt lat="41.9510111" lon="12.4123663"><ele>129.0</ele><time>2026-04-15T06:46:06.99Z</time></trkpt><trkpt lat="41.9508897" lon="12.4123773"><ele>129.0</ele><time>2026-04-15T06:46:07.99Z</time></trkpt><trkpt lat="41.9507743" lon="12.4123907"><ele>129.0</ele><time>2026-04-15T06:46:08.989Z</time></trkpt><trkpt lat="41.9506653" lon="12.4124219"><ele>129.0</ele><time>2026-04-15T06:46:09.989Z</time></trkpt><trkpt lat="41.9505522" lon="12.4124751"><ele>129.0</ele><time>2026-04-15T06:46:10.99Z</time></trkpt><trkpt lat="41.9504464" lon="12.4125529"><ele>129.0</ele><time>2026-04-15T06:46:11.989Z</time></trkpt><trkpt lat="41.9503622" lon="12.4126466"><ele>129.0</ele><time>2026-04-15T06:46:12.989Z</time></trkpt><trkpt lat="41.9502783" lon="12.4127416"><ele>129.0</ele><time>2026-04-15T06:46:13.989Z</time></trkpt><trkpt lat="41.9501931" lon="12.4128481"><ele>129.0</ele><time>2026-04-15T06:46:14.99Z</time></trkpt><trkpt lat="41.9501113" lon="12.4129482"><ele>129.0</ele><time>2026-04-15T06:46:15.99Z</time></trkpt><trkpt lat="41.9500334" lon="12.4130558"><ele>129.0</ele><time>2026-04-15T06:46:16.989Z</time></trkpt><trkpt lat="41.9499483" lon="12.4131628"><ele>128.5</ele><time>2026-04-15T06:46:17.99Z</time></trkpt><trkpt lat="41.9498589" lon="12.4132651"><ele>128.0</ele><time>2026-04-15T06:46:18.989Z</time></trkpt><trkpt lat="41.9497642" lon="12.4133727"><ele>127.5</ele><time>2026-04-15T06:46:19.989Z</time></trkpt><trkpt lat="41.9496639" lon="12.4134742"><ele>127.0</ele><time>2026-04-15T06:46:20.99Z</time></trkpt><trkpt lat="41.9495649" lon="12.4135751"><ele>127.0</ele><time>2026-04-15T06:46:21.989Z</time></trkpt><trkpt lat="41.9494621" lon="12.41368"><ele>127.0</ele><time>2026-04-15T06:46:22.989Z</time></trkpt><trkpt lat="41.9493589" lon="12.4137875"><ele>127.0</ele><time>2026-04-15T06:46:23.989Z</time></trkpt><trkpt lat="41.9492547" lon="12.4138892"><ele>127.0</ele><time>2026-04-15T06:46:24.99Z</time></trkpt><trkpt lat="41.9491484" lon="12.4139837"><ele>126.5</ele><time>2026-04-15T06:46:25.989Z</time></trkpt><trkpt lat="41.9490437" lon="12.4140795"><ele>126.0</ele><time>2026-04-15T06:46:26.99Z</time></trkpt><trkpt lat="41.9489352" lon="12.4141711"><ele>125.5</ele><time>2026-04-15T06:46:27.99Z</time></trkpt><trkpt lat="41.9488238" lon="12.4142577"><ele>125.0</ele><time>2026-04-15T06:46:28.989Z</time></trkpt><trkpt lat="41.9487115" lon="12.4143468"><ele>125.0</ele><time>2026-04-15T06:46:29.989Z</time></trkpt><trkpt lat="41.9485959" lon="12.4144428"><ele>125.0</ele><time>2026-04-15T06:46:30.989Z</time></trkpt><trkpt lat="41.9484833" lon="12.4145326"><ele>125.0</ele><time>2026-04-15T06:46:31.99Z</time></trkpt><trkpt lat="41.948378" lon="12.4146242"><ele>125.0</ele><time>2026-04-15T06:46:32.989Z</time></trkpt><trkpt lat="41.9482818" lon="12.4147089"><ele>125.4</ele><time>2026-04-15T06:46:33.989Z</time></trkpt><trkpt lat="41.9481988" lon="12.4147968"><ele>125.8</ele><time>2026-04-15T06:46:34.99Z</time></trkpt><trkpt lat="41.9481169" lon="12.4148842"><ele>126.19999999999999</ele><time>2026-04-15T06:46:35.99Z</time></trkpt><trkpt lat="41.9480415" lon="12.4149698"><ele>126.6</ele><time>2026-04-15T06:46:36.99Z</time></trkpt><trkpt lat="41.9479657" lon="12.415066"><ele>127.0</ele><time>2026-04-15T06:46:37.989Z</time></trkpt><trkpt lat="41.9478848" lon="12.4151772"><ele>127.0</ele><time>2026-04-15T06:46:38.989Z</time></trkpt><trkpt lat="41.9478041" lon="12.4152892"><ele>127.0</ele><time>2026-04-15T06:46:39.989Z</time></trkpt><trkpt lat="41.9477146" lon="12.4154082"><ele>127.0</ele><time>2026-04-15T06:46:40.989Z</time></trkpt><trkpt lat="41.947621" lon="12.4155243"><ele>127.0</ele><time>2026-04-15T06:46:41.989Z</time></trkpt><trkpt lat="41.9475278" lon="12.4156474"><ele>126.25</ele><time>2026-04-15T06:46:42.989Z</time></trkpt><trkpt lat="41.9474302" lon="12.4157665"><ele>125.5</ele><time>2026-04-15T06:46:43.989Z</time></trkpt><trkpt lat="41.9473364" lon="12.4158845"><ele>124.75</ele><time>2026-04-15T06:46:44.989Z</time></trkpt><trkpt lat="41.9472425" lon="12.4159969"><ele>124.0</ele><time>2026-04-15T06:46:45.99Z</time></trkpt><trkpt lat="41.9471514" lon="12.4161031"><ele>124.0</ele><time>2026-04-15T06:46:46.989Z</time></trkpt><trkpt lat="41.9470644" lon="12.4162127"><ele>124.0</ele><time>2026-04-15T06:46:47.989Z</time></trkpt><trkpt lat="41.9469746" lon="12.4163193"><ele>124.0</ele><time>2026-04-15T06:46:48.989Z</time></trkpt><trkpt lat="41.9468809" lon="12.4164246"><ele>124.0</ele><time>2026-04-15T06:46:49.99Z</time></trkpt><trkpt lat="41.9467869" lon="12.4165267"><ele>122.75</ele><time>2026-04-15T06:46:50.99Z</time></trkpt><trkpt lat="41.9466897" lon="12.4166297"><ele>121.5</ele><time>2026-04-15T06:46:51.989Z</time></trkpt><trkpt lat="41.9465889" lon="12.4167324"><ele>120.25</ele><time>2026-04-15T06:46:52.99Z</time></trkpt><trkpt lat="41.9464868" lon="12.4168282"><ele>119.0</ele><time>2026-04-15T06:46:53.989Z</time></trkpt><trkpt lat="41.9463787" lon="12.416926"><ele>119.0</ele><time>2026-04-15T06:46:54.99Z</time></trkpt><trkpt lat="41.9462656" lon="12.4170213"><ele>119.0</ele><time>2026-04-15T06:46:55.99Z</time></trkpt><trkpt lat="41.9461516" lon="12.4171108"><ele>119.0</ele><time>2026-04-15T06:46:56.989Z</time></trkpt><trkpt lat="41.9460497" lon="12.4171989"><ele>119.0</ele><time>2026-04-15T06:46:57.99Z</time></trkpt><trkpt lat="41.9459512" lon="12.4172849"><ele>118.49999999999999</ele><time>2026-04-15T06:46:58.99Z</time></trkpt><trkpt lat="41.945866" lon="12.4173665"><ele>118.0</ele><time>2026-04-15T06:46:59.99Z</time></trkpt><trkpt lat="41.9457847" lon="12.4174368"><ele>117.5</ele><time>2026-04-15T06:47:00.989Z</time></trkpt><trkpt lat="41.9457079" lon="12.4175007"><ele>117.0</ele><time>2026-04-15T06:47:01.989Z</time></trkpt><trkpt lat="41.9456547" lon="12.4175469"><ele>116.49999999999999</ele><time>2026-04-15T06:47:02.989Z</time></trkpt><trkpt lat="41.9455822" lon="12.4176165"><ele>116.0</ele><time>2026-04-15T06:47:04.99Z</time></trkpt><trkpt lat="41.9455056" lon="12.4176789"><ele>116.0</ele><time>2026-04-15T06:47:06.988Z</time></trkpt><trkpt lat="41.9454013" lon="12.4177531"><ele>116.0</ele><time>2026-04-15T06:47:08.99Z</time></trkpt><trkpt lat="41.9453026" lon="12.4178276"><ele>116.0</ele><time>2026-04-15T06:47:10.989Z</time></trkpt><trkpt lat="41.9452224" lon="12.4178912"><ele>116.0</ele><time>2026-04-15T06:47:12.99Z</time></trkpt><trkpt lat="41.9451266" lon="12.4179782"><ele>116.0</ele><time>2026-04-15T06:47:14.99Z</time></trkpt><trkpt lat="41.9450705" lon="12.4180246"><ele>116.99999999999999</ele><time>2026-04-15T06:47:15.989Z</time></trkpt><trkpt lat="41.9450086" lon="12.4180802"><ele>118.0</ele><time>2026-04-15T06:47:16.989Z</time></trkpt><trkpt lat="41.944943" lon="12.4181327"><ele>119.0</ele><time>2026-04-15T06:47:17.99Z</time></trkpt><trkpt lat="41.9448747" lon="12.4181828"><ele>120.0</ele><time>2026-04-15T06:47:18.989Z</time></trkpt><trkpt lat="41.9448017" lon="12.4182355"><ele>120.99999999999999</ele><time>2026-04-15T06:47:19.989Z</time></trkpt><trkpt lat="41.9447282" lon="12.4182866"><ele>122.0</ele><time>2026-04-15T06:47:20.989Z</time></trkpt><trkpt lat="41.9446559" lon="12.4183324"><ele>121.99999999999999</ele><time>2026-04-15T06:47:21.989Z</time></trkpt><trkpt lat="41.9445913" lon="12.4183766"><ele>122.0</ele><time>2026-04-15T06:47:22.989Z</time></trkpt><trkpt lat="41.9445268" lon="12.4184206"><ele>121.99999999999999</ele><time>2026-04-15T06:47:23.989Z</time></trkpt><trkpt lat="41.9444655" lon="12.4184648"><ele>121.99999999999999</ele><time>2026-04-15T06:47:24.989Z</time></trkpt><trkpt lat="41.9444032" lon="12.4185052"><ele>122.0</ele><time>2026-04-15T06:47:25.989Z</time></trkpt><trkpt lat="41.944343" lon="12.4185422"><ele>121.99999999999999</ele><time>2026-04-15T06:47:26.99Z</time></trkpt><trkpt lat="41.9442805" lon="12.4185814"><ele>121.99999999999999</ele><time>2026-04-15T06:47:27.989Z</time></trkpt><trkpt lat="41.9442121" lon="12.4186237"><ele>121.83333333333333</ele><time>2026-04-15T06:47:28.989Z</time></trkpt><trkpt lat="41.9441395" lon="12.4186667"><ele>121.66666666666666</ele><time>2026-04-15T06:47:29.989Z</time></trkpt><trkpt lat="41.94407" lon="12.4187105"><ele>121.5</ele><time>2026-04-15T06:47:30.99Z</time></trkpt><trkpt lat="41.9440004" lon="12.4187569"><ele>121.33333333333334</ele><time>2026-04-15T06:47:31.989Z</time></trkpt><trkpt lat="41.9439314" lon="12.4188017"><ele>121.16666666666667</ele><time>2026-04-15T06:47:32.99Z</time></trkpt><trkpt lat="41.9438631" lon="12.4188483"><ele>121.0</ele><time>2026-04-15T06:47:33.989Z</time></trkpt><trkpt lat="41.9437903" lon="12.4188925"><ele>121.00000000000001</ele><time>2026-04-15T06:47:34.989Z</time></trkpt><trkpt lat="41.9437176" lon="12.4189338"><ele>121.0</ele><time>2026-04-15T06:47:35.99Z</time></trkpt><trkpt lat="41.9436464" lon="12.4189859"><ele>121.0</ele><time>2026-04-15T06:47:36.99Z</time></trkpt><trkpt lat="41.9435669" lon="12.4190386"><ele>121.0</ele><time>2026-04-15T06:47:37.99Z</time></trkpt><trkpt lat="41.9434824" lon="12.4190936"><ele>121.00000000000001</ele><time>2026-04-15T06:47:38.989Z</time></trkpt><trkpt lat="41.9433868" lon="12.4191541"><ele>121.0</ele><time>2026-04-15T06:47:39.99Z</time></trkpt><trkpt lat="41.9432784" lon="12.4192261"><ele>121.25</ele><time>2026-04-15T06:47:40.989Z</time></trkpt><trkpt lat="41.9431626" lon="12.4193035"><ele>121.5</ele><time>2026-04-15T06:47:41.988Z</time></trkpt><trkpt lat="41.943039" lon="12.4193925"><ele>121.75</ele><time>2026-04-15T06:47:42.99Z</time></trkpt><trkpt lat="41.9429262" lon="12.4194757"><ele>122.0</ele><time>2026-04-15T06:47:43.989Z</time></trkpt><trkpt lat="41.9428183" lon="12.4195572"><ele>122.0</ele><time>2026-04-15T06:47:44.99Z</time></trkpt><trkpt lat="41.9427128" lon="12.4196411"><ele>122.0</ele><time>2026-04-15T06:47:45.99Z</time></trkpt><trkpt lat="41.9426084" lon="12.4197301"><ele>122.0</ele><time>2026-04-15T06:47:46.989Z</time></trkpt><trkpt lat="41.9425045" lon="12.4198204"><ele>122.0</ele><time>2026-04-15T06:47:47.989Z</time></trkpt><trkpt lat="41.9424043" lon="12.4199214"><ele>122.39999999999999</ele><time>2026-04-15T06:47:48.99Z</time></trkpt><trkpt lat="41.9423164" lon="12.4200227"><ele>122.79999999999998</ele><time>2026-04-15T06:47:49.99Z</time></trkpt><trkpt lat="41.9422494" lon="12.4201198"><ele>123.2</ele><time>2026-04-15T06:47:50.99Z</time></trkpt><trkpt lat="41.9421867" lon="12.4202177"><ele>123.6</ele><time>2026-04-15T06:47:51.99Z</time></trkpt><trkpt lat="41.9421266" lon="12.4203103"><ele>124.0</ele><time>2026-04-15T06:47:52.989Z</time></trkpt><trkpt lat="41.9420708" lon="12.4203987"><ele>124.00000000000001</ele><time>2026-04-15T06:47:53.989Z</time></trkpt><trkpt lat="41.9420268" lon="12.4204695"><ele>124.0</ele><time>2026-04-15T06:47:54.988Z</time></trkpt><trkpt lat="41.9419857" lon="12.4205341"><ele>124.0</ele><time>2026-04-15T06:47:55.989Z</time></trkpt><trkpt lat="41.9419302" lon="12.4206248"><ele>124.0</ele><time>2026-04-15T06:47:57.99Z</time></trkpt><trkpt lat="41.9418796" lon="12.4207061"><ele>124.00000000000001</ele><time>2026-04-15T06:47:59.989Z</time></trkpt><trkpt lat="41.9418094" lon="12.4208313"><ele>124.0</ele><time>2026-04-15T06:48:01.988Z</time></trkpt><trkpt lat="41.9417432" lon="12.4209098"><ele>124.00000000000001</ele><time>2026-04-15T06:48:03.989Z</time></trkpt><trkpt lat="41.9416864" lon="12.4209749"><ele>124.0</ele><time>2026-04-15T06:48:05.989Z</time></trkpt><trkpt lat="41.9416228" lon="12.4210561"><ele>124.0</ele><time>2026-04-15T06:48:07.989Z</time></trkpt><trkpt lat="41.9415769" lon="12.4211209"><ele>124.0</ele><time>2026-04-15T06:48:10.989Z</time></trkpt><trkpt lat="41.9415451" lon="12.4212473"><ele>124.00000000000001</ele><time>2026-04-15T06:48:18.989Z</time></trkpt><trkpt lat="41.9414846" lon="12.4213616"><ele>124.0</ele><time>2026-04-15T06:48:20.989Z</time></trkpt><trkpt lat="41.941433" lon="12.4214754"><ele>124.0</ele><time>2026-04-15T06:48:22.989Z</time></trkpt><trkpt lat="41.941392" lon="12.421565"><ele>124.0</ele><time>2026-04-15T06:48:25.989Z</time></trkpt><trkpt lat="41.9413555" lon="12.4216361"><ele>124.0</ele><time>2026-04-15T06:48:32.99Z</time></trkpt><trkpt lat="41.9412847" lon="12.4217387"><ele>124.0</ele><time>2026-04-15T06:48:40.99Z</time></trkpt><trkpt lat="41.9412357" lon="12.4218433"><ele>124.0</ele><time>2026-04-15T06:48:42.989Z</time></trkpt><trkpt lat="41.9411833" lon="12.4219959"><ele>124.0</ele><time>2026-04-15T06:48:44.989Z</time></trkpt><trkpt lat="41.9411563" lon="12.4220805"><ele>124.00000000000001</ele><time>2026-04-15T06:48:45.989Z</time></trkpt><trkpt lat="41.9411251" lon="12.422164"><ele>124.0</ele><time>2026-04-15T06:48:46.99Z</time></trkpt><trkpt lat="41.9410909" lon="12.42225"><ele>124.0</ele><time>2026-04-15T06:48:47.99Z</time></trkpt><trkpt lat="41.941058" lon="12.4223467"><ele>124.00000000000001</ele><time>2026-04-15T06:48:48.989Z</time></trkpt><trkpt lat="41.9410242" lon="12.4224412"><ele>124.0</ele><time>2026-04-15T06:48:49.989Z</time></trkpt><trkpt lat="41.940982" lon="12.4225327"><ele>124.0</ele><time>2026-04-15T06:48:50.99Z</time></trkpt><trkpt lat="41.9409329" lon="12.4226241"><ele>124.0</ele><time>2026-04-15T06:48:51.989Z</time></trkpt><trkpt lat="41.9408685" lon="12.4227267"><ele>124.0</ele><time>2026-04-15T06:48:52.989Z</time></trkpt><trkpt lat="41.9407904" lon="12.4228184"><ele>124.0</ele><time>2026-04-15T06:48:53.99Z</time></trkpt><trkpt lat="41.940714" lon="12.4229046"><ele>124.0</ele><time>2026-04-15T06:48:54.989Z</time></trkpt><trkpt lat="41.9406251" lon="12.422981"><ele>124.0</ele><time>2026-04-15T06:48:55.99Z</time></trkpt><trkpt lat="41.9405399" lon="12.4230511"><ele>124.50000000000001</ele><time>2026-04-15T06:48:56.989Z</time></trkpt><trkpt lat="41.9404633" lon="12.4231122"><ele>125.0</ele><time>2026-04-15T06:48:57.989Z</time></trkpt><trkpt lat="41.9403874" lon="12.4231588"><ele>125.5</ele><time>2026-04-15T06:48:58.99Z</time></trkpt><trkpt lat="41.940328" lon="12.4232017"><ele>126.0</ele><time>2026-04-15T06:48:59.99Z</time></trkpt><trkpt lat="41.9402291" lon="12.4232705"><ele>126.50000000000001</ele><time>2026-04-15T06:49:01.988Z</time></trkpt><trkpt lat="41.9401556" lon="12.4233153"><ele>127.0</ele><time>2026-04-15T06:49:03.989Z</time></trkpt><trkpt lat="41.9400834" lon="12.4233558"><ele>126.39999999999999</ele><time>2026-04-15T06:50:40.989Z</time></trkpt><trkpt lat="41.9400091" lon="12.42341"><ele>125.79999999999998</ele><time>2026-04-15T06:50:42.99Z</time></trkpt><trkpt lat="41.9398879" lon="12.4235003"><ele>125.2</ele><time>2026-04-15T06:50:44.99Z</time></trkpt><trkpt lat="41.9398019" lon="12.4235654"><ele>124.6</ele><time>2026-04-15T06:50:45.99Z</time></trkpt><trkpt lat="41.9397153" lon="12.4236304"><ele>124.0</ele><time>2026-04-15T06:50:46.989Z</time></trkpt><trkpt lat="41.9396281" lon="12.4236923"><ele>124.0</ele><time>2026-04-15T06:50:47.989Z</time></trkpt><trkpt lat="41.9395413" lon="12.4237503"><ele>124.0</ele><time>2026-04-15T06:50:48.989Z</time></trkpt><trkpt lat="41.9394641" lon="12.4238029"><ele>124.0</ele><time>2026-04-15T06:50:49.99Z</time></trkpt><trkpt lat="41.9393931" lon="12.4238433"><ele>124.0</ele><time>2026-04-15T06:50:50.989Z</time></trkpt><trkpt lat="41.9392949" lon="12.4239102"><ele>124.0</ele><time>2026-04-15T06:50:52.968Z</time></trkpt><trkpt lat="41.9392184" lon="12.4239623"><ele>124.50000000000001</ele><time>2026-04-15T06:50:54.969Z</time></trkpt><trkpt lat="41.9391523" lon="12.4239915"><ele>125.0</ele><time>2026-04-15T06:50:56.968Z</time></trkpt><trkpt lat="41.9390875" lon="12.4240221"><ele>125.5</ele><time>2026-04-15T06:51:00.968Z</time></trkpt><trkpt lat="41.9390008" lon="12.4240573"><ele>126.0</ele><time>2026-04-15T06:51:03.968Z</time></trkpt><trkpt lat="41.9389225" lon="12.4240943"><ele>126.50000000000001</ele><time>2026-04-15T06:51:05.968Z</time></trkpt><trkpt lat="41.9388332" lon="12.4241369"><ele>127.0</ele><time>2026-04-15T06:51:07.968Z</time></trkpt><trkpt lat="41.9387526" lon="12.4241786"><ele>127.00000000000001</ele><time>2026-04-15T06:51:10.968Z</time></trkpt><trkpt lat="41.9386768" lon="12.4242149"><ele>127.0</ele><time>2026-04-15T06:51:13.968Z</time></trkpt><trkpt lat="41.9386169" lon="12.424246"><ele>127.0</ele><time>2026-04-15T06:51:16.968Z</time></trkpt><trkpt lat="41.938558" lon="12.4242837"><ele>127.0</ele><time>2026-04-15T06:51:18.968Z</time></trkpt><trkpt lat="41.9384738" lon="12.4243274"><ele>127.00000000000001</ele><time>2026-04-15T06:51:20.968Z</time></trkpt><trkpt lat="41.9383637" lon="12.4243835"><ele>127.0</ele><time>2026-04-15T06:51:22.968Z</time></trkpt><trkpt lat="41.9383028" lon="12.4244159"><ele>126.6</ele><time>2026-04-15T06:51:23.968Z</time></trkpt><trkpt lat="41.9382066" lon="12.4244647"><ele>126.19999999999999</ele><time>2026-04-15T06:51:25.968Z</time></trkpt><trkpt lat="41.9381136" lon="12.4245097"><ele>125.8</ele><time>2026-04-15T06:51:27.968Z</time></trkpt><trkpt lat="41.9380026" lon="12.424566"><ele>125.4</ele><time>2026-04-15T06:51:29.968Z</time></trkpt><trkpt lat="41.9379094" lon="12.4246104"><ele>125.0</ele><time>2026-04-15T06:51:31.968Z</time></trkpt><trkpt lat="41.9378432" lon="12.4246356"><ele>124.99999999999999</ele><time>2026-04-15T06:51:33.968Z</time></trkpt><trkpt lat="41.9377561" lon="12.424668"><ele>125.0</ele><time>2026-04-15T06:51:35.968Z</time></trkpt><trkpt lat="41.9376834" lon="12.4247028"><ele>125.0</ele><time>2026-04-15T06:51:36.968Z</time></trkpt><trkpt lat="41.9376124" lon="12.4247337"><ele>125.0</ele><time>2026-04-15T06:51:37.968Z</time></trkpt><trkpt lat="41.9375424" lon="12.4247605"><ele>124.99999999999999</ele><time>2026-04-15T06:51:38.968Z</time></trkpt><trkpt lat="41.9374782" lon="12.4247918"><ele>125.0</ele><time>2026-04-15T06:51:39.968Z</time></trkpt><trkpt lat="41.9373769" lon="12.4248595"><ele>124.99999999999999</ele><time>2026-04-15T06:51:41.968Z</time></trkpt><trkpt lat="41.9373147" lon="12.4249038"><ele>125.0</ele><time>2026-04-15T06:51:43.968Z</time></trkpt><trkpt lat="41.9372539" lon="12.4249377"><ele>125.0</ele><time>2026-04-15T06:51:47.968Z</time></trkpt><trkpt lat="41.9371742" lon="12.4249855"><ele>125.0</ele><time>2026-04-15T06:51:50.968Z</time></trkpt><trkpt lat="41.9371162" lon="12.4250195"><ele>124.99999999999999</ele><time>2026-04-15T06:51:51.968Z</time></trkpt><trkpt lat="41.9370586" lon="12.4250585"><ele>125.0</ele><time>2026-04-15T06:51:52.968Z</time></trkpt><trkpt lat="41.9369591" lon="12.4251238"><ele>124.99999999999999</ele><time>2026-04-15T06:51:54.968Z</time></trkpt><trkpt lat="41.9368881" lon="12.4251651"><ele>125.0</ele><time>2026-04-15T06:51:56.968Z</time></trkpt><trkpt lat="41.9368152" lon="12.4252147"><ele>125.0</ele><time>2026-04-15T06:51:59.968Z</time></trkpt><trkpt lat="41.9367228" lon="12.4252722"><ele>125.0</ele><time>2026-04-15T06:52:01.968Z</time></trkpt><trkpt lat="41.9366541" lon="12.4253068"><ele>124.99999999999999</ele><time>2026-04-15T06:52:02.968Z</time></trkpt><trkpt lat="41.9365781" lon="12.4253504"><ele>125.0</ele><time>2026-04-15T06:52:03.968Z</time></trkpt><trkpt lat="41.9365029" lon="12.4253915"><ele>124.4</ele><time>2026-04-15T06:52:04.968Z</time></trkpt><trkpt lat="41.9364284" lon="12.4254269"><ele>123.8</ele><time>2026-04-15T06:52:05.968Z</time></trkpt><trkpt lat="41.9363514" lon="12.4254881"><ele>123.19999999999999</ele><time>2026-04-15T06:52:06.968Z</time></trkpt><trkpt lat="41.936277" lon="12.425559"><ele>122.6</ele><time>2026-04-15T06:52:07.968Z</time></trkpt><trkpt lat="41.9362004" lon="12.4256509"><ele>122.0</ele><time>2026-04-15T06:52:08.968Z</time></trkpt><trkpt lat="41.9361233" lon="12.4257422"><ele>122.0</ele><time>2026-04-15T06:52:09.968Z</time></trkpt><trkpt lat="41.9360466" lon="12.4258346"><ele>121.99999999999999</ele><time>2026-04-15T06:52:10.968Z</time></trkpt><trkpt lat="41.9359747" lon="12.4259213"><ele>121.99999999999999</ele><time>2026-04-15T06:52:11.968Z</time></trkpt><trkpt lat="41.9359009" lon="12.4260025"><ele>122.0</ele><time>2026-04-15T06:52:12.968Z</time></trkpt><trkpt lat="41.9358232" lon="12.4260814"><ele>122.0</ele><time>2026-04-15T06:52:13.968Z</time></trkpt><trkpt lat="41.9357443" lon="12.4261684"><ele>121.66666666666666</ele><time>2026-04-15T06:52:14.968Z</time></trkpt><trkpt lat="41.935676" lon="12.4262383"><ele>121.33333333333333</ele><time>2026-04-15T06:52:15.968Z</time></trkpt><trkpt lat="41.9356228" lon="12.4262926"><ele>121.0</ele><time>2026-04-15T06:52:16.968Z</time></trkpt><trkpt lat="41.9355589" lon="12.4264293"><ele>120.66666666666666</ele><time>2026-04-15T06:52:18.968Z</time></trkpt><trkpt lat="41.9355427" lon="12.4265369"><ele>120.33333333333333</ele><time>2026-04-15T06:52:19.968Z</time></trkpt><trkpt lat="41.9355428" lon="12.4266459"><ele>120.0</ele><time>2026-04-15T06:52:20.968Z</time></trkpt><trkpt lat="41.9355559" lon="12.4267653"><ele>119.8</ele><time>2026-04-15T06:52:21.968Z</time></trkpt><trkpt lat="41.9355854" lon="12.4268771"><ele>119.6</ele><time>2026-04-15T06:52:22.968Z</time></trkpt><trkpt lat="41.9356358" lon="12.4269845"><ele>119.4</ele><time>2026-04-15T06:52:23.968Z</time></trkpt><trkpt lat="41.9356914" lon="12.427083"><ele>119.2</ele><time>2026-04-15T06:52:24.968Z</time></trkpt><trkpt lat="41.9357766" lon="12.4271944"><ele>119.0</ele><time>2026-04-15T06:52:25.968Z</time></trkpt><trkpt lat="41.9359333" lon="12.4273094"><ele>120.66666666666666</ele><time>2026-04-15T06:52:27.968Z</time></trkpt><trkpt lat="41.9360552" lon="12.4274466"><ele>122.33333333333334</ele><time>2026-04-15T06:52:28.968Z</time></trkpt><trkpt lat="41.9361685" lon="12.4275907"><ele>124.0</ele><time>2026-04-15T06:52:29.968Z</time></trkpt><trkpt lat="41.9362612" lon="12.4277262"><ele>124.0</ele><time>2026-04-15T06:52:30.968Z</time></trkpt><trkpt lat="41.9363389" lon="12.4278559"><ele>124.0</ele><time>2026-04-15T06:52:31.968Z</time></trkpt><trkpt lat="41.9364137" lon="12.428002"><ele>124.0</ele><time>2026-04-15T06:52:32.968Z</time></trkpt><trkpt lat="41.9364739" lon="12.4281486"><ele>124.0</ele><time>2026-04-15T06:52:33.968Z</time></trkpt><trkpt lat="41.936524" lon="12.4282994"><ele>124.2</ele><time>2026-04-15T06:52:34.968Z</time></trkpt><trkpt lat="41.9365596" lon="12.4284463"><ele>124.4</ele><time>2026-04-15T06:52:35.968Z</time></trkpt><trkpt lat="41.9365899" lon="12.4285772"><ele>124.6</ele><time>2026-04-15T06:52:36.968Z</time></trkpt><trkpt lat="41.9366118" lon="12.4286998"><ele>124.8</ele><time>2026-04-15T06:52:37.968Z</time></trkpt><trkpt lat="41.9366327" lon="12.4288181"><ele>125.0</ele><time>2026-04-15T06:52:38.968Z</time></trkpt><trkpt lat="41.9366513" lon="12.4289399"><ele>125.0</ele><time>2026-04-15T06:52:39.968Z</time></trkpt><trkpt lat="41.9366742" lon="12.4290821"><ele>125.0</ele><time>2026-04-15T06:52:40.968Z</time></trkpt><trkpt lat="41.936692" lon="12.4292297"><ele>125.0</ele><time>2026-04-15T06:52:41.968Z</time></trkpt><trkpt lat="41.9367038" lon="12.4293834"><ele>125.0</ele><time>2026-04-15T06:52:42.968Z</time></trkpt><trkpt lat="41.9367057" lon="12.4295404"><ele>124.5</ele><time>2026-04-15T06:52:43.968Z</time></trkpt><trkpt lat="41.9366977" lon="12.4297029"><ele>124.0</ele><time>2026-04-15T06:52:44.968Z</time></trkpt><trkpt lat="41.9366797" lon="12.4298622"><ele>123.5</ele><time>2026-04-15T06:52:45.968Z</time></trkpt><trkpt lat="41.9366505" lon="12.430017"><ele>123.0</ele><time>2026-04-15T06:52:46.968Z</time></trkpt><trkpt lat="41.9366088" lon="12.4301552"><ele>123.0</ele><time>2026-04-15T06:52:47.968Z</time></trkpt><trkpt lat="41.9365564" lon="12.4302941"><ele>123.0</ele><time>2026-04-15T06:52:48.968Z</time></trkpt><trkpt lat="41.9364938" lon="12.4304263"><ele>123.0</ele><time>2026-04-15T06:52:49.968Z</time></trkpt><trkpt lat="41.9364189" lon="12.43056"><ele>123.0</ele><time>2026-04-15T06:52:50.968Z</time></trkpt><trkpt lat="41.936327" lon="12.4307006"><ele>122.0</ele><time>2026-04-15T06:52:51.968Z</time></trkpt><trkpt lat="41.9362174" lon="12.4308518"><ele>121.0</ele><time>2026-04-15T06:52:52.968Z</time></trkpt><trkpt lat="41.9360912" lon="12.4310203"><ele>120.0</ele><time>2026-04-15T06:52:53.968Z</time></trkpt><trkpt lat="41.9359515" lon="12.4311908"><ele>121.66666666666666</ele><time>2026-04-15T06:52:54.968Z</time></trkpt><trkpt lat="41.9358097" lon="12.4313576"><ele>123.33333333333333</ele><time>2026-04-15T06:52:55.968Z</time></trkpt><trkpt lat="41.9356623" lon="12.4315314"><ele>125.0</ele><time>2026-04-15T06:52:56.968Z</time></trkpt><trkpt lat="41.935529" lon="12.4316913"><ele>125.0</ele><time>2026-04-15T06:52:57.968Z</time></trkpt><trkpt lat="41.9354052" lon="12.4318504"><ele>125.0</ele><time>2026-04-15T06:52:58.968Z</time></trkpt><trkpt lat="41.9352912" lon="12.4320147"><ele>125.0</ele><time>2026-04-15T06:52:59.968Z</time></trkpt><trkpt lat="41.935186" lon="12.432186"><ele>125.25</ele><time>2026-04-15T06:53:00.968Z</time></trkpt><trkpt lat="41.9350918" lon="12.4323578"><ele>125.5</ele><time>2026-04-15T06:53:01.968Z</time></trkpt><trkpt lat="41.9350053" lon="12.4325217"><ele>125.75</ele><time>2026-04-15T06:53:02.967Z</time></trkpt><trkpt lat="41.9349295" lon="12.4326771"><ele>126.0</ele><time>2026-04-15T06:53:03.968Z</time></trkpt><trkpt lat="41.934849" lon="12.4328424"><ele>126.25</ele><time>2026-04-15T06:53:04.968Z</time></trkpt><trkpt lat="41.9347752" lon="12.4329983"><ele>126.5</ele><time>2026-04-15T06:53:05.968Z</time></trkpt><trkpt lat="41.9347078" lon="12.4331519"><ele>126.75</ele><time>2026-04-15T06:53:06.968Z</time></trkpt><trkpt lat="41.9346478" lon="12.4332975"><ele>127.0</ele><time>2026-04-15T06:53:07.968Z</time></trkpt><trkpt lat="41.9346041" lon="12.4334298"><ele>127.00000000000001</ele><time>2026-04-15T06:53:08.968Z</time></trkpt><trkpt lat="41.934577" lon="12.4335515"><ele>127.0</ele><time>2026-04-15T06:53:09.968Z</time></trkpt><trkpt lat="41.9345742" lon="12.4336595"><ele>127.0</ele><time>2026-04-15T06:53:10.968Z</time></trkpt><trkpt lat="41.9345963" lon="12.4337493"><ele>127.0</ele><time>2026-04-15T06:53:11.968Z</time></trkpt><trkpt lat="41.9346892" lon="12.4338068"><ele>127.00000000000001</ele><time>2026-04-15T06:53:13.968Z</time></trkpt><trkpt lat="41.9347571" lon="12.4337084"><ele>127.0</ele><time>2026-04-15T06:53:15.968Z</time></trkpt><trkpt lat="41.934776" lon="12.4335999"><ele>127.0</ele><time>2026-04-15T06:53:16.968Z</time></trkpt><trkpt lat="41.9347967" lon="12.4334599"><ele>127.0</ele><time>2026-04-15T06:53:17.968Z</time></trkpt><trkpt lat="41.9348368" lon="12.4332815"><ele>127.0</ele><time>2026-04-15T06:53:18.968Z</time></trkpt><trkpt lat="41.9348922" lon="12.4330815"><ele>127.0</ele><time>2026-04-15T06:53:19.968Z</time></trkpt><trkpt lat="41.9349722" lon="12.432844"><ele>127.66666666666667</ele><time>2026-04-15T06:53:20.967Z</time></trkpt><trkpt lat="41.9350657" lon="12.4326158"><ele>128.33333333333334</ele><time>2026-04-15T06:53:21.968Z</time></trkpt><trkpt lat="41.9351665" lon="12.4324016"><ele>129.0</ele><time>2026-04-15T06:53:22.968Z</time></trkpt><trkpt lat="41.9352683" lon="12.4322189"><ele>128.0</ele><time>2026-04-15T06:53:23.968Z</time></trkpt><trkpt lat="41.9353695" lon="12.4320672"><ele>127.0</ele><time>2026-04-15T06:53:24.968Z</time></trkpt><trkpt lat="41.9354743" lon="12.4319366"><ele>126.0</ele><time>2026-04-15T06:53:25.968Z</time></trkpt><trkpt lat="41.9355854" lon="12.43182"><ele>125.0</ele><time>2026-04-15T06:53:26.968Z</time></trkpt><trkpt lat="41.9356939" lon="12.4317152"><ele>125.0</ele><time>2026-04-15T06:53:27.968Z</time></trkpt><trkpt lat="41.9358052" lon="12.4316152"><ele>125.0</ele><time>2026-04-15T06:53:28.968Z</time></trkpt><trkpt lat="41.935909" lon="12.4315272"><ele>125.0</ele><time>2026-04-15T06:53:29.967Z</time></trkpt><trkpt lat="41.9360097" lon="12.4314499"><ele>125.0</ele><time>2026-04-15T06:53:30.968Z</time></trkpt><trkpt lat="41.9361076" lon="12.4313898"><ele>125.0</ele><time>2026-04-15T06:53:31.968Z</time></trkpt><trkpt lat="41.936203" lon="12.4313555"><ele>125.0</ele><time>2026-04-15T06:53:32.968Z</time></trkpt><trkpt lat="41.9363009" lon="12.4313475"><ele>125.0</ele><time>2026-04-15T06:53:33.968Z</time></trkpt><trkpt lat="41.9363983" lon="12.4313693"><ele>125.0</ele><time>2026-04-15T06:53:34.968Z</time></trkpt><trkpt lat="41.936484" lon="12.4314222"><ele>125.0</ele><time>2026-04-15T06:53:35.968Z</time></trkpt><trkpt lat="41.9365606" lon="12.4315054"><ele>125.0</ele><time>2026-04-15T06:53:36.968Z</time></trkpt><trkpt lat="41.9366187" lon="12.4316104"><ele>125.0</ele><time>2026-04-15T06:53:37.968Z</time></trkpt><trkpt lat="41.9366602" lon="12.4317377"><ele>125.0</ele><time>2026-04-15T06:53:38.968Z</time></trkpt><trkpt lat="41.9366921" lon="12.4318887"><ele>125.0</ele><time>2026-04-15T06:53:39.968Z</time></trkpt><trkpt lat="41.9367314" lon="12.4320512"><ele>125.0</ele><time>2026-04-15T06:53:40.968Z</time></trkpt><trkpt lat="41.936785" lon="12.4322204"><ele>126.33333333333333</ele><time>2026-04-15T06:53:41.968Z</time></trkpt><trkpt lat="41.9368568" lon="12.4323924"><ele>127.66666666666666</ele><time>2026-04-15T06:53:42.968Z</time></trkpt><trkpt lat="41.9369441" lon="12.4325553"><ele>129.0</ele><time>2026-04-15T06:53:43.968Z</time></trkpt><trkpt lat="41.9370557" lon="12.4327231"><ele>129.0</ele><time>2026-04-15T06:53:44.968Z</time></trkpt><trkpt lat="41.9371772" lon="12.4328817"><ele>129.0</ele><time>2026-04-15T06:53:45.968Z</time></trkpt><trkpt lat="41.9373059" lon="12.4330266"><ele>129.0</ele><time>2026-04-15T06:53:46.968Z</time></trkpt><trkpt lat="41.9374228" lon="12.4331519"><ele>129.2</ele><time>2026-04-15T06:53:47.968Z</time></trkpt><trkpt lat="41.9375274" lon="12.4332551"><ele>129.4</ele><time>2026-04-15T06:53:48.968Z</time></trkpt><trkpt lat="41.9376177" lon="12.4333429"><ele>129.6</ele><time>2026-04-15T06:53:49.968Z</time></trkpt><trkpt lat="41.9376949" lon="12.4334196"><ele>129.8</ele><time>2026-04-15T06:53:50.968Z</time></trkpt><trkpt lat="41.9377637" lon="12.433487"><ele>130.0</ele><time>2026-04-15T06:53:51.968Z</time></trkpt><trkpt lat="41.9378374" lon="12.43355"><ele>124.0</ele><time>2026-04-15T06:53:52.968Z</time></trkpt><trkpt lat="41.9379101" lon="12.4335889"><ele>124.0</ele><time>2026-04-15T06:53:53.968Z</time></trkpt><trkpt lat="41.9379819" lon="12.4335987"><ele>124.0</ele><time>2026-04-15T06:53:54.968Z</time></trkpt><trkpt lat="41.9380452" lon="12.4335744"><ele>124.0</ele><time>2026-04-15T06:53:55.968Z</time></trkpt><trkpt lat="41.9381013" lon="12.4335253"><ele>124.0</ele><time>2026-04-15T06:53:56.967Z</time></trkpt><trkpt lat="41.9381558" lon="12.4334251"><ele>124.0</ele><time>2026-04-15T06:53:58.968Z</time></trkpt></trkseg></trk></gpx>